<?xml version="1.0" encoding="UTF-8" standalone="no" ?>
<gpx xmlns="http://www.topografix.com/GPX/1/1" xmlns:xsi="http://www.w3.org/2001/XMLSchema-instance" xsi:schemaLocation="http://www.topografix.com/GPX/1/1 http://www.topografix.com/GPX/1/1/gpx.xsd" version="1.1" creator="VisuGPX - https://www.visugpx.com">
  <metadata>
    <name>Le Caylar</name>
  </metadata>
  <trk>
    <name><![CDATA[Le Caylar_1]]></name>
    <trkseg>
      <trkpt lat="43.86566" lon="3.32369">
        <ele>733</ele>
        <time>2021-05-13T13:49:53Z</time>
      </trkpt>
      <trkpt lat="43.86597" lon="3.32441">
        <ele>735</ele>
        <time>2021-05-13T13:50:13Z</time>
      </trkpt>
      <trkpt lat="43.86633" lon="3.32495">
        <ele>737</ele>
        <time>2021-05-13T13:50:31Z</time>
      </trkpt>
      <trkpt lat="43.8673" lon="3.32588">
        <ele>737</ele>
        <time>2021-05-13T13:51:04Z</time>
      </trkpt>
      <trkpt lat="43.86781" lon="3.3263">
        <ele>740</ele>
        <time>2021-05-13T13:51:21Z</time>
      </trkpt>
      <trkpt lat="43.86828" lon="3.32666">
        <ele>739</ele>
        <time>2021-05-13T13:51:32Z</time>
      </trkpt>
      <trkpt lat="43.8684" lon="3.32692">
        <ele>737</ele>
        <time>2021-05-13T13:51:40Z</time>
      </trkpt>
      <trkpt lat="43.86856" lon="3.32718">
        <ele>737</ele>
        <time>2021-05-13T13:51:56Z</time>
      </trkpt>
      <trkpt lat="43.86875" lon="3.32778">
        <ele>735</ele>
        <time>2021-05-13T13:52:13Z</time>
      </trkpt>
      <trkpt lat="43.86914" lon="3.32856">
        <ele>734</ele>
        <time>2021-05-13T13:52:35Z</time>
      </trkpt>
      <trkpt lat="43.86939" lon="3.32883">
        <ele>735</ele>
        <time>2021-05-13T13:55:23Z</time>
      </trkpt>
      <trkpt lat="43.8699" lon="3.32935">
        <ele>736</ele>
        <time>2021-05-13T13:55:46Z</time>
      </trkpt>
      <trkpt lat="43.87028" lon="3.33013">
        <ele>736</ele>
        <time>2021-05-13T13:56:05Z</time>
      </trkpt>
      <trkpt lat="43.87057" lon="3.33063">
        <ele>734</ele>
        <time>2021-05-13T13:56:16Z</time>
      </trkpt>
      <trkpt lat="43.87088" lon="3.33097">
        <ele>733</ele>
        <time>2021-05-13T13:56:26Z</time>
      </trkpt>
      <trkpt lat="43.87099" lon="3.33106">
        <ele>731</ele>
        <time>2021-05-13T13:56:41Z</time>
      </trkpt>
      <trkpt lat="43.87112" lon="3.33142">
        <ele>731</ele>
        <time>2021-05-13T13:56:54Z</time>
      </trkpt>
      <trkpt lat="43.87112" lon="3.33267">
        <ele>733</ele>
        <time>2021-05-13T13:57:21Z</time>
      </trkpt>
      <trkpt lat="43.87116" lon="3.33306">
        <ele>733</ele>
        <time>2021-05-13T13:57:32Z</time>
      </trkpt>
      <trkpt lat="43.87135" lon="3.33336">
        <ele>733</ele>
        <time>2021-05-13T13:58:33Z</time>
      </trkpt>
      <trkpt lat="43.87162" lon="3.33375">
        <ele>731</ele>
        <time>2021-05-13T13:58:43Z</time>
      </trkpt>
      <trkpt lat="43.87172" lon="3.33402">
        <ele>730</ele>
        <time>2021-05-13T13:58:48Z</time>
      </trkpt>
      <trkpt lat="43.87184" lon="3.33434">
        <ele>728</ele>
        <time>2021-05-13T13:58:57Z</time>
      </trkpt>
      <trkpt lat="43.87192" lon="3.33417">
        <ele>727</ele>
        <time>2021-05-13T13:59:07Z</time>
      </trkpt>
      <trkpt lat="43.87188" lon="3.33428">
        <ele>727</ele>
        <time>2021-05-13T14:05:24Z</time>
      </trkpt>
      <trkpt lat="43.87189" lon="3.33488">
        <ele>727</ele>
        <time>2021-05-13T14:05:33Z</time>
      </trkpt>
      <trkpt lat="43.87205" lon="3.33598">
        <ele>726</ele>
        <time>2021-05-13T14:05:48Z</time>
      </trkpt>
      <trkpt lat="43.87207" lon="3.33664">
        <ele>726</ele>
        <time>2021-05-13T14:05:58Z</time>
      </trkpt>
      <trkpt lat="43.8722" lon="3.33742">
        <ele>726</ele>
        <time>2021-05-13T14:06:09Z</time>
      </trkpt>
      <trkpt lat="43.87246" lon="3.3385">
        <ele>726</ele>
        <time>2021-05-13T14:06:28Z</time>
      </trkpt>
      <trkpt lat="43.87238" lon="3.33903">
        <ele>725</ele>
        <time>2021-05-13T14:06:45Z</time>
      </trkpt>
      <trkpt lat="43.87209" lon="3.33959">
        <ele>726</ele>
        <time>2021-05-13T14:07:07Z</time>
      </trkpt>
      <trkpt lat="43.8721" lon="3.34051">
        <ele>725</ele>
        <time>2021-05-13T14:07:30Z</time>
      </trkpt>
      <trkpt lat="43.87176" lon="3.34168">
        <ele>724</ele>
        <time>2021-05-13T14:07:55Z</time>
      </trkpt>
      <trkpt lat="43.8712" lon="3.34285">
        <ele>725</ele>
        <time>2021-05-13T14:08:26Z</time>
      </trkpt>
      <trkpt lat="43.8709" lon="3.34371">
        <ele>726</ele>
        <time>2021-05-13T14:08:49Z</time>
      </trkpt>
      <trkpt lat="43.8707" lon="3.34454">
        <ele>727</ele>
        <time>2021-05-13T14:09:06Z</time>
      </trkpt>
      <trkpt lat="43.87058" lon="3.34502">
        <ele>725</ele>
        <time>2021-05-13T14:09:16Z</time>
      </trkpt>
      <trkpt lat="43.87054" lon="3.34579">
        <ele>724</ele>
        <time>2021-05-13T14:09:30Z</time>
      </trkpt>
      <trkpt lat="43.87044" lon="3.34612">
        <ele>722</ele>
        <time>2021-05-13T14:09:37Z</time>
      </trkpt>
      <trkpt lat="43.87022" lon="3.3462">
        <ele>723</ele>
        <time>2021-05-13T14:09:47Z</time>
      </trkpt>
      <trkpt lat="43.86976" lon="3.3464">
        <ele>725</ele>
        <time>2021-05-13T14:10:05Z</time>
      </trkpt>
      <trkpt lat="43.86921" lon="3.34653">
        <ele>727</ele>
        <time>2021-05-13T14:10:26Z</time>
      </trkpt>
      <trkpt lat="43.86892" lon="3.34667">
        <ele>728</ele>
        <time>2021-05-13T14:10:37Z</time>
      </trkpt>
      <trkpt lat="43.8686" lon="3.3468">
        <ele>729</ele>
        <time>2021-05-13T14:10:51Z</time>
      </trkpt>
      <trkpt lat="43.86838" lon="3.34695">
        <ele>729</ele>
        <time>2021-05-13T14:11:10Z</time>
      </trkpt>
      <trkpt lat="43.86794" lon="3.34719">
        <ele>727</ele>
        <time>2021-05-13T14:15:29Z</time>
      </trkpt>
      <trkpt lat="43.86764" lon="3.34735">
        <ele>725</ele>
        <time>2021-05-13T14:15:35Z</time>
      </trkpt>
      <trkpt lat="43.86757" lon="3.34777">
        <ele>723</ele>
        <time>2021-05-13T14:15:41Z</time>
      </trkpt>
      <trkpt lat="43.86747" lon="3.34799">
        <ele>720</ele>
        <time>2021-05-13T14:15:46Z</time>
      </trkpt>
      <trkpt lat="43.86733" lon="3.34816">
        <ele>719</ele>
        <time>2021-05-13T14:15:58Z</time>
      </trkpt>
      <trkpt lat="43.86705" lon="3.34831">
        <ele>720</ele>
        <time>2021-05-13T14:16:17Z</time>
      </trkpt>
      <trkpt lat="43.86667" lon="3.34828">
        <ele>720</ele>
        <time>2021-05-13T14:16:35Z</time>
      </trkpt>
      <trkpt lat="43.8662" lon="3.34825">
        <ele>721</ele>
        <time>2021-05-13T14:16:53Z</time>
      </trkpt>
      <trkpt lat="43.86583" lon="3.34838">
        <ele>722</ele>
        <time>2021-05-13T14:17:09Z</time>
      </trkpt>
      <trkpt lat="43.86542" lon="3.34869">
        <ele>721</ele>
        <time>2021-05-13T14:17:24Z</time>
      </trkpt>
      <trkpt lat="43.86515" lon="3.34896">
        <ele>722</ele>
        <time>2021-05-13T14:17:37Z</time>
      </trkpt>
      <trkpt lat="43.86501" lon="3.34934">
        <ele>722</ele>
        <time>2021-05-13T14:17:52Z</time>
      </trkpt>
      <trkpt lat="43.86513" lon="3.34979">
        <ele>722</ele>
        <time>2021-05-13T14:18:24Z</time>
      </trkpt>
      <trkpt lat="43.86521" lon="3.35009">
        <ele>722</ele>
        <time>2021-05-13T14:18:36Z</time>
      </trkpt>
      <trkpt lat="43.86536" lon="3.35097">
        <ele>722</ele>
        <time>2021-05-13T14:18:55Z</time>
      </trkpt>
      <trkpt lat="43.86535" lon="3.35174">
        <ele>724</ele>
        <time>2021-05-13T14:19:13Z</time>
      </trkpt>
      <trkpt lat="43.86544" lon="3.35196">
        <ele>725</ele>
        <time>2021-05-13T14:19:19Z</time>
      </trkpt>
      <trkpt lat="43.86591" lon="3.35218">
        <ele>724</ele>
        <time>2021-05-13T14:19:32Z</time>
      </trkpt>
      <trkpt lat="43.86623" lon="3.35284">
        <ele>725</ele>
        <time>2021-05-13T14:19:52Z</time>
      </trkpt>
      <trkpt lat="43.86677" lon="3.35323">
        <ele>724</ele>
        <time>2021-05-13T14:20:10Z</time>
      </trkpt>
      <trkpt lat="43.86709" lon="3.35361">
        <ele>724</ele>
        <time>2021-05-13T14:20:21Z</time>
      </trkpt>
      <trkpt lat="43.86732" lon="3.35404">
        <ele>724</ele>
        <time>2021-05-13T14:20:32Z</time>
      </trkpt>
      <trkpt lat="43.86769" lon="3.35462">
        <ele>724</ele>
        <time>2021-05-13T14:20:48Z</time>
      </trkpt>
      <trkpt lat="43.86777" lon="3.35519">
        <ele>724</ele>
        <time>2021-05-13T14:21:02Z</time>
      </trkpt>
      <trkpt lat="43.86765" lon="3.35556">
        <ele>726</ele>
        <time>2021-05-13T14:21:14Z</time>
      </trkpt>
      <trkpt lat="43.86758" lon="3.35634">
        <ele>726</ele>
        <time>2021-05-13T14:21:33Z</time>
      </trkpt>
      <trkpt lat="43.8675" lon="3.35663">
        <ele>727</ele>
        <time>2021-05-13T14:21:46Z</time>
      </trkpt>
      <trkpt lat="43.86734" lon="3.35708">
        <ele>729</ele>
        <time>2021-05-13T14:22:06Z</time>
      </trkpt>
      <trkpt lat="43.86723" lon="3.35739">
        <ele>730</ele>
        <time>2021-05-13T14:22:19Z</time>
      </trkpt>
      <trkpt lat="43.86722" lon="3.35756">
        <ele>729</ele>
        <time>2021-05-13T14:24:30Z</time>
      </trkpt>
      <trkpt lat="43.86691" lon="3.35808">
        <ele>729</ele>
        <time>2021-05-13T14:24:51Z</time>
      </trkpt>
      <trkpt lat="43.86679" lon="3.35816">
        <ele>729</ele>
        <time>2021-05-13T14:25:00Z</time>
      </trkpt>
      <trkpt lat="43.86677" lon="3.35813">
        <ele>728</ele>
        <time>2021-05-13T14:26:09Z</time>
      </trkpt>
      <trkpt lat="43.86656" lon="3.35801">
        <ele>729</ele>
        <time>2021-05-13T14:26:23Z</time>
      </trkpt>
      <trkpt lat="43.86646" lon="3.35784">
        <ele>729</ele>
        <time>2021-05-13T14:26:33Z</time>
      </trkpt>
      <trkpt lat="43.86606" lon="3.35788">
        <ele>727</ele>
        <time>2021-05-13T14:26:45Z</time>
      </trkpt>
      <trkpt lat="43.8658" lon="3.35809">
        <ele>725</ele>
        <time>2021-05-13T14:26:51Z</time>
      </trkpt>
      <trkpt lat="43.86569" lon="3.3584">
        <ele>724</ele>
        <time>2021-05-13T14:26:56Z</time>
      </trkpt>
      <trkpt lat="43.86563" lon="3.35877">
        <ele>722</ele>
        <time>2021-05-13T14:27:04Z</time>
      </trkpt>
      <trkpt lat="43.8655" lon="3.35898">
        <ele>720</ele>
        <time>2021-05-13T14:27:13Z</time>
      </trkpt>
      <trkpt lat="43.86571" lon="3.35932">
        <ele>721</ele>
        <time>2021-05-13T14:27:30Z</time>
      </trkpt>
      <trkpt lat="43.86587" lon="3.35947">
        <ele>723</ele>
        <time>2021-05-13T14:27:40Z</time>
      </trkpt>
      <trkpt lat="43.86592" lon="3.35968">
        <ele>724</ele>
        <time>2021-05-13T14:27:50Z</time>
      </trkpt>
      <trkpt lat="43.86593" lon="3.35994">
        <ele>726</ele>
        <time>2021-05-13T14:28:00Z</time>
      </trkpt>
      <trkpt lat="43.8661" lon="3.36036">
        <ele>724</ele>
        <time>2021-05-13T14:28:13Z</time>
      </trkpt>
      <trkpt lat="43.86626" lon="3.36088">
        <ele>723</ele>
        <time>2021-05-13T14:28:33Z</time>
      </trkpt>
      <trkpt lat="43.86628" lon="3.36105">
        <ele>725</ele>
        <time>2021-05-13T14:28:43Z</time>
      </trkpt>
      <trkpt lat="43.86632" lon="3.36117">
        <ele>726</ele>
        <time>2021-05-13T14:28:51Z</time>
      </trkpt>
      <trkpt lat="43.8665" lon="3.36128">
        <ele>728</ele>
        <time>2021-05-13T14:29:06Z</time>
      </trkpt>
      <trkpt lat="43.86654" lon="3.3614">
        <ele>730</ele>
        <time>2021-05-13T14:29:17Z</time>
      </trkpt>
      <trkpt lat="43.86664" lon="3.36143">
        <ele>730</ele>
        <time>2021-05-13T14:29:26Z</time>
      </trkpt>
      <trkpt lat="43.86681" lon="3.36156">
        <ele>730</ele>
        <time>2021-05-13T14:29:40Z</time>
      </trkpt>
      <trkpt lat="43.86688" lon="3.36171">
        <ele>730</ele>
        <time>2021-05-13T14:30:33Z</time>
      </trkpt>
      <trkpt lat="43.86701" lon="3.362">
        <ele>730</ele>
        <time>2021-05-13T14:30:52Z</time>
      </trkpt>
      <trkpt lat="43.86717" lon="3.36232">
        <ele>729</ele>
        <time>2021-05-13T14:31:34Z</time>
      </trkpt>
      <trkpt lat="43.86723" lon="3.36241">
        <ele>727</ele>
        <time>2021-05-13T14:33:07Z</time>
      </trkpt>
      <trkpt lat="43.86758" lon="3.36249">
        <ele>724</ele>
        <time>2021-05-13T14:33:26Z</time>
      </trkpt>
      <trkpt lat="43.86802" lon="3.36264">
        <ele>721</ele>
        <time>2021-05-13T14:33:41Z</time>
      </trkpt>
      <trkpt lat="43.86848" lon="3.36319">
        <ele>717</ele>
        <time>2021-05-13T14:33:53Z</time>
      </trkpt>
      <trkpt lat="43.86873" lon="3.36358">
        <ele>716</ele>
        <time>2021-05-13T14:34:07Z</time>
      </trkpt>
      <trkpt lat="43.86874" lon="3.36299">
        <ele>715</ele>
        <time>2021-05-13T14:34:24Z</time>
      </trkpt>
      <trkpt lat="43.86928" lon="3.36234">
        <ele>716</ele>
        <time>2021-05-13T14:34:35Z</time>
      </trkpt>
      <trkpt lat="43.86983" lon="3.3625">
        <ele>717</ele>
        <time>2021-05-13T14:34:42Z</time>
      </trkpt>
      <trkpt lat="43.87029" lon="3.36274">
        <ele>716</ele>
        <time>2021-05-13T14:34:55Z</time>
      </trkpt>
      <trkpt lat="43.87074" lon="3.36384">
        <ele>717</ele>
        <time>2021-05-13T14:35:14Z</time>
      </trkpt>
      <trkpt lat="43.8703" lon="3.36475">
        <ele>718</ele>
        <time>2021-05-13T14:35:25Z</time>
      </trkpt>
      <trkpt lat="43.87009" lon="3.36492">
        <ele>719</ele>
        <time>2021-05-13T14:35:33Z</time>
      </trkpt>
      <trkpt lat="43.86975" lon="3.36497">
        <ele>719</ele>
        <time>2021-05-13T14:35:44Z</time>
      </trkpt>
      <trkpt lat="43.86934" lon="3.36526">
        <ele>717</ele>
        <time>2021-05-13T14:35:54Z</time>
      </trkpt>
      <trkpt lat="43.8692" lon="3.36473">
        <ele>715</ele>
        <time>2021-05-13T14:37:03Z</time>
      </trkpt>
      <trkpt lat="43.86882" lon="3.36429">
        <ele>715</ele>
        <time>2021-05-13T14:48:07Z</time>
      </trkpt>
      <trkpt lat="43.86833" lon="3.3642">
        <ele>715</ele>
        <time>2021-05-13T14:48:24Z</time>
      </trkpt>
      <trkpt lat="43.86782" lon="3.36446">
        <ele>717</ele>
        <time>2021-05-13T14:48:38Z</time>
      </trkpt>
      <trkpt lat="43.86731" lon="3.36518">
        <ele>720</ele>
        <time>2021-05-13T14:49:00Z</time>
      </trkpt>
      <trkpt lat="43.86678" lon="3.36629">
        <ele>721</ele>
        <time>2021-05-13T14:49:16Z</time>
      </trkpt>
      <trkpt lat="43.86613" lon="3.3673">
        <ele>720</ele>
        <time>2021-05-13T14:49:40Z</time>
      </trkpt>
      <trkpt lat="43.86562" lon="3.3678">
        <ele>719</ele>
        <time>2021-05-13T14:49:55Z</time>
      </trkpt>
      <trkpt lat="43.86548" lon="3.36847">
        <ele>722</ele>
        <time>2021-05-13T14:50:13Z</time>
      </trkpt>
      <trkpt lat="43.86544" lon="3.36894">
        <ele>724</ele>
        <time>2021-05-13T14:50:25Z</time>
      </trkpt>
      <trkpt lat="43.86537" lon="3.36966">
        <ele>724</ele>
        <time>2021-05-13T14:50:38Z</time>
      </trkpt>
      <trkpt lat="43.86509" lon="3.37027">
        <ele>722</ele>
        <time>2021-05-13T14:50:47Z</time>
      </trkpt>
      <trkpt lat="43.86493" lon="3.37093">
        <ele>721</ele>
        <time>2021-05-13T14:50:56Z</time>
      </trkpt>
      <trkpt lat="43.86474" lon="3.37196">
        <ele>721</ele>
        <time>2021-05-13T14:51:11Z</time>
      </trkpt>
      <trkpt lat="43.8646" lon="3.3728">
        <ele>722</ele>
        <time>2021-05-13T14:51:27Z</time>
      </trkpt>
      <trkpt lat="43.86452" lon="3.37338">
        <ele>719</ele>
        <time>2021-05-13T14:52:31Z</time>
      </trkpt>
      <trkpt lat="43.86403" lon="3.374">
        <ele>717</ele>
        <time>2021-05-13T14:52:50Z</time>
      </trkpt>
      <trkpt lat="43.86398" lon="3.37515">
        <ele>719</ele>
        <time>2021-05-13T14:53:15Z</time>
      </trkpt>
      <trkpt lat="43.86392" lon="3.37562">
        <ele>719</ele>
        <time>2021-05-13T14:53:31Z</time>
      </trkpt>
      <trkpt lat="43.86359" lon="3.37676">
        <ele>717</ele>
        <time>2021-05-13T14:53:50Z</time>
      </trkpt>
      <trkpt lat="43.86323" lon="3.37783">
        <ele>714</ele>
        <time>2021-05-13T14:54:03Z</time>
      </trkpt>
      <trkpt lat="43.86297" lon="3.37811">
        <ele>712</ele>
        <time>2021-05-13T14:54:09Z</time>
      </trkpt>
      <trkpt lat="43.86249" lon="3.37845">
        <ele>711</ele>
        <time>2021-05-13T14:54:22Z</time>
      </trkpt>
      <trkpt lat="43.86217" lon="3.37866">
        <ele>714</ele>
        <time>2021-05-13T14:54:39Z</time>
      </trkpt>
      <trkpt lat="43.86196" lon="3.37873">
        <ele>716</ele>
        <time>2021-05-13T14:54:50Z</time>
      </trkpt>
      <trkpt lat="43.86166" lon="3.37886">
        <ele>718</ele>
        <time>2021-05-13T14:55:05Z</time>
      </trkpt>
      <trkpt lat="43.86118" lon="3.37939">
        <ele>717</ele>
        <time>2021-05-13T14:55:18Z</time>
      </trkpt>
      <trkpt lat="43.86091" lon="3.37972">
        <ele>715</ele>
        <time>2021-05-13T14:55:29Z</time>
      </trkpt>
      <trkpt lat="43.86063" lon="3.37993">
        <ele>719</ele>
        <time>2021-05-13T14:55:49Z</time>
      </trkpt>
      <trkpt lat="43.86046" lon="3.38008">
        <ele>722</ele>
        <time>2021-05-13T14:56:04Z</time>
      </trkpt>
      <trkpt lat="43.86035" lon="3.38025">
        <ele>724</ele>
        <time>2021-05-13T14:56:17Z</time>
      </trkpt>
      <trkpt lat="43.86024" lon="3.38045">
        <ele>726</ele>
        <time>2021-05-13T14:56:32Z</time>
      </trkpt>
      <trkpt lat="43.86016" lon="3.38066">
        <ele>729</ele>
        <time>2021-05-13T14:56:46Z</time>
      </trkpt>
      <trkpt lat="43.86017" lon="3.38079">
        <ele>730</ele>
        <time>2021-05-13T14:56:55Z</time>
      </trkpt>
      <trkpt lat="43.86025" lon="3.38092">
        <ele>732</ele>
        <time>2021-05-13T14:57:05Z</time>
      </trkpt>
      <trkpt lat="43.86028" lon="3.38112">
        <ele>734</ele>
        <time>2021-05-13T14:57:18Z</time>
      </trkpt>
      <trkpt lat="43.8601" lon="3.3813">
        <ele>737</ele>
        <time>2021-05-13T14:57:35Z</time>
      </trkpt>
      <trkpt lat="43.85989" lon="3.38128">
        <ele>739</ele>
        <time>2021-05-13T14:57:50Z</time>
      </trkpt>
      <trkpt lat="43.85961" lon="3.38112">
        <ele>742</ele>
        <time>2021-05-13T14:58:14Z</time>
      </trkpt>
      <trkpt lat="43.85941" lon="3.38104">
        <ele>744</ele>
        <time>2021-05-13T14:58:31Z</time>
      </trkpt>
      <trkpt lat="43.85918" lon="3.38103">
        <ele>746</ele>
        <time>2021-05-13T14:58:47Z</time>
      </trkpt>
      <trkpt lat="43.859" lon="3.38098">
        <ele>749</ele>
        <time>2021-05-13T14:59:00Z</time>
      </trkpt>
      <trkpt lat="43.85887" lon="3.38082">
        <ele>752</ele>
        <time>2021-05-13T14:59:13Z</time>
      </trkpt>
      <trkpt lat="43.8588" lon="3.38043">
        <ele>755</ele>
        <time>2021-05-13T14:59:30Z</time>
      </trkpt>
      <trkpt lat="43.85877" lon="3.38">
        <ele>757</ele>
        <time>2021-05-13T14:59:44Z</time>
      </trkpt>
      <trkpt lat="43.85862" lon="3.37971">
        <ele>758</ele>
        <time>2021-05-13T14:59:57Z</time>
      </trkpt>
      <trkpt lat="43.85835" lon="3.37924">
        <ele>760</ele>
        <time>2021-05-13T15:00:21Z</time>
      </trkpt>
      <trkpt lat="43.85827" lon="3.37903">
        <ele>762</ele>
        <time>2021-05-13T15:00:30Z</time>
      </trkpt>
      <trkpt lat="43.85827" lon="3.37867">
        <ele>764</ele>
        <time>2021-05-13T15:00:46Z</time>
      </trkpt>
      <trkpt lat="43.8581" lon="3.37846">
        <ele>766</ele>
        <time>2021-05-13T15:00:59Z</time>
      </trkpt>
      <trkpt lat="43.85796" lon="3.37863">
        <ele>769</ele>
        <time>2021-05-13T15:01:09Z</time>
      </trkpt>
      <trkpt lat="43.85788" lon="3.37938">
        <ele>770</ele>
        <time>2021-05-13T15:01:29Z</time>
      </trkpt>
      <trkpt lat="43.8579" lon="3.37979">
        <ele>772</ele>
        <time>2021-05-13T15:01:46Z</time>
      </trkpt>
      <trkpt lat="43.85787" lon="3.38004">
        <ele>775</ele>
        <time>2021-05-13T15:01:57Z</time>
      </trkpt>
      <trkpt lat="43.85786" lon="3.38045">
        <ele>777</ele>
        <time>2021-05-13T15:02:11Z</time>
      </trkpt>
      <trkpt lat="43.85748" lon="3.38084">
        <ele>778</ele>
        <time>2021-05-13T15:02:31Z</time>
      </trkpt>
      <trkpt lat="43.85729" lon="3.38095">
        <ele>780</ele>
        <time>2021-05-13T15:02:45Z</time>
      </trkpt>
      <trkpt lat="43.85708" lon="3.38107">
        <ele>783</ele>
        <time>2021-05-13T15:03:00Z</time>
      </trkpt>
      <trkpt lat="43.85697" lon="3.38117">
        <ele>786</ele>
        <time>2021-05-13T15:03:10Z</time>
      </trkpt>
      <trkpt lat="43.85675" lon="3.38145">
        <ele>790</ele>
        <time>2021-05-13T15:03:28Z</time>
      </trkpt>
      <trkpt lat="43.85679" lon="3.3822">
        <ele>791</ele>
        <time>2021-05-13T15:03:50Z</time>
      </trkpt>
      <trkpt lat="43.85671" lon="3.3827">
        <ele>793</ele>
        <time>2021-05-13T15:04:10Z</time>
      </trkpt>
      <trkpt lat="43.85645" lon="3.38305">
        <ele>798</ele>
        <time>2021-05-13T15:04:30Z</time>
      </trkpt>
      <trkpt lat="43.85636" lon="3.38331">
        <ele>800</ele>
        <time>2021-05-13T15:04:42Z</time>
      </trkpt>
      <trkpt lat="43.85627" lon="3.38374">
        <ele>804</ele>
        <time>2021-05-13T15:04:59Z</time>
      </trkpt>
      <trkpt lat="43.85614" lon="3.38408">
        <ele>806</ele>
        <time>2021-05-13T15:05:13Z</time>
      </trkpt>
      <trkpt lat="43.85625" lon="3.38441">
        <ele>808</ele>
        <time>2021-05-13T15:05:29Z</time>
      </trkpt>
      <trkpt lat="43.85643" lon="3.38454">
        <ele>812</ele>
        <time>2021-05-13T15:05:43Z</time>
      </trkpt>
      <trkpt lat="43.85657" lon="3.38469">
        <ele>814</ele>
        <time>2021-05-13T15:05:55Z</time>
      </trkpt>
      <trkpt lat="43.85664" lon="3.38498">
        <ele>816</ele>
        <time>2021-05-13T15:06:11Z</time>
      </trkpt>
      <trkpt lat="43.85659" lon="3.38472">
        <ele>815</ele>
        <time>2021-05-13T15:06:57Z</time>
      </trkpt>
      <trkpt lat="43.85668" lon="3.38475">
        <ele>816</ele>
        <time>2021-05-13T15:07:04Z</time>
      </trkpt>
      <trkpt lat="43.85684" lon="3.38483">
        <ele>819</ele>
        <time>2021-05-13T15:07:17Z</time>
      </trkpt>
      <trkpt lat="43.85704" lon="3.38497">
        <ele>821</ele>
        <time>2021-05-13T15:07:33Z</time>
      </trkpt>
      <trkpt lat="43.85712" lon="3.38505">
        <ele>822</ele>
        <time>2021-05-13T15:07:40Z</time>
      </trkpt>
      <trkpt lat="43.85725" lon="3.38525">
        <ele>824</ele>
        <time>2021-05-13T15:07:53Z</time>
      </trkpt>
      <trkpt lat="43.85729" lon="3.38544">
        <ele>826</ele>
        <time>2021-05-13T15:08:03Z</time>
      </trkpt>
      <trkpt lat="43.85736" lon="3.38561">
        <ele>828</ele>
        <time>2021-05-13T15:12:45Z</time>
      </trkpt>
      <trkpt lat="43.85758" lon="3.38551">
        <ele>828</ele>
        <time>2021-05-13T15:12:55Z</time>
      </trkpt>
      <trkpt lat="43.85752" lon="3.38566">
        <ele>825</ele>
        <time>2021-05-13T15:15:50Z</time>
      </trkpt>
      <trkpt lat="43.85759" lon="3.38577">
        <ele>824</ele>
        <time>2021-05-13T15:15:58Z</time>
      </trkpt>
      <trkpt lat="43.85771" lon="3.38602">
        <ele>823</ele>
        <time>2021-05-13T15:16:05Z</time>
      </trkpt>
      <trkpt lat="43.8575" lon="3.38648">
        <ele>819</ele>
        <time>2021-05-13T15:16:14Z</time>
      </trkpt>
      <trkpt lat="43.85724" lon="3.38665">
        <ele>814</ele>
        <time>2021-05-13T15:16:21Z</time>
      </trkpt>
      <trkpt lat="43.85706" lon="3.38672">
        <ele>809</ele>
        <time>2021-05-13T15:16:26Z</time>
      </trkpt>
      <trkpt lat="43.85704" lon="3.38687">
        <ele>805</ele>
        <time>2021-05-13T15:16:31Z</time>
      </trkpt>
      <trkpt lat="43.85701" lon="3.38722">
        <ele>802</ele>
        <time>2021-05-13T15:16:37Z</time>
      </trkpt>
      <trkpt lat="43.85702" lon="3.38771">
        <ele>801</ele>
        <time>2021-05-13T15:16:44Z</time>
      </trkpt>
      <trkpt lat="43.85715" lon="3.38849">
        <ele>800</ele>
        <time>2021-05-13T15:17:02Z</time>
      </trkpt>
      <trkpt lat="43.85728" lon="3.38893">
        <ele>803</ele>
        <time>2021-05-13T15:17:16Z</time>
      </trkpt>
      <trkpt lat="43.85735" lon="3.38935">
        <ele>806</ele>
        <time>2021-05-13T15:17:30Z</time>
      </trkpt>
      <trkpt lat="43.85751" lon="3.39012">
        <ele>807</ele>
        <time>2021-05-13T15:17:54Z</time>
      </trkpt>
      <trkpt lat="43.85779" lon="3.39017">
        <ele>806</ele>
        <time>2021-05-13T15:18:01Z</time>
      </trkpt>
      <trkpt lat="43.85809" lon="3.39056">
        <ele>805</ele>
        <time>2021-05-13T15:18:15Z</time>
      </trkpt>
      <trkpt lat="43.85825" lon="3.3913">
        <ele>807</ele>
        <time>2021-05-13T15:18:36Z</time>
      </trkpt>
      <trkpt lat="43.85828" lon="3.39174">
        <ele>807</ele>
        <time>2021-05-13T15:18:46Z</time>
      </trkpt>
      <trkpt lat="43.85841" lon="3.39232">
        <ele>807</ele>
        <time>2021-05-13T15:19:09Z</time>
      </trkpt>
      <trkpt lat="43.85846" lon="3.39237">
        <ele>808</ele>
        <time>2021-05-13T15:19:46Z</time>
      </trkpt>
      <trkpt lat="43.85849" lon="3.39258">
        <ele>808</ele>
        <time>2021-05-13T15:20:24Z</time>
      </trkpt>
      <trkpt lat="43.85856" lon="3.39311">
        <ele>806</ele>
        <time>2021-05-13T15:20:40Z</time>
      </trkpt>
      <trkpt lat="43.8584" lon="3.39357">
        <ele>804</ele>
        <time>2021-05-13T15:20:52Z</time>
      </trkpt>
      <trkpt lat="43.85848" lon="3.39381">
        <ele>801</ele>
        <time>2021-05-13T15:20:58Z</time>
      </trkpt>
      <trkpt lat="43.85878" lon="3.39409">
        <ele>799</ele>
        <time>2021-05-13T15:21:08Z</time>
      </trkpt>
      <trkpt lat="43.85904" lon="3.39426">
        <ele>797</ele>
        <time>2021-05-13T15:21:14Z</time>
      </trkpt>
      <trkpt lat="43.85914" lon="3.39443">
        <ele>794</ele>
        <time>2021-05-13T15:21:20Z</time>
      </trkpt>
      <trkpt lat="43.85915" lon="3.39508">
        <ele>792</ele>
        <time>2021-05-13T15:21:35Z</time>
      </trkpt>
      <trkpt lat="43.85913" lon="3.39554">
        <ele>788</ele>
        <time>2021-05-13T15:21:46Z</time>
      </trkpt>
      <trkpt lat="43.85913" lon="3.39577">
        <ele>787</ele>
        <time>2021-05-13T15:21:54Z</time>
      </trkpt>
      <trkpt lat="43.85926" lon="3.39622">
        <ele>785</ele>
        <time>2021-05-13T15:22:08Z</time>
      </trkpt>
      <trkpt lat="43.85917" lon="3.39697">
        <ele>784</ele>
        <time>2021-05-13T15:22:27Z</time>
      </trkpt>
      <trkpt lat="43.85916" lon="3.39748">
        <ele>784</ele>
        <time>2021-05-13T15:22:46Z</time>
      </trkpt>
      <trkpt lat="43.85921" lon="3.3979">
        <ele>784</ele>
        <time>2021-05-13T15:22:58Z</time>
      </trkpt>
      <trkpt lat="43.85931" lon="3.39847">
        <ele>782</ele>
        <time>2021-05-13T15:23:14Z</time>
      </trkpt>
      <trkpt lat="43.85975" lon="3.39922">
        <ele>780</ele>
        <time>2021-05-13T15:23:36Z</time>
      </trkpt>
      <trkpt lat="43.85992" lon="3.39963">
        <ele>778</ele>
        <time>2021-05-13T15:23:43Z</time>
      </trkpt>
      <trkpt lat="43.85995" lon="3.4">
        <ele>775</ele>
        <time>2021-05-13T15:23:49Z</time>
      </trkpt>
      <trkpt lat="43.85998" lon="3.40042">
        <ele>773</ele>
        <time>2021-05-13T15:23:58Z</time>
      </trkpt>
      <trkpt lat="43.85996" lon="3.40121">
        <ele>772</ele>
        <time>2021-05-13T15:24:16Z</time>
      </trkpt>
      <trkpt lat="43.86015" lon="3.40227">
        <ele>773</ele>
        <time>2021-05-13T15:24:42Z</time>
      </trkpt>
      <trkpt lat="43.86019" lon="3.40294">
        <ele>773</ele>
        <time>2021-05-13T15:24:59Z</time>
      </trkpt>
      <trkpt lat="43.86039" lon="3.40386">
        <ele>772</ele>
        <time>2021-05-13T15:25:20Z</time>
      </trkpt>
      <trkpt lat="43.86061" lon="3.40421">
        <ele>769</ele>
        <time>2021-05-13T15:25:26Z</time>
      </trkpt>
      <trkpt lat="43.86075" lon="3.40466">
        <ele>765</ele>
        <time>2021-05-13T15:25:32Z</time>
      </trkpt>
      <trkpt lat="43.86078" lon="3.40502">
        <ele>760</ele>
        <time>2021-05-13T15:25:37Z</time>
      </trkpt>
      <trkpt lat="43.86092" lon="3.40501">
        <ele>759</ele>
        <time>2021-05-13T15:25:47Z</time>
      </trkpt>
      <trkpt lat="43.86101" lon="3.40526">
        <ele>759</ele>
        <time>2021-05-13T15:26:00Z</time>
      </trkpt>
      <trkpt lat="43.86099" lon="3.40559">
        <ele>758</ele>
        <time>2021-05-13T15:26:11Z</time>
      </trkpt>
      <trkpt lat="43.86095" lon="3.40623">
        <ele>757</ele>
        <time>2021-05-13T15:26:30Z</time>
      </trkpt>
      <trkpt lat="43.86113" lon="3.407">
        <ele>756</ele>
        <time>2021-05-13T15:26:51Z</time>
      </trkpt>
      <trkpt lat="43.86136" lon="3.4077">
        <ele>758</ele>
        <time>2021-05-13T15:27:11Z</time>
      </trkpt>
      <trkpt lat="43.86136" lon="3.40828">
        <ele>760</ele>
        <time>2021-05-13T15:27:27Z</time>
      </trkpt>
      <trkpt lat="43.86131" lon="3.40904">
        <ele>759</ele>
        <time>2021-05-13T15:27:47Z</time>
      </trkpt>
      <trkpt lat="43.86132" lon="3.40966">
        <ele>756</ele>
        <time>2021-05-13T15:28:48Z</time>
      </trkpt>
      <trkpt lat="43.86132" lon="3.41016">
        <ele>755</ele>
        <time>2021-05-13T15:28:54Z</time>
      </trkpt>
      <trkpt lat="43.86128" lon="3.41061">
        <ele>752</ele>
        <time>2021-05-13T15:29:00Z</time>
      </trkpt>
      <trkpt lat="43.86138" lon="3.41084">
        <ele>747</ele>
        <time>2021-05-13T15:29:10Z</time>
      </trkpt>
      <trkpt lat="43.86152" lon="3.41114">
        <ele>744</ele>
        <time>2021-05-13T15:29:19Z</time>
      </trkpt>
      <trkpt lat="43.86158" lon="3.41153">
        <ele>742</ele>
        <time>2021-05-13T15:29:24Z</time>
      </trkpt>
      <trkpt lat="43.86173" lon="3.41192">
        <ele>738</ele>
        <time>2021-05-13T15:29:30Z</time>
      </trkpt>
      <trkpt lat="43.86169" lon="3.41234">
        <ele>735</ele>
        <time>2021-05-13T15:29:40Z</time>
      </trkpt>
      <trkpt lat="43.86156" lon="3.4135">
        <ele>735</ele>
        <time>2021-05-13T15:30:07Z</time>
      </trkpt>
      <trkpt lat="43.86159" lon="3.41374">
        <ele>734</ele>
        <time>2021-05-13T15:30:15Z</time>
      </trkpt>
      <trkpt lat="43.86159" lon="3.41375">
        <ele>732</ele>
        <time>2021-05-13T15:31:03Z</time>
      </trkpt>
      <trkpt lat="43.86161" lon="3.41381">
        <ele>732</ele>
        <time>2021-05-13T15:31:22Z</time>
      </trkpt>
      <trkpt lat="43.86164" lon="3.414">
        <ele>732</ele>
        <time>2021-05-13T15:31:30Z</time>
      </trkpt>
      <trkpt lat="43.86161" lon="3.41436">
        <ele>733</ele>
        <time>2021-05-13T15:31:43Z</time>
      </trkpt>
      <trkpt lat="43.8617" lon="3.41472">
        <ele>733</ele>
        <time>2021-05-13T15:31:56Z</time>
      </trkpt>
      <trkpt lat="43.86168" lon="3.41485">
        <ele>732</ele>
        <time>2021-05-13T15:32:01Z</time>
      </trkpt>
      <trkpt lat="43.86175" lon="3.41485">
        <ele>731</ele>
        <time>2021-05-13T15:32:27Z</time>
      </trkpt>
      <trkpt lat="43.86194" lon="3.41489">
        <ele>728</ele>
        <time>2021-05-13T15:32:35Z</time>
      </trkpt>
      <trkpt lat="43.86205" lon="3.41495">
        <ele>726</ele>
        <time>2021-05-13T15:32:45Z</time>
      </trkpt>
      <trkpt lat="43.86227" lon="3.41498">
        <ele>727</ele>
        <time>2021-05-13T15:33:11Z</time>
      </trkpt>
      <trkpt lat="43.86243" lon="3.41504">
        <ele>725</ele>
        <time>2021-05-13T15:33:58Z</time>
      </trkpt>
      <trkpt lat="43.86231" lon="3.41515">
        <ele>726</ele>
        <time>2021-05-13T15:34:13Z</time>
      </trkpt>
      <trkpt lat="43.86232" lon="3.4153">
        <ele>726</ele>
        <time>2021-05-13T15:34:24Z</time>
      </trkpt>
      <trkpt lat="43.86218" lon="3.41548">
        <ele>726</ele>
        <time>2021-05-13T15:34:38Z</time>
      </trkpt>
      <trkpt lat="43.86211" lon="3.4156">
        <ele>727</ele>
        <time>2021-05-13T15:34:45Z</time>
      </trkpt>
      <trkpt lat="43.86202" lon="3.41566">
        <ele>727</ele>
        <time>2021-05-13T15:34:53Z</time>
      </trkpt>
      <trkpt lat="43.86201" lon="3.41573">
        <ele>727</ele>
        <time>2021-05-13T15:35:02Z</time>
      </trkpt>
      <trkpt lat="43.86194" lon="3.41583">
        <ele>726</ele>
        <time>2021-05-13T15:35:25Z</time>
      </trkpt>
      <trkpt lat="43.86191" lon="3.41591">
        <ele>726</ele>
        <time>2021-05-13T15:35:45Z</time>
      </trkpt>
      <trkpt lat="43.86206" lon="3.4158">
        <ele>726</ele>
        <time>2021-05-13T15:36:04Z</time>
      </trkpt>
      <trkpt lat="43.86225" lon="3.41591">
        <ele>723</ele>
        <time>2021-05-13T15:36:16Z</time>
      </trkpt>
      <trkpt lat="43.86227" lon="3.41598">
        <ele>720</ele>
        <time>2021-05-13T15:36:22Z</time>
      </trkpt>
      <trkpt lat="43.86225" lon="3.41615">
        <ele>717</ele>
        <time>2021-05-13T15:36:32Z</time>
      </trkpt>
      <trkpt lat="43.86211" lon="3.41633">
        <ele>716</ele>
        <time>2021-05-13T15:36:41Z</time>
      </trkpt>
      <trkpt lat="43.86209" lon="3.41643">
        <ele>715</ele>
        <time>2021-05-13T15:36:51Z</time>
      </trkpt>
      <trkpt lat="43.86211" lon="3.41646">
        <ele>712</ele>
        <time>2021-05-13T15:37:13Z</time>
      </trkpt>
      <trkpt lat="43.86248" lon="3.41642">
        <ele>711</ele>
        <time>2021-05-13T15:37:23Z</time>
      </trkpt>
      <trkpt lat="43.8627" lon="3.41647">
        <ele>707</ele>
        <time>2021-05-13T15:37:28Z</time>
      </trkpt>
      <trkpt lat="43.86293" lon="3.41647">
        <ele>705</ele>
        <time>2021-05-13T15:37:32Z</time>
      </trkpt>
      <trkpt lat="43.86332" lon="3.4165">
        <ele>701</ele>
        <time>2021-05-13T15:37:40Z</time>
      </trkpt>
      <trkpt lat="43.8639" lon="3.4166">
        <ele>698</ele>
        <time>2021-05-13T15:37:57Z</time>
      </trkpt>
      <trkpt lat="43.86427" lon="3.4166">
        <ele>697</ele>
        <time>2021-05-13T15:38:08Z</time>
      </trkpt>
      <trkpt lat="43.86437" lon="3.41687">
        <ele>697</ele>
        <time>2021-05-13T15:38:21Z</time>
      </trkpt>
      <trkpt lat="43.86398" lon="3.41752">
        <ele>696</ele>
        <time>2021-05-13T15:38:36Z</time>
      </trkpt>
      <trkpt lat="43.86392" lon="3.4182">
        <ele>696</ele>
        <time>2021-05-13T15:38:47Z</time>
      </trkpt>
      <trkpt lat="43.86391" lon="3.41876">
        <ele>694</ele>
        <time>2021-05-13T15:38:55Z</time>
      </trkpt>
      <trkpt lat="43.86397" lon="3.41908">
        <ele>693</ele>
        <time>2021-05-13T15:39:01Z</time>
      </trkpt>
      <trkpt lat="43.86386" lon="3.41966">
        <ele>694</ele>
        <time>2021-05-13T15:39:31Z</time>
      </trkpt>
      <trkpt lat="43.86388" lon="3.41968">
        <ele>694</ele>
        <time>2021-05-13T15:45:05Z</time>
      </trkpt>
      <trkpt lat="43.86422" lon="3.41955">
        <ele>694</ele>
        <time>2021-05-13T15:45:19Z</time>
      </trkpt>
      <trkpt lat="43.86445" lon="3.41942">
        <ele>693</ele>
        <time>2021-05-13T15:45:36Z</time>
      </trkpt>
      <trkpt lat="43.86473" lon="3.41933">
        <ele>692</ele>
        <time>2021-05-13T15:45:53Z</time>
      </trkpt>
      <trkpt lat="43.86498" lon="3.41936">
        <ele>692</ele>
        <time>2021-05-13T15:46:22Z</time>
      </trkpt>
      <trkpt lat="43.86549" lon="3.41932">
        <ele>692</ele>
        <time>2021-05-13T15:46:39Z</time>
      </trkpt>
      <trkpt lat="43.86634" lon="3.41953">
        <ele>691</ele>
        <time>2021-05-13T15:47:06Z</time>
      </trkpt>
      <trkpt lat="43.86696" lon="3.41978">
        <ele>692</ele>
        <time>2021-05-13T15:47:32Z</time>
      </trkpt>
      <trkpt lat="43.86747" lon="3.41989">
        <ele>693</ele>
        <time>2021-05-13T15:47:55Z</time>
      </trkpt>
      <trkpt lat="43.86816" lon="3.42001">
        <ele>694</ele>
        <time>2021-05-13T15:48:24Z</time>
      </trkpt>
      <trkpt lat="43.86854" lon="3.42011">
        <ele>696</ele>
        <time>2021-05-13T15:48:42Z</time>
      </trkpt>
      <trkpt lat="43.86875" lon="3.42013">
        <ele>698</ele>
        <time>2021-05-13T15:48:55Z</time>
      </trkpt>
      <trkpt lat="43.86898" lon="3.42019">
        <ele>700</ele>
        <time>2021-05-13T15:49:11Z</time>
      </trkpt>
      <trkpt lat="43.86919" lon="3.42025">
        <ele>702</ele>
        <time>2021-05-13T15:49:26Z</time>
      </trkpt>
      <trkpt lat="43.86938" lon="3.42029">
        <ele>704</ele>
        <time>2021-05-13T15:49:40Z</time>
      </trkpt>
      <trkpt lat="43.8696" lon="3.42034">
        <ele>706</ele>
        <time>2021-05-13T15:49:55Z</time>
      </trkpt>
      <trkpt lat="43.86979" lon="3.42041">
        <ele>708</ele>
        <time>2021-05-13T15:50:09Z</time>
      </trkpt>
      <trkpt lat="43.86987" lon="3.42042">
        <ele>708</ele>
        <time>2021-05-13T15:50:19Z</time>
      </trkpt>
      <trkpt lat="43.86994" lon="3.42032">
        <ele>710</ele>
        <time>2021-05-13T15:50:38Z</time>
      </trkpt>
      <trkpt lat="43.87006" lon="3.42022">
        <ele>711</ele>
        <time>2021-05-13T15:50:54Z</time>
      </trkpt>
      <trkpt lat="43.87019" lon="3.42014">
        <ele>712</ele>
        <time>2021-05-13T15:51:05Z</time>
      </trkpt>
      <trkpt lat="43.87027" lon="3.4201">
        <ele>713</ele>
        <time>2021-05-13T15:51:14Z</time>
      </trkpt>
      <trkpt lat="43.87028" lon="3.42008">
        <ele>715</ele>
        <time>2021-05-13T15:51:24Z</time>
      </trkpt>
      <trkpt lat="43.87035" lon="3.42005">
        <ele>716</ele>
        <time>2021-05-13T15:51:34Z</time>
      </trkpt>
      <trkpt lat="43.87053" lon="3.41995">
        <ele>719</ele>
        <time>2021-05-13T15:51:56Z</time>
      </trkpt>
      <trkpt lat="43.87061" lon="3.41986">
        <ele>721</ele>
        <time>2021-05-13T15:52:17Z</time>
      </trkpt>
      <trkpt lat="43.87066" lon="3.41974">
        <ele>725</ele>
        <time>2021-05-13T15:52:36Z</time>
      </trkpt>
      <trkpt lat="43.87066" lon="3.41963">
        <ele>727</ele>
        <time>2021-05-13T15:52:50Z</time>
      </trkpt>
      <trkpt lat="43.87072" lon="3.41958">
        <ele>728</ele>
        <time>2021-05-13T15:53:03Z</time>
      </trkpt>
      <trkpt lat="43.8709" lon="3.41953">
        <ele>729</ele>
        <time>2021-05-13T15:53:21Z</time>
      </trkpt>
      <trkpt lat="43.87103" lon="3.41956">
        <ele>731</ele>
        <time>2021-05-13T15:53:37Z</time>
      </trkpt>
      <trkpt lat="43.87113" lon="3.41963">
        <ele>733</ele>
        <time>2021-05-13T15:53:53Z</time>
      </trkpt>
      <trkpt lat="43.8712" lon="3.41973">
        <ele>734</ele>
        <time>2021-05-13T15:54:04Z</time>
      </trkpt>
      <trkpt lat="43.87134" lon="3.41973">
        <ele>737</ele>
        <time>2021-05-13T15:54:20Z</time>
      </trkpt>
      <trkpt lat="43.87151" lon="3.41974">
        <ele>738</ele>
        <time>2021-05-13T15:54:38Z</time>
      </trkpt>
      <trkpt lat="43.87183" lon="3.41976">
        <ele>739</ele>
        <time>2021-05-13T15:54:57Z</time>
      </trkpt>
      <trkpt lat="43.87199" lon="3.42022">
        <ele>738</ele>
        <time>2021-05-13T15:55:13Z</time>
      </trkpt>
      <trkpt lat="43.87211" lon="3.42054">
        <ele>738</ele>
        <time>2021-05-13T15:55:27Z</time>
      </trkpt>
      <trkpt lat="43.87218" lon="3.42057">
        <ele>737</ele>
        <time>2021-05-13T15:55:42Z</time>
      </trkpt>
      <trkpt lat="43.8723" lon="3.42087">
        <ele>736</ele>
        <time>2021-05-13T15:55:55Z</time>
      </trkpt>
      <trkpt lat="43.87259" lon="3.42084">
        <ele>735</ele>
        <time>2021-05-13T15:56:11Z</time>
      </trkpt>
      <trkpt lat="43.8728" lon="3.42086">
        <ele>733</ele>
        <time>2021-05-13T15:56:21Z</time>
      </trkpt>
      <trkpt lat="43.87302" lon="3.42081">
        <ele>732</ele>
        <time>2021-05-13T15:56:29Z</time>
      </trkpt>
      <trkpt lat="43.8733" lon="3.42053">
        <ele>730</ele>
        <time>2021-05-13T15:56:36Z</time>
      </trkpt>
      <trkpt lat="43.87343" lon="3.42033">
        <ele>728</ele>
        <time>2021-05-13T15:56:40Z</time>
      </trkpt>
      <trkpt lat="43.87368" lon="3.42012">
        <ele>724</ele>
        <time>2021-05-13T15:56:46Z</time>
      </trkpt>
      <trkpt lat="43.87393" lon="3.41993">
        <ele>722</ele>
        <time>2021-05-13T15:56:52Z</time>
      </trkpt>
      <trkpt lat="43.87425" lon="3.41958">
        <ele>720</ele>
        <time>2021-05-13T15:57:01Z</time>
      </trkpt>
      <trkpt lat="43.87449" lon="3.4194">
        <ele>717</ele>
        <time>2021-05-13T15:57:09Z</time>
      </trkpt>
      <trkpt lat="43.87501" lon="3.41908">
        <ele>717</ele>
        <time>2021-05-13T15:57:28Z</time>
      </trkpt>
      <trkpt lat="43.87536" lon="3.41869">
        <ele>714</ele>
        <time>2021-05-13T15:57:37Z</time>
      </trkpt>
      <trkpt lat="43.87555" lon="3.41845">
        <ele>712</ele>
        <time>2021-05-13T15:57:43Z</time>
      </trkpt>
      <trkpt lat="43.87576" lon="3.41799">
        <ele>709</ele>
        <time>2021-05-13T15:57:53Z</time>
      </trkpt>
      <trkpt lat="43.8759" lon="3.41768">
        <ele>707</ele>
        <time>2021-05-13T15:58:01Z</time>
      </trkpt>
      <trkpt lat="43.87607" lon="3.41725">
        <ele>705</ele>
        <time>2021-05-13T15:58:12Z</time>
      </trkpt>
      <trkpt lat="43.87646" lon="3.41648">
        <ele>705</ele>
        <time>2021-05-13T15:58:34Z</time>
      </trkpt>
      <trkpt lat="43.8771" lon="3.41548">
        <ele>704</ele>
        <time>2021-05-13T15:59:03Z</time>
      </trkpt>
      <trkpt lat="43.8775" lon="3.41489">
        <ele>706</ele>
        <time>2021-05-13T15:59:25Z</time>
      </trkpt>
      <trkpt lat="43.87786" lon="3.41419">
        <ele>707</ele>
        <time>2021-05-13T15:59:48Z</time>
      </trkpt>
      <trkpt lat="43.87812" lon="3.41352">
        <ele>707</ele>
        <time>2021-05-13T16:00:09Z</time>
      </trkpt>
      <trkpt lat="43.87817" lon="3.41347">
        <ele>707</ele>
        <time>2021-05-13T16:00:16Z</time>
      </trkpt>
      <trkpt lat="43.87818" lon="3.4134">
        <ele>707</ele>
        <time>2021-05-13T16:00:59Z</time>
      </trkpt>
      <trkpt lat="43.87838" lon="3.41327">
        <ele>707</ele>
        <time>2021-05-13T16:01:12Z</time>
      </trkpt>
      <trkpt lat="43.87877" lon="3.41278">
        <ele>705</ele>
        <time>2021-05-13T16:01:30Z</time>
      </trkpt>
      <trkpt lat="43.87929" lon="3.4121">
        <ele>706</ele>
        <time>2021-05-13T16:01:54Z</time>
      </trkpt>
      <trkpt lat="43.87938" lon="3.41183">
        <ele>708</ele>
        <time>2021-05-13T16:02:06Z</time>
      </trkpt>
      <trkpt lat="43.87943" lon="3.41169">
        <ele>710</ele>
        <time>2021-05-13T16:02:15Z</time>
      </trkpt>
      <trkpt lat="43.87942" lon="3.41158">
        <ele>711</ele>
        <time>2021-05-13T16:02:28Z</time>
      </trkpt>
      <trkpt lat="43.87945" lon="3.41148">
        <ele>713</ele>
        <time>2021-05-13T16:02:43Z</time>
      </trkpt>
      <trkpt lat="43.87948" lon="3.41132">
        <ele>716</ele>
        <time>2021-05-13T16:03:00Z</time>
      </trkpt>
      <trkpt lat="43.87947" lon="3.41116">
        <ele>718</ele>
        <time>2021-05-13T16:03:14Z</time>
      </trkpt>
      <trkpt lat="43.87951" lon="3.41095">
        <ele>721</ele>
        <time>2021-05-13T16:03:33Z</time>
      </trkpt>
      <trkpt lat="43.87952" lon="3.41082">
        <ele>722</ele>
        <time>2021-05-13T16:03:46Z</time>
      </trkpt>
      <trkpt lat="43.87952" lon="3.41079">
        <ele>723</ele>
        <time>2021-05-13T16:03:57Z</time>
      </trkpt>
      <trkpt lat="43.87945" lon="3.41078">
        <ele>724</ele>
        <time>2021-05-13T16:04:21Z</time>
      </trkpt>
      <trkpt lat="43.8792" lon="3.41048">
        <ele>725</ele>
        <time>2021-05-13T16:04:42Z</time>
      </trkpt>
      <trkpt lat="43.87899" lon="3.41019">
        <ele>727</ele>
        <time>2021-05-13T16:04:57Z</time>
      </trkpt>
      <trkpt lat="43.87853" lon="3.40979">
        <ele>730</ele>
        <time>2021-05-13T16:05:24Z</time>
      </trkpt>
      <trkpt lat="43.87831" lon="3.40963">
        <ele>732</ele>
        <time>2021-05-13T16:05:38Z</time>
      </trkpt>
      <trkpt lat="43.87798" lon="3.40937">
        <ele>734</ele>
        <time>2021-05-13T16:05:58Z</time>
      </trkpt>
      <trkpt lat="43.87777" lon="3.40918">
        <ele>736</ele>
        <time>2021-05-13T16:06:12Z</time>
      </trkpt>
      <trkpt lat="43.87749" lon="3.40911">
        <ele>740</ele>
        <time>2021-05-13T16:06:28Z</time>
      </trkpt>
      <trkpt lat="43.87724" lon="3.40902">
        <ele>743</ele>
        <time>2021-05-13T16:06:43Z</time>
      </trkpt>
      <trkpt lat="43.87692" lon="3.40889">
        <ele>746</ele>
        <time>2021-05-13T16:07:02Z</time>
      </trkpt>
      <trkpt lat="43.8767" lon="3.40876">
        <ele>748</ele>
        <time>2021-05-13T16:07:15Z</time>
      </trkpt>
      <trkpt lat="43.87638" lon="3.4087">
        <ele>750</ele>
        <time>2021-05-13T16:07:32Z</time>
      </trkpt>
      <trkpt lat="43.87597" lon="3.40873">
        <ele>752</ele>
        <time>2021-05-13T16:07:52Z</time>
      </trkpt>
      <trkpt lat="43.87586" lon="3.4085">
        <ele>753</ele>
        <time>2021-05-13T16:08:05Z</time>
      </trkpt>
      <trkpt lat="43.87577" lon="3.40847">
        <ele>754</ele>
        <time>2021-05-13T16:08:11Z</time>
      </trkpt>
      <trkpt lat="43.87576" lon="3.40846">
        <ele>754</ele>
        <time>2021-05-13T16:08:17Z</time>
      </trkpt>
      <trkpt lat="43.87582" lon="3.40848">
        <ele>735</ele>
        <time>2021-05-13T07:52:37Z</time>
      </trkpt>
      <trkpt lat="43.87582" lon="3.40847">
        <ele>736</ele>
        <time>2021-05-13T07:52:46Z</time>
      </trkpt>
      <trkpt lat="43.8754" lon="3.4082">
        <ele>734</ele>
        <time>2021-05-13T07:53:00Z</time>
      </trkpt>
      <trkpt lat="43.87509" lon="3.40813">
        <ele>731</ele>
        <time>2021-05-13T07:53:06Z</time>
      </trkpt>
      <trkpt lat="43.87468" lon="3.40795">
        <ele>729</ele>
        <time>2021-05-13T07:53:15Z</time>
      </trkpt>
      <trkpt lat="43.8745" lon="3.40757">
        <ele>727</ele>
        <time>2021-05-13T07:53:24Z</time>
      </trkpt>
      <trkpt lat="43.87407" lon="3.40757">
        <ele>729</ele>
        <time>2021-05-13T07:53:39Z</time>
      </trkpt>
      <trkpt lat="43.8738" lon="3.40764">
        <ele>732</ele>
        <time>2021-05-13T07:53:52Z</time>
      </trkpt>
      <trkpt lat="43.87357" lon="3.4076">
        <ele>733</ele>
        <time>2021-05-13T07:54:02Z</time>
      </trkpt>
      <trkpt lat="43.87343" lon="3.40758">
        <ele>734</ele>
        <time>2021-05-13T07:54:09Z</time>
      </trkpt>
      <trkpt lat="43.87281" lon="3.40801">
        <ele>734</ele>
        <time>2021-05-13T07:54:26Z</time>
      </trkpt>
      <trkpt lat="43.8723" lon="3.40822">
        <ele>731</ele>
        <time>2021-05-13T07:54:35Z</time>
      </trkpt>
      <trkpt lat="43.87165" lon="3.40803">
        <ele>731</ele>
        <time>2021-05-13T07:54:50Z</time>
      </trkpt>
      <trkpt lat="43.87104" lon="3.40786">
        <ele>730</ele>
        <time>2021-05-13T07:55:06Z</time>
      </trkpt>
      <trkpt lat="43.87037" lon="3.40736">
        <ele>730</ele>
        <time>2021-05-13T07:55:32Z</time>
      </trkpt>
      <trkpt lat="43.87008" lon="3.4067">
        <ele>728</ele>
        <time>2021-05-13T07:55:46Z</time>
      </trkpt>
      <trkpt lat="43.86984" lon="3.406">
        <ele>726</ele>
        <time>2021-05-13T07:55:57Z</time>
      </trkpt>
      <trkpt lat="43.86972" lon="3.40563">
        <ele>725</ele>
        <time>2021-05-13T07:56:04Z</time>
      </trkpt>
      <trkpt lat="43.86947" lon="3.40484">
        <ele>724</ele>
        <time>2021-05-13T07:56:24Z</time>
      </trkpt>
      <trkpt lat="43.86894" lon="3.40409">
        <ele>721</ele>
        <time>2021-05-13T07:56:42Z</time>
      </trkpt>
      <trkpt lat="43.86861" lon="3.40339">
        <ele>720</ele>
        <time>2021-05-13T07:56:53Z</time>
      </trkpt>
      <trkpt lat="43.86857" lon="3.40316">
        <ele>720</ele>
        <time>2021-05-13T07:57:13Z</time>
      </trkpt>
      <trkpt lat="43.86827" lon="3.4027">
        <ele>719</ele>
        <time>2021-05-13T07:57:27Z</time>
      </trkpt>
      <trkpt lat="43.86822" lon="3.40222">
        <ele>718</ele>
        <time>2021-05-13T07:57:36Z</time>
      </trkpt>
      <trkpt lat="43.86834" lon="3.40143">
        <ele>715</ele>
        <time>2021-05-13T07:57:49Z</time>
      </trkpt>
      <trkpt lat="43.86828" lon="3.40099">
        <ele>716</ele>
        <time>2021-05-13T07:58:00Z</time>
      </trkpt>
      <trkpt lat="43.8677" lon="3.40052">
        <ele>713</ele>
        <time>2021-05-13T07:58:14Z</time>
      </trkpt>
      <trkpt lat="43.86736" lon="3.40028">
        <ele>709</ele>
        <time>2021-05-13T07:58:21Z</time>
      </trkpt>
      <trkpt lat="43.86701" lon="3.39969">
        <ele>707</ele>
        <time>2021-05-13T07:58:32Z</time>
      </trkpt>
      <trkpt lat="43.8667" lon="3.39934">
        <ele>707</ele>
        <time>2021-05-13T07:58:41Z</time>
      </trkpt>
      <trkpt lat="43.86628" lon="3.39865">
        <ele>708</ele>
        <time>2021-05-13T07:59:01Z</time>
      </trkpt>
      <trkpt lat="43.86589" lon="3.39805">
        <ele>709</ele>
        <time>2021-05-13T07:59:18Z</time>
      </trkpt>
      <trkpt lat="43.86558" lon="3.39726">
        <ele>710</ele>
        <time>2021-05-13T07:59:40Z</time>
      </trkpt>
      <trkpt lat="43.86532" lon="3.3967">
        <ele>712</ele>
        <time>2021-05-13T07:59:57Z</time>
      </trkpt>
      <trkpt lat="43.86507" lon="3.39594">
        <ele>716</ele>
        <time>2021-05-13T08:00:20Z</time>
      </trkpt>
      <trkpt lat="43.86488" lon="3.39537">
        <ele>717</ele>
        <time>2021-05-13T08:00:39Z</time>
      </trkpt>
      <trkpt lat="43.86468" lon="3.39493">
        <ele>719</ele>
        <time>2021-05-13T08:00:55Z</time>
      </trkpt>
      <trkpt lat="43.86449" lon="3.39442">
        <ele>721</ele>
        <time>2021-05-13T08:01:11Z</time>
      </trkpt>
      <trkpt lat="43.86434" lon="3.39405">
        <ele>722</ele>
        <time>2021-05-13T08:01:28Z</time>
      </trkpt>
      <trkpt lat="43.86426" lon="3.39386">
        <ele>725</ele>
        <time>2021-05-13T08:01:40Z</time>
      </trkpt>
      <trkpt lat="43.86413" lon="3.3935">
        <ele>726</ele>
        <time>2021-05-13T08:01:56Z</time>
      </trkpt>
      <trkpt lat="43.86402" lon="3.39308">
        <ele>728</ele>
        <time>2021-05-13T08:02:14Z</time>
      </trkpt>
      <trkpt lat="43.86388" lon="3.39276">
        <ele>730</ele>
        <time>2021-05-13T08:02:30Z</time>
      </trkpt>
      <trkpt lat="43.86379" lon="3.39255">
        <ele>732</ele>
        <time>2021-05-13T08:02:42Z</time>
      </trkpt>
      <trkpt lat="43.86375" lon="3.39243">
        <ele>733</ele>
        <time>2021-05-13T08:02:50Z</time>
      </trkpt>
      <trkpt lat="43.86362" lon="3.39209">
        <ele>736</ele>
        <time>2021-05-13T08:03:07Z</time>
      </trkpt>
      <trkpt lat="43.86354" lon="3.39191">
        <ele>737</ele>
        <time>2021-05-13T08:03:18Z</time>
      </trkpt>
      <trkpt lat="43.86344" lon="3.39162">
        <ele>739</ele>
        <time>2021-05-13T08:03:34Z</time>
      </trkpt>
      <trkpt lat="43.86325" lon="3.39116">
        <ele>742</ele>
        <time>2021-05-13T08:03:59Z</time>
      </trkpt>
      <trkpt lat="43.86312" lon="3.39079">
        <ele>743</ele>
        <time>2021-05-13T08:04:18Z</time>
      </trkpt>
      <trkpt lat="43.86308" lon="3.39063">
        <ele>745</ele>
        <time>2021-05-13T08:04:26Z</time>
      </trkpt>
      <trkpt lat="43.86297" lon="3.39037">
        <ele>747</ele>
        <time>2021-05-13T08:04:42Z</time>
      </trkpt>
      <trkpt lat="43.86295" lon="3.39004">
        <ele>749</ele>
        <time>2021-05-13T08:04:59Z</time>
      </trkpt>
      <trkpt lat="43.86299" lon="3.38995">
        <ele>749</ele>
        <time>2021-05-13T08:08:01Z</time>
      </trkpt>
      <trkpt lat="43.86324" lon="3.39003">
        <ele>750</ele>
        <time>2021-05-13T08:08:18Z</time>
      </trkpt>
      <trkpt lat="43.86361" lon="3.39019">
        <ele>750</ele>
        <time>2021-05-13T08:08:33Z</time>
      </trkpt>
      <trkpt lat="43.8639" lon="3.39026">
        <ele>750</ele>
        <time>2021-05-13T08:09:00Z</time>
      </trkpt>
      <trkpt lat="43.86426" lon="3.39046">
        <ele>748</ele>
        <time>2021-05-13T08:09:07Z</time>
      </trkpt>
      <trkpt lat="43.86454" lon="3.39063">
        <ele>746</ele>
        <time>2021-05-13T08:09:13Z</time>
      </trkpt>
      <trkpt lat="43.86494" lon="3.39099">
        <ele>745</ele>
        <time>2021-05-13T08:09:27Z</time>
      </trkpt>
      <trkpt lat="43.86506" lon="3.39113">
        <ele>747</ele>
        <time>2021-05-13T08:09:38Z</time>
      </trkpt>
      <trkpt lat="43.8655" lon="3.39133">
        <ele>750</ele>
        <time>2021-05-13T08:09:58Z</time>
      </trkpt>
      <trkpt lat="43.86571" lon="3.3914">
        <ele>752</ele>
        <time>2021-05-13T08:10:09Z</time>
      </trkpt>
      <trkpt lat="43.86606" lon="3.39158">
        <ele>754</ele>
        <time>2021-05-13T08:10:25Z</time>
      </trkpt>
      <trkpt lat="43.86651" lon="3.39183">
        <ele>756</ele>
        <time>2021-05-13T08:10:43Z</time>
      </trkpt>
      <trkpt lat="43.86699" lon="3.39193">
        <ele>756</ele>
        <time>2021-05-13T08:11:05Z</time>
      </trkpt>
      <trkpt lat="43.86719" lon="3.39203">
        <ele>755</ele>
        <time>2021-05-13T08:11:13Z</time>
      </trkpt>
      <trkpt lat="43.86766" lon="3.39222">
        <ele>754</ele>
        <time>2021-05-13T08:11:35Z</time>
      </trkpt>
      <trkpt lat="43.86787" lon="3.39232">
        <ele>752</ele>
        <time>2021-05-13T08:11:40Z</time>
      </trkpt>
      <trkpt lat="43.86802" lon="3.39245">
        <ele>748</ele>
        <time>2021-05-13T08:11:46Z</time>
      </trkpt>
      <trkpt lat="43.86838" lon="3.39279">
        <ele>748</ele>
        <time>2021-05-13T08:12:05Z</time>
      </trkpt>
      <trkpt lat="43.86853" lon="3.39294">
        <ele>750</ele>
        <time>2021-05-13T08:13:02Z</time>
      </trkpt>
      <trkpt lat="43.86875" lon="3.39331">
        <ele>752</ele>
        <time>2021-05-13T08:13:21Z</time>
      </trkpt>
      <trkpt lat="43.86916" lon="3.39375">
        <ele>752</ele>
        <time>2021-05-13T08:13:38Z</time>
      </trkpt>
      <trkpt lat="43.86928" lon="3.3938">
        <ele>751</ele>
        <time>2021-05-13T08:15:02Z</time>
      </trkpt>
      <trkpt lat="43.86963" lon="3.39387">
        <ele>750</ele>
        <time>2021-05-13T08:15:18Z</time>
      </trkpt>
      <trkpt lat="43.86996" lon="3.39403">
        <ele>749</ele>
        <time>2021-05-13T08:15:24Z</time>
      </trkpt>
      <trkpt lat="43.87016" lon="3.394">
        <ele>744</ele>
        <time>2021-05-13T08:15:28Z</time>
      </trkpt>
      <trkpt lat="43.87033" lon="3.39406">
        <ele>739</ele>
        <time>2021-05-13T08:15:32Z</time>
      </trkpt>
      <trkpt lat="43.87063" lon="3.39406">
        <ele>733</ele>
        <time>2021-05-13T08:15:39Z</time>
      </trkpt>
      <trkpt lat="43.87083" lon="3.3941">
        <ele>730</ele>
        <time>2021-05-13T08:15:44Z</time>
      </trkpt>
      <trkpt lat="43.87113" lon="3.39392">
        <ele>726</ele>
        <time>2021-05-13T08:15:52Z</time>
      </trkpt>
      <trkpt lat="43.87136" lon="3.3936">
        <ele>724</ele>
        <time>2021-05-13T08:15:59Z</time>
      </trkpt>
      <trkpt lat="43.87178" lon="3.39353">
        <ele>721</ele>
        <time>2021-05-13T08:16:08Z</time>
      </trkpt>
      <trkpt lat="43.87205" lon="3.39348">
        <ele>720</ele>
        <time>2021-05-13T08:16:15Z</time>
      </trkpt>
      <trkpt lat="43.8722" lon="3.39347">
        <ele>716</ele>
        <time>2021-05-13T08:16:21Z</time>
      </trkpt>
      <trkpt lat="43.87232" lon="3.39377">
        <ele>714</ele>
        <time>2021-05-13T08:16:30Z</time>
      </trkpt>
      <trkpt lat="43.87261" lon="3.39388">
        <ele>715</ele>
        <time>2021-05-13T08:16:43Z</time>
      </trkpt>
      <trkpt lat="43.87293" lon="3.39409">
        <ele>717</ele>
        <time>2021-05-13T08:16:59Z</time>
      </trkpt>
      <trkpt lat="43.87319" lon="3.39412">
        <ele>719</ele>
        <time>2021-05-13T08:17:11Z</time>
      </trkpt>
      <trkpt lat="43.87324" lon="3.39413">
        <ele>720</ele>
        <time>2021-05-13T08:17:19Z</time>
      </trkpt>
      <trkpt lat="43.87346" lon="3.39417">
        <ele>720</ele>
        <time>2021-05-13T08:17:32Z</time>
      </trkpt>
      <trkpt lat="43.87389" lon="3.39435">
        <ele>722</ele>
        <time>2021-05-13T08:17:58Z</time>
      </trkpt>
      <trkpt lat="43.87393" lon="3.39438">
        <ele>722</ele>
        <time>2021-05-13T08:18:13Z</time>
      </trkpt>
      <trkpt lat="43.87413" lon="3.3944">
        <ele>722</ele>
        <time>2021-05-13T08:18:33Z</time>
      </trkpt>
      <trkpt lat="43.87423" lon="3.39437">
        <ele>727</ele>
        <time>2021-05-13T08:25:53Z</time>
      </trkpt>
      <trkpt lat="43.87477" lon="3.39439">
        <ele>719</ele>
        <time>2021-05-13T08:26:11Z</time>
      </trkpt>
      <trkpt lat="43.87509" lon="3.39421">
        <ele>718</ele>
        <time>2021-05-13T08:26:20Z</time>
      </trkpt>
      <trkpt lat="43.87558" lon="3.394">
        <ele>713</ele>
        <time>2021-05-13T08:26:30Z</time>
      </trkpt>
      <trkpt lat="43.87578" lon="3.39397">
        <ele>711</ele>
        <time>2021-05-13T08:26:34Z</time>
      </trkpt>
      <trkpt lat="43.87599" lon="3.39393">
        <ele>708</ele>
        <time>2021-05-13T08:26:38Z</time>
      </trkpt>
      <trkpt lat="43.87629" lon="3.39391">
        <ele>706</ele>
        <time>2021-05-13T08:26:43Z</time>
      </trkpt>
      <trkpt lat="43.87662" lon="3.39399">
        <ele>702</ele>
        <time>2021-05-13T08:26:49Z</time>
      </trkpt>
      <trkpt lat="43.87695" lon="3.39412">
        <ele>699</ele>
        <time>2021-05-13T08:26:56Z</time>
      </trkpt>
      <trkpt lat="43.87723" lon="3.39415">
        <ele>695</ele>
        <time>2021-05-13T08:27:01Z</time>
      </trkpt>
      <trkpt lat="43.87735" lon="3.39401">
        <ele>691</ele>
        <time>2021-05-13T08:27:07Z</time>
      </trkpt>
      <trkpt lat="43.87761" lon="3.39408">
        <ele>687</ele>
        <time>2021-05-13T08:27:13Z</time>
      </trkpt>
      <trkpt lat="43.87793" lon="3.39425">
        <ele>684</ele>
        <time>2021-05-13T08:27:19Z</time>
      </trkpt>
      <trkpt lat="43.87826" lon="3.39452">
        <ele>680</ele>
        <time>2021-05-13T08:27:26Z</time>
      </trkpt>
      <trkpt lat="43.87843" lon="3.39462">
        <ele>678</ele>
        <time>2021-05-13T08:27:30Z</time>
      </trkpt>
      <trkpt lat="43.87862" lon="3.3948">
        <ele>672</ele>
        <time>2021-05-13T08:27:34Z</time>
      </trkpt>
      <trkpt lat="43.87889" lon="3.39514">
        <ele>668</ele>
        <time>2021-05-13T08:27:40Z</time>
      </trkpt>
      <trkpt lat="43.87923" lon="3.3955">
        <ele>664</ele>
        <time>2021-05-13T08:27:46Z</time>
      </trkpt>
      <trkpt lat="43.87947" lon="3.39573">
        <ele>658</ele>
        <time>2021-05-13T08:27:51Z</time>
      </trkpt>
      <trkpt lat="43.87973" lon="3.39596">
        <ele>653</ele>
        <time>2021-05-13T08:27:56Z</time>
      </trkpt>
      <trkpt lat="43.88006" lon="3.39609">
        <ele>647</ele>
        <time>2021-05-13T08:28:01Z</time>
      </trkpt>
      <trkpt lat="43.88042" lon="3.39608">
        <ele>642</ele>
        <time>2021-05-13T08:28:07Z</time>
      </trkpt>
      <trkpt lat="43.8805" lon="3.39608">
        <ele>634</ele>
        <time>2021-05-13T08:28:12Z</time>
      </trkpt>
      <trkpt lat="43.88058" lon="3.3962">
        <ele>629</ele>
        <time>2021-05-13T08:28:24Z</time>
      </trkpt>
      <trkpt lat="43.88078" lon="3.39633">
        <ele>625</ele>
        <time>2021-05-13T08:28:33Z</time>
      </trkpt>
      <trkpt lat="43.88094" lon="3.39644">
        <ele>623</ele>
        <time>2021-05-13T08:28:37Z</time>
      </trkpt>
      <trkpt lat="43.88127" lon="3.39656">
        <ele>621</ele>
        <time>2021-05-13T08:28:43Z</time>
      </trkpt>
      <trkpt lat="43.88147" lon="3.39662">
        <ele>617</ele>
        <time>2021-05-13T08:28:49Z</time>
      </trkpt>
      <trkpt lat="43.8817" lon="3.39649">
        <ele>616</ele>
        <time>2021-05-13T08:29:04Z</time>
      </trkpt>
      <trkpt lat="43.88186" lon="3.39652">
        <ele>618</ele>
        <time>2021-05-13T08:29:14Z</time>
      </trkpt>
      <trkpt lat="43.88192" lon="3.39656">
        <ele>619</ele>
        <time>2021-05-13T08:29:20Z</time>
      </trkpt>
      <trkpt lat="43.88195" lon="3.39654">
        <ele>621</ele>
        <time>2021-05-13T08:29:26Z</time>
      </trkpt>
      <trkpt lat="43.88202" lon="3.39645">
        <ele>623</ele>
        <time>2021-05-13T08:29:40Z</time>
      </trkpt>
      <trkpt lat="43.88214" lon="3.3964">
        <ele>624</ele>
        <time>2021-05-13T08:30:58Z</time>
      </trkpt>
      <trkpt lat="43.88221" lon="3.39641">
        <ele>624</ele>
        <time>2021-05-13T08:31:05Z</time>
      </trkpt>
      <trkpt lat="43.88232" lon="3.3965">
        <ele>626</ele>
        <time>2021-05-13T08:31:16Z</time>
      </trkpt>
      <trkpt lat="43.88239" lon="3.39653">
        <ele>628</ele>
        <time>2021-05-13T08:31:22Z</time>
      </trkpt>
      <trkpt lat="43.8825" lon="3.39647">
        <ele>630</ele>
        <time>2021-05-13T08:31:31Z</time>
      </trkpt>
      <trkpt lat="43.88262" lon="3.39638">
        <ele>632</ele>
        <time>2021-05-13T08:31:41Z</time>
      </trkpt>
      <trkpt lat="43.88276" lon="3.39637">
        <ele>633</ele>
        <time>2021-05-13T08:31:53Z</time>
      </trkpt>
      <trkpt lat="43.88292" lon="3.39632">
        <ele>636</ele>
        <time>2021-05-13T08:32:06Z</time>
      </trkpt>
      <trkpt lat="43.88306" lon="3.39627">
        <ele>638</ele>
        <time>2021-05-13T08:32:20Z</time>
      </trkpt>
      <trkpt lat="43.8832" lon="3.39621">
        <ele>640</ele>
        <time>2021-05-13T08:32:32Z</time>
      </trkpt>
      <trkpt lat="43.88328" lon="3.39619">
        <ele>641</ele>
        <time>2021-05-13T08:32:40Z</time>
      </trkpt>
      <trkpt lat="43.88329" lon="3.39618">
        <ele>643</ele>
        <time>2021-05-13T08:32:47Z</time>
      </trkpt>
      <trkpt lat="43.88326" lon="3.39643">
        <ele>643</ele>
        <time>2021-05-13T08:35:06Z</time>
      </trkpt>
      <trkpt lat="43.88324" lon="3.39665">
        <ele>643</ele>
        <time>2021-05-13T08:35:14Z</time>
      </trkpt>
      <trkpt lat="43.88312" lon="3.39692">
        <ele>645</ele>
        <time>2021-05-13T08:35:36Z</time>
      </trkpt>
      <trkpt lat="43.88284" lon="3.39727">
        <ele>647</ele>
        <time>2021-05-13T08:35:53Z</time>
      </trkpt>
      <trkpt lat="43.88249" lon="3.39765">
        <ele>651</ele>
        <time>2021-05-13T08:36:16Z</time>
      </trkpt>
      <trkpt lat="43.8825" lon="3.39772">
        <ele>652</ele>
        <time>2021-05-13T08:36:22Z</time>
      </trkpt>
      <trkpt lat="43.88287" lon="3.39773">
        <ele>654</ele>
        <time>2021-05-13T08:36:41Z</time>
      </trkpt>
      <trkpt lat="43.8831" lon="3.39771">
        <ele>656</ele>
        <time>2021-05-13T08:36:55Z</time>
      </trkpt>
      <trkpt lat="43.88341" lon="3.39757">
        <ele>659</ele>
        <time>2021-05-13T08:37:14Z</time>
      </trkpt>
      <trkpt lat="43.88373" lon="3.39743">
        <ele>661</ele>
        <time>2021-05-13T08:37:34Z</time>
      </trkpt>
      <trkpt lat="43.88421" lon="3.39746">
        <ele>664</ele>
        <time>2021-05-13T08:38:01Z</time>
      </trkpt>
      <trkpt lat="43.88462" lon="3.39746">
        <ele>666</ele>
        <time>2021-05-13T08:38:17Z</time>
      </trkpt>
      <trkpt lat="43.88529" lon="3.39768">
        <ele>666</ele>
        <time>2021-05-13T08:38:43Z</time>
      </trkpt>
      <trkpt lat="43.8858" lon="3.39763">
        <ele>667</ele>
        <time>2021-05-13T08:39:01Z</time>
      </trkpt>
      <trkpt lat="43.88627" lon="3.39767">
        <ele>669</ele>
        <time>2021-05-13T08:39:21Z</time>
      </trkpt>
      <trkpt lat="43.88651" lon="3.39773">
        <ele>671</ele>
        <time>2021-05-13T08:39:31Z</time>
      </trkpt>
      <trkpt lat="43.88689" lon="3.39778">
        <ele>673</ele>
        <time>2021-05-13T08:39:48Z</time>
      </trkpt>
      <trkpt lat="43.88722" lon="3.39787">
        <ele>676</ele>
        <time>2021-05-13T08:40:04Z</time>
      </trkpt>
      <trkpt lat="43.8875" lon="3.39789">
        <ele>679</ele>
        <time>2021-05-13T08:40:20Z</time>
      </trkpt>
      <trkpt lat="43.88788" lon="3.39805">
        <ele>682</ele>
        <time>2021-05-13T08:40:41Z</time>
      </trkpt>
      <trkpt lat="43.88829" lon="3.39835">
        <ele>683</ele>
        <time>2021-05-13T08:41:00Z</time>
      </trkpt>
      <trkpt lat="43.88851" lon="3.39856">
        <ele>683</ele>
        <time>2021-05-13T08:41:30Z</time>
      </trkpt>
      <trkpt lat="43.88908" lon="3.39915">
        <ele>685</ele>
        <time>2021-05-13T08:41:49Z</time>
      </trkpt>
      <trkpt lat="43.88966" lon="3.39972">
        <ele>686</ele>
        <time>2021-05-13T08:42:08Z</time>
      </trkpt>
      <trkpt lat="43.88988" lon="3.39988">
        <ele>687</ele>
        <time>2021-05-13T08:42:22Z</time>
      </trkpt>
      <trkpt lat="43.88993" lon="3.40002">
        <ele>687</ele>
        <time>2021-05-13T08:42:34Z</time>
      </trkpt>
      <trkpt lat="43.88994" lon="3.39996">
        <ele>687</ele>
        <time>2021-05-13T08:44:34Z</time>
      </trkpt>
      <trkpt lat="43.89042" lon="3.40033">
        <ele>687</ele>
        <time>2021-05-13T08:44:54Z</time>
      </trkpt>
      <trkpt lat="43.89103" lon="3.40021">
        <ele>685</ele>
        <time>2021-05-13T08:45:08Z</time>
      </trkpt>
      <trkpt lat="43.89149" lon="3.40005">
        <ele>684</ele>
        <time>2021-05-13T08:45:21Z</time>
      </trkpt>
      <trkpt lat="43.89195" lon="3.39994">
        <ele>684</ele>
        <time>2021-05-13T08:45:37Z</time>
      </trkpt>
      <trkpt lat="43.8921" lon="3.40027">
        <ele>683</ele>
        <time>2021-05-13T08:45:51Z</time>
      </trkpt>
      <trkpt lat="43.89234" lon="3.40024">
        <ele>681</ele>
        <time>2021-05-13T08:46:24Z</time>
      </trkpt>
      <trkpt lat="43.89306" lon="3.40007">
        <ele>682</ele>
        <time>2021-05-13T08:46:50Z</time>
      </trkpt>
      <trkpt lat="43.89343" lon="3.39993">
        <ele>684</ele>
        <time>2021-05-13T08:47:04Z</time>
      </trkpt>
      <trkpt lat="43.89376" lon="3.40013">
        <ele>686</ele>
        <time>2021-05-13T08:47:18Z</time>
      </trkpt>
      <trkpt lat="43.89417" lon="3.40067">
        <ele>688</ele>
        <time>2021-05-13T08:47:36Z</time>
      </trkpt>
      <trkpt lat="43.89541" lon="3.4008">
        <ele>689</ele>
        <time>2021-05-13T08:48:10Z</time>
      </trkpt>
      <trkpt lat="43.89604" lon="3.40131">
        <ele>689</ele>
        <time>2021-05-13T08:48:30Z</time>
      </trkpt>
      <trkpt lat="43.89656" lon="3.40152">
        <ele>687</ele>
        <time>2021-05-13T08:48:39Z</time>
      </trkpt>
      <trkpt lat="43.8968" lon="3.40177">
        <ele>686</ele>
        <time>2021-05-13T08:48:44Z</time>
      </trkpt>
      <trkpt lat="43.89748" lon="3.40273">
        <ele>684</ele>
        <time>2021-05-13T08:49:03Z</time>
      </trkpt>
      <trkpt lat="43.8982" lon="3.40355">
        <ele>686</ele>
        <time>2021-05-13T08:49:23Z</time>
      </trkpt>
      <trkpt lat="43.89878" lon="3.40436">
        <ele>686</ele>
        <time>2021-05-13T08:49:43Z</time>
      </trkpt>
      <trkpt lat="43.89883" lon="3.40494">
        <ele>686</ele>
        <time>2021-05-13T08:49:52Z</time>
      </trkpt>
      <trkpt lat="43.89889" lon="3.40538">
        <ele>684</ele>
        <time>2021-05-13T08:49:59Z</time>
      </trkpt>
      <trkpt lat="43.89913" lon="3.40556">
        <ele>683</ele>
        <time>2021-05-13T08:50:11Z</time>
      </trkpt>
      <trkpt lat="43.89949" lon="3.40613">
        <ele>684</ele>
        <time>2021-05-13T08:50:34Z</time>
      </trkpt>
      <trkpt lat="43.89975" lon="3.40631">
        <ele>684</ele>
        <time>2021-05-13T08:50:44Z</time>
      </trkpt>
      <trkpt lat="43.9002" lon="3.40639">
        <ele>684</ele>
        <time>2021-05-13T08:50:56Z</time>
      </trkpt>
      <trkpt lat="43.90079" lon="3.4064">
        <ele>684</ele>
        <time>2021-05-13T08:51:08Z</time>
      </trkpt>
      <trkpt lat="43.90115" lon="3.40641">
        <ele>683</ele>
        <time>2021-05-13T08:51:16Z</time>
      </trkpt>
      <trkpt lat="43.90176" lon="3.40675">
        <ele>684</ele>
        <time>2021-05-13T08:51:31Z</time>
      </trkpt>
      <trkpt lat="43.90187" lon="3.40678">
        <ele>684</ele>
        <time>2021-05-13T08:51:39Z</time>
      </trkpt>
      <trkpt lat="43.90232" lon="3.40685">
        <ele>684</ele>
        <time>2021-05-13T08:52:03Z</time>
      </trkpt>
      <trkpt lat="43.9033" lon="3.40701">
        <ele>684</ele>
        <time>2021-05-13T08:52:30Z</time>
      </trkpt>
      <trkpt lat="43.904" lon="3.40733">
        <ele>687</ele>
        <time>2021-05-13T08:52:54Z</time>
      </trkpt>
      <trkpt lat="43.90425" lon="3.4075">
        <ele>689</ele>
        <time>2021-05-13T08:53:05Z</time>
      </trkpt>
      <trkpt lat="43.90464" lon="3.40765">
        <ele>692</ele>
        <time>2021-05-13T08:53:23Z</time>
      </trkpt>
      <trkpt lat="43.90546" lon="3.4076">
        <ele>692</ele>
        <time>2021-05-13T08:53:49Z</time>
      </trkpt>
      <trkpt lat="43.90613" lon="3.40795">
        <ele>691</ele>
        <time>2021-05-13T08:54:07Z</time>
      </trkpt>
      <trkpt lat="43.90629" lon="3.40841">
        <ele>690</ele>
        <time>2021-05-13T08:54:18Z</time>
      </trkpt>
      <trkpt lat="43.90634" lon="3.4084">
        <ele>690</ele>
        <time>2021-05-13T08:54:22Z</time>
      </trkpt>
      <trkpt lat="43.90642" lon="3.4084">
        <ele>689</ele>
        <time>2021-05-13T08:55:18Z</time>
      </trkpt>
      <trkpt lat="43.90664" lon="3.40854">
        <ele>689</ele>
        <time>2021-05-13T08:55:26Z</time>
      </trkpt>
      <trkpt lat="43.90701" lon="3.40869">
        <ele>688</ele>
        <time>2021-05-13T08:55:35Z</time>
      </trkpt>
      <trkpt lat="43.90721" lon="3.409">
        <ele>685</ele>
        <time>2021-05-13T08:55:42Z</time>
      </trkpt>
      <trkpt lat="43.9074" lon="3.40904">
        <ele>684</ele>
        <time>2021-05-13T08:55:47Z</time>
      </trkpt>
      <trkpt lat="43.90764" lon="3.40912">
        <ele>682</ele>
        <time>2021-05-13T08:55:52Z</time>
      </trkpt>
      <trkpt lat="43.90787" lon="3.40911">
        <ele>680</ele>
        <time>2021-05-13T08:55:57Z</time>
      </trkpt>
      <trkpt lat="43.9082" lon="3.40922">
        <ele>677</ele>
        <time>2021-05-13T08:56:05Z</time>
      </trkpt>
      <trkpt lat="43.90845" lon="3.40942">
        <ele>675</ele>
        <time>2021-05-13T08:56:11Z</time>
      </trkpt>
      <trkpt lat="43.90867" lon="3.40954">
        <ele>672</ele>
        <time>2021-05-13T08:56:16Z</time>
      </trkpt>
      <trkpt lat="43.90892" lon="3.40974">
        <ele>667</ele>
        <time>2021-05-13T08:56:23Z</time>
      </trkpt>
      <trkpt lat="43.90929" lon="3.4097">
        <ele>661</ele>
        <time>2021-05-13T08:56:30Z</time>
      </trkpt>
      <trkpt lat="43.9095" lon="3.40953">
        <ele>657</ele>
        <time>2021-05-13T08:56:37Z</time>
      </trkpt>
      <trkpt lat="43.90965" lon="3.40947">
        <ele>653</ele>
        <time>2021-05-13T08:56:43Z</time>
      </trkpt>
      <trkpt lat="43.90966" lon="3.40947">
        <ele>651</ele>
        <time>2021-05-13T08:56:51Z</time>
      </trkpt>
      <trkpt lat="43.90978" lon="3.40968">
        <ele>648</ele>
        <time>2021-05-13T08:57:23Z</time>
      </trkpt>
      <trkpt lat="43.90985" lon="3.40998">
        <ele>643</ele>
        <time>2021-05-13T08:57:28Z</time>
      </trkpt>
      <trkpt lat="43.90988" lon="3.41008">
        <ele>640</ele>
        <time>2021-05-13T08:57:32Z</time>
      </trkpt>
      <trkpt lat="43.91003" lon="3.41028">
        <ele>635</ele>
        <time>2021-05-13T08:57:38Z</time>
      </trkpt>
      <trkpt lat="43.91019" lon="3.41038">
        <ele>632</ele>
        <time>2021-05-13T08:57:43Z</time>
      </trkpt>
      <trkpt lat="43.91044" lon="3.41039">
        <ele>628</ele>
        <time>2021-05-13T08:57:48Z</time>
      </trkpt>
      <trkpt lat="43.91077" lon="3.41035">
        <ele>625</ele>
        <time>2021-05-13T08:57:52Z</time>
      </trkpt>
      <trkpt lat="43.91107" lon="3.41023">
        <ele>619</ele>
        <time>2021-05-13T08:57:56Z</time>
      </trkpt>
      <trkpt lat="43.91147" lon="3.41014">
        <ele>612</ele>
        <time>2021-05-13T08:58:01Z</time>
      </trkpt>
      <trkpt lat="43.91177" lon="3.41007">
        <ele>607</ele>
        <time>2021-05-13T08:58:06Z</time>
      </trkpt>
      <trkpt lat="43.91192" lon="3.41021">
        <ele>602</ele>
        <time>2021-05-13T08:58:11Z</time>
      </trkpt>
      <trkpt lat="43.91198" lon="3.41012">
        <ele>599</ele>
        <time>2021-05-13T08:58:16Z</time>
      </trkpt>
      <trkpt lat="43.91198" lon="3.41021">
        <ele>595</ele>
        <time>2021-05-13T08:58:24Z</time>
      </trkpt>
      <trkpt lat="43.9121" lon="3.41006">
        <ele>592</ele>
        <time>2021-05-13T08:58:32Z</time>
      </trkpt>
      <trkpt lat="43.91222" lon="3.40989">
        <ele>589</ele>
        <time>2021-05-13T08:58:38Z</time>
      </trkpt>
      <trkpt lat="43.91251" lon="3.40974">
        <ele>586</ele>
        <time>2021-05-13T08:58:44Z</time>
      </trkpt>
      <trkpt lat="43.91281" lon="3.40951">
        <ele>582</ele>
        <time>2021-05-13T08:58:50Z</time>
      </trkpt>
      <trkpt lat="43.91303" lon="3.40935">
        <ele>580</ele>
        <time>2021-05-13T08:58:59Z</time>
      </trkpt>
      <trkpt lat="43.91325" lon="3.40917">
        <ele>578</ele>
        <time>2021-05-13T09:00:47Z</time>
      </trkpt>
      <trkpt lat="43.9133" lon="3.40909">
        <ele>575</ele>
        <time>2021-05-13T09:00:53Z</time>
      </trkpt>
      <trkpt lat="43.91337" lon="3.40913">
        <ele>572</ele>
        <time>2021-05-13T09:01:01Z</time>
      </trkpt>
      <trkpt lat="43.91351" lon="3.40917">
        <ele>571</ele>
        <time>2021-05-13T09:01:10Z</time>
      </trkpt>
      <trkpt lat="43.91356" lon="3.40914">
        <ele>569</ele>
        <time>2021-05-13T09:01:14Z</time>
      </trkpt>
      <trkpt lat="43.91374" lon="3.40924">
        <ele>564</ele>
        <time>2021-05-13T09:01:21Z</time>
      </trkpt>
      <trkpt lat="43.91379" lon="3.40927">
        <ele>562</ele>
        <time>2021-05-13T09:01:25Z</time>
      </trkpt>
      <trkpt lat="43.91393" lon="3.40924">
        <ele>559</ele>
        <time>2021-05-13T09:01:31Z</time>
      </trkpt>
      <trkpt lat="43.91413" lon="3.40923">
        <ele>556</ele>
        <time>2021-05-13T09:01:37Z</time>
      </trkpt>
      <trkpt lat="43.91431" lon="3.40923">
        <ele>552</ele>
        <time>2021-05-13T09:01:42Z</time>
      </trkpt>
      <trkpt lat="43.91412" lon="3.40941">
        <ele>547</ele>
        <time>2021-05-13T09:01:50Z</time>
      </trkpt>
      <trkpt lat="43.9141" lon="3.40944">
        <ele>543</ele>
        <time>2021-05-13T09:01:57Z</time>
      </trkpt>
      <trkpt lat="43.91425" lon="3.40945">
        <ele>541</ele>
        <time>2021-05-13T09:02:06Z</time>
      </trkpt>
      <trkpt lat="43.91452" lon="3.40949">
        <ele>536</ele>
        <time>2021-05-13T09:02:15Z</time>
      </trkpt>
      <trkpt lat="43.9146" lon="3.40949">
        <ele>531</ele>
        <time>2021-05-13T09:02:21Z</time>
      </trkpt>
      <trkpt lat="43.91463" lon="3.40955">
        <ele>528</ele>
        <time>2021-05-13T09:02:31Z</time>
      </trkpt>
      <trkpt lat="43.91457" lon="3.4097">
        <ele>526</ele>
        <time>2021-05-13T09:05:27Z</time>
      </trkpt>
      <trkpt lat="43.91446" lon="3.40983">
        <ele>527</ele>
        <time>2021-05-13T09:07:48Z</time>
      </trkpt>
      <trkpt lat="43.91438" lon="3.40993">
        <ele>529</ele>
        <time>2021-05-13T09:08:04Z</time>
      </trkpt>
      <trkpt lat="43.91425" lon="3.41006">
        <ele>532</ele>
        <time>2021-05-13T09:08:17Z</time>
      </trkpt>
      <trkpt lat="43.91419" lon="3.41011">
        <ele>533</ele>
        <time>2021-05-13T09:08:27Z</time>
      </trkpt>
      <trkpt lat="43.91408" lon="3.4102">
        <ele>534</ele>
        <time>2021-05-13T09:08:47Z</time>
      </trkpt>
      <trkpt lat="43.91398" lon="3.4103">
        <ele>536</ele>
        <time>2021-05-13T09:09:01Z</time>
      </trkpt>
      <trkpt lat="43.91389" lon="3.41038">
        <ele>538</ele>
        <time>2021-05-13T09:09:11Z</time>
      </trkpt>
      <trkpt lat="43.91382" lon="3.41047">
        <ele>541</ele>
        <time>2021-05-13T09:09:27Z</time>
      </trkpt>
      <trkpt lat="43.91381" lon="3.41049">
        <ele>543</ele>
        <time>2021-05-13T09:09:40Z</time>
      </trkpt>
      <trkpt lat="43.91376" lon="3.41057">
        <ele>544</ele>
        <time>2021-05-13T09:09:49Z</time>
      </trkpt>
      <trkpt lat="43.91373" lon="3.41062">
        <ele>545</ele>
        <time>2021-05-13T09:09:59Z</time>
      </trkpt>
      <trkpt lat="43.9137" lon="3.41074">
        <ele>546</ele>
        <time>2021-05-13T09:10:10Z</time>
      </trkpt>
      <trkpt lat="43.91366" lon="3.41101">
        <ele>549</ele>
        <time>2021-05-13T09:10:32Z</time>
      </trkpt>
      <trkpt lat="43.91367" lon="3.41107">
        <ele>550</ele>
        <time>2021-05-13T09:10:38Z</time>
      </trkpt>
      <trkpt lat="43.91371" lon="3.41121">
        <ele>551</ele>
        <time>2021-05-13T09:10:46Z</time>
      </trkpt>
      <trkpt lat="43.91375" lon="3.41135">
        <ele>553</ele>
        <time>2021-05-13T09:10:54Z</time>
      </trkpt>
      <trkpt lat="43.91381" lon="3.41144">
        <ele>554</ele>
        <time>2021-05-13T09:11:02Z</time>
      </trkpt>
      <trkpt lat="43.9138" lon="3.41135">
        <ele>557</ele>
        <time>2021-05-13T09:11:16Z</time>
      </trkpt>
      <trkpt lat="43.91383" lon="3.41123">
        <ele>559</ele>
        <time>2021-05-13T09:11:30Z</time>
      </trkpt>
      <trkpt lat="43.91386" lon="3.41111">
        <ele>560</ele>
        <time>2021-05-13T09:11:40Z</time>
      </trkpt>
      <trkpt lat="43.9139" lon="3.41109">
        <ele>562</ele>
        <time>2021-05-13T09:12:10Z</time>
      </trkpt>
      <trkpt lat="43.91413" lon="3.41106">
        <ele>566</ele>
        <time>2021-05-13T09:12:49Z</time>
      </trkpt>
      <trkpt lat="43.91423" lon="3.41102">
        <ele>567</ele>
        <time>2021-05-13T09:13:00Z</time>
      </trkpt>
      <trkpt lat="43.91434" lon="3.41099">
        <ele>568</ele>
        <time>2021-05-13T09:13:09Z</time>
      </trkpt>
      <trkpt lat="43.91432" lon="3.41101">
        <ele>570</ele>
        <time>2021-05-13T09:13:15Z</time>
      </trkpt>
      <trkpt lat="43.91435" lon="3.41112">
        <ele>576</ele>
        <time>2021-05-13T09:14:12Z</time>
      </trkpt>
      <trkpt lat="43.91441" lon="3.41111">
        <ele>576</ele>
        <time>2021-05-13T09:14:22Z</time>
      </trkpt>
      <trkpt lat="43.91446" lon="3.41115">
        <ele>579</ele>
        <time>2021-05-13T09:14:33Z</time>
      </trkpt>
      <trkpt lat="43.91446" lon="3.41115">
        <ele>579</ele>
        <time>2021-05-13T09:14:39Z</time>
      </trkpt>
      <trkpt lat="43.91454" lon="3.41116">
        <ele>581</ele>
        <time>2021-05-13T09:14:51Z</time>
      </trkpt>
      <trkpt lat="43.91463" lon="3.41118">
        <ele>583</ele>
        <time>2021-05-13T09:15:06Z</time>
      </trkpt>
      <trkpt lat="43.91468" lon="3.41118">
        <ele>587</ele>
        <time>2021-05-13T09:15:56Z</time>
      </trkpt>
      <trkpt lat="43.9148" lon="3.41125">
        <ele>589</ele>
        <time>2021-05-13T09:16:08Z</time>
      </trkpt>
      <trkpt lat="43.91491" lon="3.41132">
        <ele>591</ele>
        <time>2021-05-13T09:16:21Z</time>
      </trkpt>
      <trkpt lat="43.91496" lon="3.41139">
        <ele>592</ele>
        <time>2021-05-13T09:16:31Z</time>
      </trkpt>
      <trkpt lat="43.91505" lon="3.41146">
        <ele>595</ele>
        <time>2021-05-13T09:16:47Z</time>
      </trkpt>
      <trkpt lat="43.91511" lon="3.41151">
        <ele>597</ele>
        <time>2021-05-13T09:16:59Z</time>
      </trkpt>
      <trkpt lat="43.91517" lon="3.41154">
        <ele>599</ele>
        <time>2021-05-13T09:17:11Z</time>
      </trkpt>
      <trkpt lat="43.9152" lon="3.41157">
        <ele>602</ele>
        <time>2021-05-13T09:17:27Z</time>
      </trkpt>
      <trkpt lat="43.91522" lon="3.4116">
        <ele>603</ele>
        <time>2021-05-13T09:17:33Z</time>
      </trkpt>
      <trkpt lat="43.91529" lon="3.41169">
        <ele>605</ele>
        <time>2021-05-13T09:17:41Z</time>
      </trkpt>
      <trkpt lat="43.91538" lon="3.41185">
        <ele>607</ele>
        <time>2021-05-13T09:17:57Z</time>
      </trkpt>
      <trkpt lat="43.91544" lon="3.41192">
        <ele>609</ele>
        <time>2021-05-13T09:18:12Z</time>
      </trkpt>
      <trkpt lat="43.91553" lon="3.41201">
        <ele>611</ele>
        <time>2021-05-13T09:18:28Z</time>
      </trkpt>
      <trkpt lat="43.9156" lon="3.41214">
        <ele>613</ele>
        <time>2021-05-13T09:18:41Z</time>
      </trkpt>
      <trkpt lat="43.91567" lon="3.41224">
        <ele>613</ele>
        <time>2021-05-13T09:18:49Z</time>
      </trkpt>
      <trkpt lat="43.91577" lon="3.4124">
        <ele>615</ele>
        <time>2021-05-13T09:19:03Z</time>
      </trkpt>
      <trkpt lat="43.91582" lon="3.41244">
        <ele>616</ele>
        <time>2021-05-13T09:19:12Z</time>
      </trkpt>
      <trkpt lat="43.91588" lon="3.41254">
        <ele>618</ele>
        <time>2021-05-13T09:19:26Z</time>
      </trkpt>
      <trkpt lat="43.91592" lon="3.41275">
        <ele>620</ele>
        <time>2021-05-13T09:19:42Z</time>
      </trkpt>
      <trkpt lat="43.91595" lon="3.41285">
        <ele>621</ele>
        <time>2021-05-13T09:19:48Z</time>
      </trkpt>
      <trkpt lat="43.91598" lon="3.41298">
        <ele>621</ele>
        <time>2021-05-13T09:19:54Z</time>
      </trkpt>
      <trkpt lat="43.91603" lon="3.41314">
        <ele>622</ele>
        <time>2021-05-13T09:20:03Z</time>
      </trkpt>
      <trkpt lat="43.91606" lon="3.41324">
        <ele>623</ele>
        <time>2021-05-13T09:20:11Z</time>
      </trkpt>
      <trkpt lat="43.91609" lon="3.41339">
        <ele>624</ele>
        <time>2021-05-13T09:20:20Z</time>
      </trkpt>
      <trkpt lat="43.91611" lon="3.4135">
        <ele>625</ele>
        <time>2021-05-13T09:20:29Z</time>
      </trkpt>
      <trkpt lat="43.91616" lon="3.41369">
        <ele>629</ele>
        <time>2021-05-13T09:20:42Z</time>
      </trkpt>
      <trkpt lat="43.91619" lon="3.4139">
        <ele>630</ele>
        <time>2021-05-13T09:20:53Z</time>
      </trkpt>
      <trkpt lat="43.91621" lon="3.41397">
        <ele>632</ele>
        <time>2021-05-13T09:21:00Z</time>
      </trkpt>
      <trkpt lat="43.91624" lon="3.41411">
        <ele>634</ele>
        <time>2021-05-13T09:21:10Z</time>
      </trkpt>
      <trkpt lat="43.91627" lon="3.41431">
        <ele>636</ele>
        <time>2021-05-13T09:21:28Z</time>
      </trkpt>
      <trkpt lat="43.91638" lon="3.41438">
        <ele>638</ele>
        <time>2021-05-13T09:21:39Z</time>
      </trkpt>
      <trkpt lat="43.91643" lon="3.41439">
        <ele>639</ele>
        <time>2021-05-13T09:21:46Z</time>
      </trkpt>
      <trkpt lat="43.91655" lon="3.41434">
        <ele>642</ele>
        <time>2021-05-13T09:21:58Z</time>
      </trkpt>
      <trkpt lat="43.91663" lon="3.4143">
        <ele>644</ele>
        <time>2021-05-13T09:22:08Z</time>
      </trkpt>
      <trkpt lat="43.9167" lon="3.4143">
        <ele>645</ele>
        <time>2021-05-13T09:22:18Z</time>
      </trkpt>
      <trkpt lat="43.9168" lon="3.41426">
        <ele>646</ele>
        <time>2021-05-13T09:22:35Z</time>
      </trkpt>
      <trkpt lat="43.91704" lon="3.41417">
        <ele>646</ele>
        <time>2021-05-13T09:29:16Z</time>
      </trkpt>
      <trkpt lat="43.91731" lon="3.41409">
        <ele>647</ele>
        <time>2021-05-13T09:29:30Z</time>
      </trkpt>
      <trkpt lat="43.91752" lon="3.41401">
        <ele>648</ele>
        <time>2021-05-13T09:29:42Z</time>
      </trkpt>
      <trkpt lat="43.91765" lon="3.41408">
        <ele>648</ele>
        <time>2021-05-13T09:29:49Z</time>
      </trkpt>
      <trkpt lat="43.91792" lon="3.41419">
        <ele>649</ele>
        <time>2021-05-13T09:30:03Z</time>
      </trkpt>
      <trkpt lat="43.9181" lon="3.41419">
        <ele>651</ele>
        <time>2021-05-13T09:30:15Z</time>
      </trkpt>
      <trkpt lat="43.91853" lon="3.41409">
        <ele>653</ele>
        <time>2021-05-13T09:30:33Z</time>
      </trkpt>
      <trkpt lat="43.91875" lon="3.41384">
        <ele>654</ele>
        <time>2021-05-13T09:30:49Z</time>
      </trkpt>
      <trkpt lat="43.91896" lon="3.41366">
        <ele>653</ele>
        <time>2021-05-13T09:31:20Z</time>
      </trkpt>
      <trkpt lat="43.91914" lon="3.4135">
        <ele>654</ele>
        <time>2021-05-13T09:31:34Z</time>
      </trkpt>
      <trkpt lat="43.91926" lon="3.4134">
        <ele>655</ele>
        <time>2021-05-13T09:31:42Z</time>
      </trkpt>
      <trkpt lat="43.91936" lon="3.41332">
        <ele>658</ele>
        <time>2021-05-13T09:31:56Z</time>
      </trkpt>
      <trkpt lat="43.91946" lon="3.41324">
        <ele>660</ele>
        <time>2021-05-13T09:32:05Z</time>
      </trkpt>
      <trkpt lat="43.9196" lon="3.41316">
        <ele>662</ele>
        <time>2021-05-13T09:32:17Z</time>
      </trkpt>
      <trkpt lat="43.91969" lon="3.4131">
        <ele>663</ele>
        <time>2021-05-13T09:32:26Z</time>
      </trkpt>
      <trkpt lat="43.91975" lon="3.41296">
        <ele>664</ele>
        <time>2021-05-13T09:32:37Z</time>
      </trkpt>
      <trkpt lat="43.91978" lon="3.41285">
        <ele>664</ele>
        <time>2021-05-13T09:32:46Z</time>
      </trkpt>
      <trkpt lat="43.91991" lon="3.41274">
        <ele>666</ele>
        <time>2021-05-13T09:32:59Z</time>
      </trkpt>
      <trkpt lat="43.91998" lon="3.41274">
        <ele>667</ele>
        <time>2021-05-13T09:33:13Z</time>
      </trkpt>
      <trkpt lat="43.92008" lon="3.41274">
        <ele>670</ele>
        <time>2021-05-13T09:33:36Z</time>
      </trkpt>
      <trkpt lat="43.92018" lon="3.41275">
        <ele>671</ele>
        <time>2021-05-13T09:33:48Z</time>
      </trkpt>
      <trkpt lat="43.92046" lon="3.41279">
        <ele>673</ele>
        <time>2021-05-13T09:34:09Z</time>
      </trkpt>
      <trkpt lat="43.92094" lon="3.41277">
        <ele>674</ele>
        <time>2021-05-13T09:34:26Z</time>
      </trkpt>
      <trkpt lat="43.92107" lon="3.4127">
        <ele>673</ele>
        <time>2021-05-13T09:39:30Z</time>
      </trkpt>
      <trkpt lat="43.92169" lon="3.41222">
        <ele>672</ele>
        <time>2021-05-13T09:39:50Z</time>
      </trkpt>
      <trkpt lat="43.922" lon="3.412">
        <ele>671</ele>
        <time>2021-05-13T09:39:57Z</time>
      </trkpt>
      <trkpt lat="43.92229" lon="3.412">
        <ele>670</ele>
        <time>2021-05-13T09:40:04Z</time>
      </trkpt>
      <trkpt lat="43.92269" lon="3.41209">
        <ele>672</ele>
        <time>2021-05-13T09:40:22Z</time>
      </trkpt>
      <trkpt lat="43.92308" lon="3.41203">
        <ele>674</ele>
        <time>2021-05-13T09:40:38Z</time>
      </trkpt>
      <trkpt lat="43.92357" lon="3.41225">
        <ele>675</ele>
        <time>2021-05-13T09:40:58Z</time>
      </trkpt>
      <trkpt lat="43.92406" lon="3.41233">
        <ele>677</ele>
        <time>2021-05-13T09:41:16Z</time>
      </trkpt>
      <trkpt lat="43.92445" lon="3.4125">
        <ele>678</ele>
        <time>2021-05-13T09:41:31Z</time>
      </trkpt>
      <trkpt lat="43.92462" lon="3.41257">
        <ele>680</ele>
        <time>2021-05-13T09:41:41Z</time>
      </trkpt>
      <trkpt lat="43.92478" lon="3.41259">
        <ele>680</ele>
        <time>2021-05-13T09:41:54Z</time>
      </trkpt>
      <trkpt lat="43.92494" lon="3.41272">
        <ele>679</ele>
        <time>2021-05-13T09:42:14Z</time>
      </trkpt>
      <trkpt lat="43.92543" lon="3.4132">
        <ele>677</ele>
        <time>2021-05-13T09:42:30Z</time>
      </trkpt>
      <trkpt lat="43.92598" lon="3.41341">
        <ele>678</ele>
        <time>2021-05-13T09:42:49Z</time>
      </trkpt>
      <trkpt lat="43.92616" lon="3.41338">
        <ele>680</ele>
        <time>2021-05-13T09:42:58Z</time>
      </trkpt>
      <trkpt lat="43.92641" lon="3.41337">
        <ele>680</ele>
        <time>2021-05-13T09:43:10Z</time>
      </trkpt>
      <trkpt lat="43.92678" lon="3.41345">
        <ele>682</ele>
        <time>2021-05-13T09:43:29Z</time>
      </trkpt>
      <trkpt lat="43.92703" lon="3.41378">
        <ele>684</ele>
        <time>2021-05-13T09:43:46Z</time>
      </trkpt>
      <trkpt lat="43.92713" lon="3.41408">
        <ele>686</ele>
        <time>2021-05-13T09:43:57Z</time>
      </trkpt>
      <trkpt lat="43.92715" lon="3.41424">
        <ele>686</ele>
        <time>2021-05-13T09:44:03Z</time>
      </trkpt>
      <trkpt lat="43.92722" lon="3.41444">
        <ele>687</ele>
        <time>2021-05-13T09:44:10Z</time>
      </trkpt>
      <trkpt lat="43.9274" lon="3.41456">
        <ele>689</ele>
        <time>2021-05-13T09:44:20Z</time>
      </trkpt>
      <trkpt lat="43.92752" lon="3.41465">
        <ele>690</ele>
        <time>2021-05-13T09:44:28Z</time>
      </trkpt>
      <trkpt lat="43.92783" lon="3.41486">
        <ele>691</ele>
        <time>2021-05-13T09:44:42Z</time>
      </trkpt>
      <trkpt lat="43.92847" lon="3.41484">
        <ele>693</ele>
        <time>2021-05-13T09:45:06Z</time>
      </trkpt>
      <trkpt lat="43.92881" lon="3.41457">
        <ele>695</ele>
        <time>2021-05-13T09:45:21Z</time>
      </trkpt>
      <trkpt lat="43.92907" lon="3.41425">
        <ele>698</ele>
        <time>2021-05-13T09:45:35Z</time>
      </trkpt>
      <trkpt lat="43.9297" lon="3.41367">
        <ele>697</ele>
        <time>2021-05-13T09:45:57Z</time>
      </trkpt>
      <trkpt lat="43.93013" lon="3.41365">
        <ele>697</ele>
        <time>2021-05-13T09:46:07Z</time>
      </trkpt>
      <trkpt lat="43.93148" lon="3.41399">
        <ele>696</ele>
        <time>2021-05-13T09:46:41Z</time>
      </trkpt>
      <trkpt lat="43.93248" lon="3.4141">
        <ele>697</ele>
        <time>2021-05-13T09:47:09Z</time>
      </trkpt>
      <trkpt lat="43.933" lon="3.41407">
        <ele>696</ele>
        <time>2021-05-13T09:47:29Z</time>
      </trkpt>
      <trkpt lat="43.93329" lon="3.4138">
        <ele>698</ele>
        <time>2021-05-13T09:47:46Z</time>
      </trkpt>
      <trkpt lat="43.93395" lon="3.41311">
        <ele>698</ele>
        <time>2021-05-13T09:48:11Z</time>
      </trkpt>
      <trkpt lat="43.93422" lon="3.41289">
        <ele>698</ele>
        <time>2021-05-13T09:48:30Z</time>
      </trkpt>
      <trkpt lat="43.93433" lon="3.41245">
        <ele>698</ele>
        <time>2021-05-13T09:48:42Z</time>
      </trkpt>
      <trkpt lat="43.93457" lon="3.41179">
        <ele>697</ele>
        <time>2021-05-13T09:48:59Z</time>
      </trkpt>
      <trkpt lat="43.93468" lon="3.41146">
        <ele>699</ele>
        <time>2021-05-13T09:49:12Z</time>
      </trkpt>
      <trkpt lat="43.9349" lon="3.41118">
        <ele>703</ele>
        <time>2021-05-13T09:49:29Z</time>
      </trkpt>
      <trkpt lat="43.93503" lon="3.41107">
        <ele>704</ele>
        <time>2021-05-13T09:49:38Z</time>
      </trkpt>
      <trkpt lat="43.93511" lon="3.411">
        <ele>705</ele>
        <time>2021-05-13T09:49:45Z</time>
      </trkpt>
      <trkpt lat="43.9352" lon="3.41082">
        <ele>707</ele>
        <time>2021-05-13T09:49:55Z</time>
      </trkpt>
      <trkpt lat="43.93538" lon="3.41094">
        <ele>708</ele>
        <time>2021-05-13T09:50:05Z</time>
      </trkpt>
      <trkpt lat="43.9359" lon="3.41084">
        <ele>708</ele>
        <time>2021-05-13T09:50:26Z</time>
      </trkpt>
      <trkpt lat="43.93613" lon="3.41031">
        <ele>708</ele>
        <time>2021-05-13T09:50:48Z</time>
      </trkpt>
      <trkpt lat="43.93626" lon="3.41027">
        <ele>709</ele>
        <time>2021-05-13T09:51:03Z</time>
      </trkpt>
      <trkpt lat="43.9363" lon="3.4103">
        <ele>711</ele>
        <time>2021-05-13T09:51:10Z</time>
      </trkpt>
      <trkpt lat="43.93635" lon="3.41032">
        <ele>713</ele>
        <time>2021-05-13T09:51:25Z</time>
      </trkpt>
      <trkpt lat="43.93639" lon="3.41027">
        <ele>714</ele>
        <time>2021-05-13T09:51:38Z</time>
      </trkpt>
      <trkpt lat="43.93643" lon="3.41024">
        <ele>717</ele>
        <time>2021-05-13T09:51:57Z</time>
      </trkpt>
      <trkpt lat="43.93652" lon="3.41022">
        <ele>718</ele>
        <time>2021-05-13T09:52:03Z</time>
      </trkpt>
      <trkpt lat="43.93667" lon="3.41021">
        <ele>720</ele>
        <time>2021-05-13T09:52:13Z</time>
      </trkpt>
      <trkpt lat="43.93683" lon="3.41026">
        <ele>723</ele>
        <time>2021-05-13T09:52:22Z</time>
      </trkpt>
      <trkpt lat="43.93715" lon="3.41037">
        <ele>725</ele>
        <time>2021-05-13T09:52:39Z</time>
      </trkpt>
      <trkpt lat="43.93741" lon="3.4104">
        <ele>728</ele>
        <time>2021-05-13T09:52:51Z</time>
      </trkpt>
      <trkpt lat="43.93764" lon="3.41033">
        <ele>730</ele>
        <time>2021-05-13T09:53:03Z</time>
      </trkpt>
      <trkpt lat="43.93796" lon="3.41">
        <ele>730</ele>
        <time>2021-05-13T09:53:19Z</time>
      </trkpt>
      <trkpt lat="43.93829" lon="3.40943">
        <ele>729</ele>
        <time>2021-05-13T09:53:37Z</time>
      </trkpt>
      <trkpt lat="43.93805" lon="3.40857">
        <ele>726</ele>
        <time>2021-05-13T09:53:56Z</time>
      </trkpt>
      <trkpt lat="43.93777" lon="3.40827">
        <ele>723</ele>
        <time>2021-05-13T09:54:04Z</time>
      </trkpt>
      <trkpt lat="43.93758" lon="3.40785">
        <ele>722</ele>
        <time>2021-05-13T09:54:12Z</time>
      </trkpt>
      <trkpt lat="43.93779" lon="3.40733">
        <ele>720</ele>
        <time>2021-05-13T09:54:24Z</time>
      </trkpt>
      <trkpt lat="43.93806" lon="3.40688">
        <ele>718</ele>
        <time>2021-05-13T09:54:34Z</time>
      </trkpt>
      <trkpt lat="43.93877" lon="3.40658">
        <ele>718</ele>
        <time>2021-05-13T09:54:57Z</time>
      </trkpt>
      <trkpt lat="43.93899" lon="3.40678">
        <ele>717</ele>
        <time>2021-05-13T09:55:10Z</time>
      </trkpt>
      <trkpt lat="43.93915" lon="3.40703">
        <ele>716</ele>
        <time>2021-05-13T09:55:17Z</time>
      </trkpt>
      <trkpt lat="43.93944" lon="3.40717">
        <ele>713</ele>
        <time>2021-05-13T09:55:23Z</time>
      </trkpt>
      <trkpt lat="43.93966" lon="3.40714">
        <ele>711</ele>
        <time>2021-05-13T09:55:29Z</time>
      </trkpt>
      <trkpt lat="43.9401" lon="3.40711">
        <ele>710</ele>
        <time>2021-05-13T09:55:46Z</time>
      </trkpt>
      <trkpt lat="43.94047" lon="3.40708">
        <ele>711</ele>
        <time>2021-05-13T09:56:10Z</time>
      </trkpt>
      <trkpt lat="43.94056" lon="3.40689">
        <ele>712</ele>
        <time>2021-05-13T09:56:21Z</time>
      </trkpt>
      <trkpt lat="43.94066" lon="3.40675">
        <ele>715</ele>
        <time>2021-05-13T09:56:32Z</time>
      </trkpt>
      <trkpt lat="43.94074" lon="3.40668">
        <ele>717</ele>
        <time>2021-05-13T09:56:40Z</time>
      </trkpt>
      <trkpt lat="43.94075" lon="3.40655">
        <ele>719</ele>
        <time>2021-05-13T09:56:49Z</time>
      </trkpt>
      <trkpt lat="43.94074" lon="3.4064">
        <ele>722</ele>
        <time>2021-05-13T09:57:00Z</time>
      </trkpt>
      <trkpt lat="43.94078" lon="3.40628">
        <ele>724</ele>
        <time>2021-05-13T09:57:10Z</time>
      </trkpt>
      <trkpt lat="43.94082" lon="3.4062">
        <ele>726</ele>
        <time>2021-05-13T09:57:17Z</time>
      </trkpt>
      <trkpt lat="43.94085" lon="3.40612">
        <ele>727</ele>
        <time>2021-05-13T09:57:23Z</time>
      </trkpt>
      <trkpt lat="43.94089" lon="3.40595">
        <ele>730</ele>
        <time>2021-05-13T09:57:36Z</time>
      </trkpt>
      <trkpt lat="43.94092" lon="3.40586">
        <ele>732</ele>
        <time>2021-05-13T09:57:44Z</time>
      </trkpt>
      <trkpt lat="43.94095" lon="3.40579">
        <ele>734</ele>
        <time>2021-05-13T09:57:52Z</time>
      </trkpt>
      <trkpt lat="43.941" lon="3.40569">
        <ele>736</ele>
        <time>2021-05-13T09:58:02Z</time>
      </trkpt>
      <trkpt lat="43.94106" lon="3.40555">
        <ele>739</ele>
        <time>2021-05-13T09:58:16Z</time>
      </trkpt>
      <trkpt lat="43.94113" lon="3.40539">
        <ele>742</ele>
        <time>2021-05-13T09:58:29Z</time>
      </trkpt>
      <trkpt lat="43.94116" lon="3.40532">
        <ele>744</ele>
        <time>2021-05-13T09:58:38Z</time>
      </trkpt>
      <trkpt lat="43.94125" lon="3.40506">
        <ele>746</ele>
        <time>2021-05-13T09:58:54Z</time>
      </trkpt>
      <trkpt lat="43.94131" lon="3.40495">
        <ele>747</ele>
        <time>2021-05-13T09:59:02Z</time>
      </trkpt>
      <trkpt lat="43.94139" lon="3.40473">
        <ele>750</ele>
        <time>2021-05-13T09:59:17Z</time>
      </trkpt>
      <trkpt lat="43.94144" lon="3.40437">
        <ele>752</ele>
        <time>2021-05-13T09:59:36Z</time>
      </trkpt>
      <trkpt lat="43.94162" lon="3.40431">
        <ele>753</ele>
        <time>2021-05-13T09:59:46Z</time>
      </trkpt>
      <trkpt lat="43.94182" lon="3.40434">
        <ele>755</ele>
        <time>2021-05-13T09:59:57Z</time>
      </trkpt>
      <trkpt lat="43.94219" lon="3.40441">
        <ele>755</ele>
        <time>2021-05-13T10:00:15Z</time>
      </trkpt>
      <trkpt lat="43.94267" lon="3.40457">
        <ele>755</ele>
        <time>2021-05-13T10:00:37Z</time>
      </trkpt>
      <trkpt lat="43.94314" lon="3.40492">
        <ele>757</ele>
        <time>2021-05-13T10:00:59Z</time>
      </trkpt>
      <trkpt lat="43.94345" lon="3.40524">
        <ele>759</ele>
        <time>2021-05-13T10:01:16Z</time>
      </trkpt>
      <trkpt lat="43.94367" lon="3.40537">
        <ele>759</ele>
        <time>2021-05-13T10:01:28Z</time>
      </trkpt>
      <trkpt lat="43.94347" lon="3.4048">
        <ele>757</ele>
        <time>2021-05-13T10:01:46Z</time>
      </trkpt>
      <trkpt lat="43.94318" lon="3.40422">
        <ele>756</ele>
        <time>2021-05-13T10:01:57Z</time>
      </trkpt>
      <trkpt lat="43.94312" lon="3.40377">
        <ele>754</ele>
        <time>2021-05-13T10:02:03Z</time>
      </trkpt>
      <trkpt lat="43.94298" lon="3.40303">
        <ele>750</ele>
        <time>2021-05-13T10:02:14Z</time>
      </trkpt>
      <trkpt lat="43.9427" lon="3.40192">
        <ele>748</ele>
        <time>2021-05-13T10:02:32Z</time>
      </trkpt>
      <trkpt lat="43.94252" lon="3.40084">
        <ele>748</ele>
        <time>2021-05-13T10:02:51Z</time>
      </trkpt>
      <trkpt lat="43.94257" lon="3.39953">
        <ele>745</ele>
        <time>2021-05-13T10:03:07Z</time>
      </trkpt>
      <trkpt lat="43.9426" lon="3.39891">
        <ele>741</ele>
        <time>2021-05-13T10:03:13Z</time>
      </trkpt>
      <trkpt lat="43.9424" lon="3.39785">
        <ele>741</ele>
        <time>2021-05-13T10:03:34Z</time>
      </trkpt>
      <trkpt lat="43.94224" lon="3.3968">
        <ele>740</ele>
        <time>2021-05-13T10:03:52Z</time>
      </trkpt>
      <trkpt lat="43.94183" lon="3.39601">
        <ele>738</ele>
        <time>2021-05-13T10:04:06Z</time>
      </trkpt>
      <trkpt lat="43.94187" lon="3.39567">
        <ele>738</ele>
        <time>2021-05-13T10:04:18Z</time>
      </trkpt>
      <trkpt lat="43.94207" lon="3.39554">
        <ele>741</ele>
        <time>2021-05-13T10:04:29Z</time>
      </trkpt>
      <trkpt lat="43.94248" lon="3.39533">
        <ele>744</ele>
        <time>2021-05-13T10:04:49Z</time>
      </trkpt>
      <trkpt lat="43.94273" lon="3.39531">
        <ele>746</ele>
        <time>2021-05-13T10:05:01Z</time>
      </trkpt>
      <trkpt lat="43.94305" lon="3.39553">
        <ele>748</ele>
        <time>2021-05-13T10:05:17Z</time>
      </trkpt>
      <trkpt lat="43.94335" lon="3.39571">
        <ele>750</ele>
        <time>2021-05-13T10:05:32Z</time>
      </trkpt>
      <trkpt lat="43.94346" lon="3.39579">
        <ele>752</ele>
        <time>2021-05-13T10:05:39Z</time>
      </trkpt>
      <trkpt lat="43.94389" lon="3.39629">
        <ele>754</ele>
        <time>2021-05-13T10:06:02Z</time>
      </trkpt>
      <trkpt lat="43.94427" lon="3.39708">
        <ele>751</ele>
        <time>2021-05-13T10:06:20Z</time>
      </trkpt>
      <trkpt lat="43.94461" lon="3.39763">
        <ele>750</ele>
        <time>2021-05-13T10:06:37Z</time>
      </trkpt>
      <trkpt lat="43.94513" lon="3.39783">
        <ele>753</ele>
        <time>2021-05-13T10:06:56Z</time>
      </trkpt>
      <trkpt lat="43.94545" lon="3.39792">
        <ele>754</ele>
        <time>2021-05-13T10:07:07Z</time>
      </trkpt>
      <trkpt lat="43.94616" lon="3.39763">
        <ele>755</ele>
        <time>2021-05-13T10:07:34Z</time>
      </trkpt>
      <trkpt lat="43.94633" lon="3.39752">
        <ele>755</ele>
        <time>2021-05-13T10:07:44Z</time>
      </trkpt>
      <trkpt lat="43.94638" lon="3.39742">
        <ele>755</ele>
        <time>2021-05-13T10:07:56Z</time>
      </trkpt>
      <trkpt lat="43.94646" lon="3.39747">
        <ele>755</ele>
        <time>2021-05-13T10:08:21Z</time>
      </trkpt>
      <trkpt lat="43.94679" lon="3.39753">
        <ele>756</ele>
        <time>2021-05-13T10:08:37Z</time>
      </trkpt>
      <trkpt lat="43.94727" lon="3.39763">
        <ele>758</ele>
        <time>2021-05-13T10:08:58Z</time>
      </trkpt>
      <trkpt lat="43.948" lon="3.3974">
        <ele>759</ele>
        <time>2021-05-13T10:09:27Z</time>
      </trkpt>
      <trkpt lat="43.94843" lon="3.39724">
        <ele>760</ele>
        <time>2021-05-13T10:09:49Z</time>
      </trkpt>
      <trkpt lat="43.9486" lon="3.39707">
        <ele>762</ele>
        <time>2021-05-13T10:10:02Z</time>
      </trkpt>
      <trkpt lat="43.94872" lon="3.39693">
        <ele>764</ele>
        <time>2021-05-13T10:10:11Z</time>
      </trkpt>
      <trkpt lat="43.94889" lon="3.39639">
        <ele>766</ele>
        <time>2021-05-13T10:10:29Z</time>
      </trkpt>
      <trkpt lat="43.94913" lon="3.39582">
        <ele>763</ele>
        <time>2021-05-13T10:10:38Z</time>
      </trkpt>
      <trkpt lat="43.94938" lon="3.39552">
        <ele>758</ele>
        <time>2021-05-13T10:10:43Z</time>
      </trkpt>
      <trkpt lat="43.94975" lon="3.39529">
        <ele>753</ele>
        <time>2021-05-13T10:10:49Z</time>
      </trkpt>
      <trkpt lat="43.94993" lon="3.3952">
        <ele>751</ele>
        <time>2021-05-13T10:10:53Z</time>
      </trkpt>
      <trkpt lat="43.95001" lon="3.39487">
        <ele>746</ele>
        <time>2021-05-13T10:10:59Z</time>
      </trkpt>
      <trkpt lat="43.95011" lon="3.39455">
        <ele>743</ele>
        <time>2021-05-13T10:11:11Z</time>
      </trkpt>
      <trkpt lat="43.9501" lon="3.39443">
        <ele>745</ele>
        <time>2021-05-13T10:11:21Z</time>
      </trkpt>
      <trkpt lat="43.95002" lon="3.39424">
        <ele>747</ele>
        <time>2021-05-13T10:11:36Z</time>
      </trkpt>
      <trkpt lat="43.95004" lon="3.39419">
        <ele>748</ele>
        <time>2021-05-13T10:11:49Z</time>
      </trkpt>
      <trkpt lat="43.95007" lon="3.39419">
        <ele>749</ele>
        <time>2021-05-13T10:11:57Z</time>
      </trkpt>
      <trkpt lat="43.95017" lon="3.39422">
        <ele>750</ele>
        <time>2021-05-13T10:12:05Z</time>
      </trkpt>
      <trkpt lat="43.95022" lon="3.39416">
        <ele>751</ele>
        <time>2021-05-13T10:12:13Z</time>
      </trkpt>
      <trkpt lat="43.95029" lon="3.39408">
        <ele>753</ele>
        <time>2021-05-13T10:12:24Z</time>
      </trkpt>
      <trkpt lat="43.95035" lon="3.394">
        <ele>756</ele>
        <time>2021-05-13T10:12:35Z</time>
      </trkpt>
      <trkpt lat="43.95048" lon="3.39381">
        <ele>758</ele>
        <time>2021-05-13T10:12:51Z</time>
      </trkpt>
      <trkpt lat="43.95058" lon="3.39372">
        <ele>759</ele>
        <time>2021-05-13T10:13:01Z</time>
      </trkpt>
      <trkpt lat="43.95069" lon="3.39368">
        <ele>760</ele>
        <time>2021-05-13T10:13:10Z</time>
      </trkpt>
      <trkpt lat="43.95115" lon="3.39374">
        <ele>761</ele>
        <time>2021-05-13T10:13:31Z</time>
      </trkpt>
      <trkpt lat="43.95135" lon="3.39361">
        <ele>763</ele>
        <time>2021-05-13T10:13:44Z</time>
      </trkpt>
      <trkpt lat="43.95149" lon="3.39358">
        <ele>765</ele>
        <time>2021-05-13T10:13:52Z</time>
      </trkpt>
      <trkpt lat="43.95172" lon="3.39343">
        <ele>768</ele>
        <time>2021-05-13T10:14:06Z</time>
      </trkpt>
      <trkpt lat="43.95195" lon="3.39334">
        <ele>770</ele>
        <time>2021-05-13T10:14:20Z</time>
      </trkpt>
      <trkpt lat="43.9523" lon="3.39306">
        <ele>770</ele>
        <time>2021-05-13T10:14:41Z</time>
      </trkpt>
      <trkpt lat="43.95269" lon="3.39274">
        <ele>770</ele>
        <time>2021-05-13T10:14:58Z</time>
      </trkpt>
      <trkpt lat="43.95296" lon="3.3922">
        <ele>771</ele>
        <time>2021-05-13T10:15:19Z</time>
      </trkpt>
      <trkpt lat="43.95312" lon="3.39191">
        <ele>774</ele>
        <time>2021-05-13T10:15:33Z</time>
      </trkpt>
      <trkpt lat="43.95331" lon="3.39158">
        <ele>775</ele>
        <time>2021-05-13T10:15:47Z</time>
      </trkpt>
      <trkpt lat="43.9539" lon="3.39159">
        <ele>775</ele>
        <time>2021-05-13T10:16:10Z</time>
      </trkpt>
      <trkpt lat="43.95408" lon="3.3917">
        <ele>776</ele>
        <time>2021-05-13T10:16:22Z</time>
      </trkpt>
      <trkpt lat="43.95421" lon="3.39171">
        <ele>776</ele>
        <time>2021-05-13T10:16:28Z</time>
      </trkpt>
      <trkpt lat="43.9541" lon="3.39164">
        <ele>776</ele>
        <time>2021-05-13T10:16:35Z</time>
      </trkpt>
      <trkpt lat="43.95426" lon="3.39163">
        <ele>776</ele>
        <time>2021-05-13T10:16:45Z</time>
      </trkpt>
      <trkpt lat="43.95448" lon="3.39121">
        <ele>777</ele>
        <time>2021-05-13T10:17:03Z</time>
      </trkpt>
      <trkpt lat="43.95459" lon="3.39096">
        <ele>779</ele>
        <time>2021-05-13T10:17:15Z</time>
      </trkpt>
      <trkpt lat="43.9546" lon="3.39079">
        <ele>779</ele>
        <time>2021-05-13T10:17:22Z</time>
      </trkpt>
      <trkpt lat="43.95461" lon="3.39068">
        <ele>780</ele>
        <time>2021-05-13T10:17:27Z</time>
      </trkpt>
      <trkpt lat="43.95465" lon="3.39053">
        <ele>781</ele>
        <time>2021-05-13T10:17:34Z</time>
      </trkpt>
      <trkpt lat="43.95476" lon="3.39008">
        <ele>784</ele>
        <time>2021-05-13T10:17:52Z</time>
      </trkpt>
      <trkpt lat="43.95485" lon="3.38989">
        <ele>787</ele>
        <time>2021-05-13T10:18:01Z</time>
      </trkpt>
      <trkpt lat="43.95503" lon="3.38963">
        <ele>790</ele>
        <time>2021-05-13T10:18:18Z</time>
      </trkpt>
      <trkpt lat="43.95516" lon="3.38942">
        <ele>793</ele>
        <time>2021-05-13T10:18:34Z</time>
      </trkpt>
      <trkpt lat="43.95531" lon="3.38934">
        <ele>795</ele>
        <time>2021-05-13T10:18:46Z</time>
      </trkpt>
      <trkpt lat="43.95542" lon="3.38921">
        <ele>797</ele>
        <time>2021-05-13T10:18:54Z</time>
      </trkpt>
      <trkpt lat="43.95545" lon="3.38904">
        <ele>799</ele>
        <time>2021-05-13T10:19:02Z</time>
      </trkpt>
      <trkpt lat="43.95552" lon="3.38901">
        <ele>800</ele>
        <time>2021-05-13T10:19:10Z</time>
      </trkpt>
      <trkpt lat="43.95562" lon="3.38906">
        <ele>801</ele>
        <time>2021-05-13T10:19:19Z</time>
      </trkpt>
      <trkpt lat="43.95559" lon="3.38906">
        <ele>802</ele>
        <time>2021-05-13T10:19:33Z</time>
      </trkpt>
      <trkpt lat="43.95532" lon="3.38867">
        <ele>800</ele>
        <time>2021-05-13T10:19:45Z</time>
      </trkpt>
      <trkpt lat="43.9555" lon="3.38854">
        <ele>802</ele>
        <time>2021-05-13T10:20:00Z</time>
      </trkpt>
      <trkpt lat="43.95565" lon="3.38855">
        <ele>804</ele>
        <time>2021-05-13T10:20:10Z</time>
      </trkpt>
      <trkpt lat="43.95587" lon="3.38852">
        <ele>806</ele>
        <time>2021-05-13T10:20:24Z</time>
      </trkpt>
      <trkpt lat="43.95604" lon="3.3885">
        <ele>809</ele>
        <time>2021-05-13T10:20:38Z</time>
      </trkpt>
      <trkpt lat="43.95617" lon="3.38838">
        <ele>812</ele>
        <time>2021-05-13T10:20:51Z</time>
      </trkpt>
      <trkpt lat="43.95629" lon="3.38837">
        <ele>814</ele>
        <time>2021-05-13T10:21:01Z</time>
      </trkpt>
      <trkpt lat="43.95642" lon="3.38837">
        <ele>816</ele>
        <time>2021-05-13T10:21:09Z</time>
      </trkpt>
      <trkpt lat="43.95657" lon="3.38831">
        <ele>819</ele>
        <time>2021-05-13T10:21:20Z</time>
      </trkpt>
      <trkpt lat="43.95665" lon="3.38811">
        <ele>820</ele>
        <time>2021-05-13T10:21:30Z</time>
      </trkpt>
      <trkpt lat="43.95671" lon="3.38792">
        <ele>821</ele>
        <time>2021-05-13T10:21:41Z</time>
      </trkpt>
      <trkpt lat="43.95689" lon="3.3877">
        <ele>824</ele>
        <time>2021-05-13T10:21:56Z</time>
      </trkpt>
      <trkpt lat="43.95704" lon="3.38742">
        <ele>825</ele>
        <time>2021-05-13T10:22:11Z</time>
      </trkpt>
      <trkpt lat="43.95695" lon="3.38709">
        <ele>827</ele>
        <time>2021-05-13T10:22:23Z</time>
      </trkpt>
      <trkpt lat="43.95693" lon="3.3866">
        <ele>829</ele>
        <time>2021-05-13T10:22:38Z</time>
      </trkpt>
      <trkpt lat="43.95728" lon="3.38596">
        <ele>829</ele>
        <time>2021-05-13T10:23:01Z</time>
      </trkpt>
      <trkpt lat="43.95744" lon="3.38559">
        <ele>831</ele>
        <time>2021-05-13T10:23:15Z</time>
      </trkpt>
      <trkpt lat="43.95753" lon="3.38538">
        <ele>833</ele>
        <time>2021-05-13T10:23:25Z</time>
      </trkpt>
      <trkpt lat="43.95763" lon="3.38527">
        <ele>834</ele>
        <time>2021-05-13T10:23:33Z</time>
      </trkpt>
      <trkpt lat="43.95774" lon="3.3851">
        <ele>837</ele>
        <time>2021-05-13T10:23:45Z</time>
      </trkpt>
      <trkpt lat="43.95785" lon="3.38495">
        <ele>839</ele>
        <time>2021-05-13T10:23:55Z</time>
      </trkpt>
      <trkpt lat="43.95798" lon="3.38473">
        <ele>842</ele>
        <time>2021-05-13T10:24:08Z</time>
      </trkpt>
      <trkpt lat="43.95817" lon="3.38434">
        <ele>843</ele>
        <time>2021-05-13T10:24:24Z</time>
      </trkpt>
      <trkpt lat="43.95853" lon="3.38393">
        <ele>843</ele>
        <time>2021-05-13T10:24:44Z</time>
      </trkpt>
      <trkpt lat="43.95914" lon="3.38359">
        <ele>842</ele>
        <time>2021-05-13T10:25:03Z</time>
      </trkpt>
      <trkpt lat="43.95947" lon="3.38353">
        <ele>840</ele>
        <time>2021-05-13T10:25:09Z</time>
      </trkpt>
      <trkpt lat="43.95969" lon="3.38356">
        <ele>837</ele>
        <time>2021-05-13T10:25:13Z</time>
      </trkpt>
      <trkpt lat="43.95953" lon="3.38334">
        <ele>832</ele>
        <time>2021-05-13T10:25:20Z</time>
      </trkpt>
      <trkpt lat="43.95962" lon="3.38325">
        <ele>830</ele>
        <time>2021-05-13T10:25:27Z</time>
      </trkpt>
      <trkpt lat="43.95995" lon="3.38305">
        <ele>829</ele>
        <time>2021-05-13T10:25:35Z</time>
      </trkpt>
      <trkpt lat="43.96009" lon="3.38293">
        <ele>825</ele>
        <time>2021-05-13T10:25:52Z</time>
      </trkpt>
      <trkpt lat="43.9601" lon="3.38282">
        <ele>824</ele>
        <time>2021-05-13T10:27:09Z</time>
      </trkpt>
      <trkpt lat="43.96028" lon="3.38261">
        <ele>824</ele>
        <time>2021-05-13T10:27:19Z</time>
      </trkpt>
      <trkpt lat="43.96061" lon="3.38259">
        <ele>823</ele>
        <time>2021-05-13T10:27:27Z</time>
      </trkpt>
      <trkpt lat="43.96092" lon="3.38254">
        <ele>820</ele>
        <time>2021-05-13T10:27:34Z</time>
      </trkpt>
      <trkpt lat="43.96103" lon="3.38233">
        <ele>819</ele>
        <time>2021-05-13T10:27:38Z</time>
      </trkpt>
      <trkpt lat="43.96129" lon="3.3822">
        <ele>817</ele>
        <time>2021-05-13T10:27:44Z</time>
      </trkpt>
      <trkpt lat="43.96159" lon="3.38218">
        <ele>816</ele>
        <time>2021-05-13T10:27:51Z</time>
      </trkpt>
      <trkpt lat="43.96209" lon="3.38182">
        <ele>816</ele>
        <time>2021-05-13T10:28:10Z</time>
      </trkpt>
      <trkpt lat="43.96227" lon="3.38168">
        <ele>818</ele>
        <time>2021-05-13T10:28:21Z</time>
      </trkpt>
      <trkpt lat="43.96251" lon="3.38153">
        <ele>819</ele>
        <time>2021-05-13T10:28:32Z</time>
      </trkpt>
      <trkpt lat="43.96282" lon="3.38137">
        <ele>822</ele>
        <time>2021-05-13T10:28:45Z</time>
      </trkpt>
      <trkpt lat="43.96308" lon="3.38113">
        <ele>822</ele>
        <time>2021-05-13T10:29:01Z</time>
      </trkpt>
      <trkpt lat="43.96337" lon="3.38085">
        <ele>823</ele>
        <time>2021-05-13T10:29:17Z</time>
      </trkpt>
      <trkpt lat="43.96345" lon="3.3807">
        <ele>826</ele>
        <time>2021-05-13T10:29:28Z</time>
      </trkpt>
      <trkpt lat="43.96346" lon="3.3806">
        <ele>827</ele>
        <time>2021-05-13T10:29:36Z</time>
      </trkpt>
      <trkpt lat="43.96349" lon="3.38049">
        <ele>828</ele>
        <time>2021-05-13T10:29:42Z</time>
      </trkpt>
      <trkpt lat="43.96345" lon="3.38053">
        <ele>830</ele>
        <time>2021-05-13T10:29:51Z</time>
      </trkpt>
      <trkpt lat="43.96335" lon="3.38063">
        <ele>832</ele>
        <time>2021-05-13T10:30:02Z</time>
      </trkpt>
      <trkpt lat="43.96328" lon="3.38063">
        <ele>832</ele>
        <time>2021-05-13T10:30:10Z</time>
      </trkpt>
      <trkpt lat="43.96331" lon="3.38054">
        <ele>833</ele>
        <time>2021-05-13T10:30:17Z</time>
      </trkpt>
      <trkpt lat="43.96336" lon="3.38048">
        <ele>834</ele>
        <time>2021-05-13T10:30:23Z</time>
      </trkpt>
      <trkpt lat="43.96344" lon="3.38025">
        <ele>836</ele>
        <time>2021-05-13T10:30:37Z</time>
      </trkpt>
      <trkpt lat="43.96343" lon="3.38001">
        <ele>837</ele>
        <time>2021-05-13T10:30:50Z</time>
      </trkpt>
      <trkpt lat="43.96346" lon="3.37981">
        <ele>837</ele>
        <time>2021-05-13T10:31:01Z</time>
      </trkpt>
      <trkpt lat="43.96347" lon="3.37965">
        <ele>839</ele>
        <time>2021-05-13T10:31:13Z</time>
      </trkpt>
      <trkpt lat="43.96356" lon="3.37948">
        <ele>838</ele>
        <time>2021-05-13T10:31:31Z</time>
      </trkpt>
      <trkpt lat="43.96374" lon="3.3792">
        <ele>837</ele>
        <time>2021-05-13T10:31:37Z</time>
      </trkpt>
      <trkpt lat="43.96391" lon="3.37871">
        <ele>835</ele>
        <time>2021-05-13T10:31:48Z</time>
      </trkpt>
      <trkpt lat="43.96421" lon="3.37863">
        <ele>834</ele>
        <time>2021-05-13T10:31:56Z</time>
      </trkpt>
      <trkpt lat="43.96447" lon="3.37849">
        <ele>833</ele>
        <time>2021-05-13T10:32:03Z</time>
      </trkpt>
      <trkpt lat="43.96453" lon="3.3783">
        <ele>833</ele>
        <time>2021-05-13T10:32:14Z</time>
      </trkpt>
      <trkpt lat="43.96449" lon="3.37814">
        <ele>835</ele>
        <time>2021-05-13T10:32:21Z</time>
      </trkpt>
      <trkpt lat="43.96456" lon="3.37807">
        <ele>836</ele>
        <time>2021-05-13T10:32:28Z</time>
      </trkpt>
      <trkpt lat="43.96457" lon="3.37798">
        <ele>837</ele>
        <time>2021-05-13T10:32:42Z</time>
      </trkpt>
      <trkpt lat="43.96462" lon="3.37791">
        <ele>835</ele>
        <time>2021-05-13T10:33:33Z</time>
      </trkpt>
      <trkpt lat="43.96469" lon="3.37767">
        <ele>835</ele>
        <time>2021-05-13T10:33:41Z</time>
      </trkpt>
      <trkpt lat="43.96473" lon="3.37756">
        <ele>835</ele>
        <time>2021-05-13T10:33:55Z</time>
      </trkpt>
      <trkpt lat="43.96475" lon="3.37737">
        <ele>835</ele>
        <time>2021-05-13T10:34:29Z</time>
      </trkpt>
      <trkpt lat="43.96476" lon="3.37734">
        <ele>835</ele>
        <time>2021-05-13T10:34:38Z</time>
      </trkpt>
      <trkpt lat="43.96476" lon="3.37727">
        <ele>836</ele>
        <time>2021-05-13T10:34:48Z</time>
      </trkpt>
      <trkpt lat="43.96481" lon="3.37697">
        <ele>836</ele>
        <time>2021-05-13T10:34:56Z</time>
      </trkpt>
      <trkpt lat="43.96488" lon="3.37684">
        <ele>836</ele>
        <time>2021-05-13T10:35:05Z</time>
      </trkpt>
      <trkpt lat="43.96498" lon="3.3767">
        <ele>837</ele>
        <time>2021-05-13T10:35:16Z</time>
      </trkpt>
      <trkpt lat="43.96513" lon="3.3765">
        <ele>838</ele>
        <time>2021-05-13T10:35:31Z</time>
      </trkpt>
      <trkpt lat="43.9652" lon="3.37643">
        <ele>839</ele>
        <time>2021-05-13T10:35:39Z</time>
      </trkpt>
      <trkpt lat="43.9653" lon="3.37637">
        <ele>840</ele>
        <time>2021-05-13T10:35:47Z</time>
      </trkpt>
      <trkpt lat="43.96539" lon="3.37628">
        <ele>842</ele>
        <time>2021-05-13T10:35:55Z</time>
      </trkpt>
      <trkpt lat="43.96559" lon="3.3761">
        <ele>843</ele>
        <time>2021-05-13T10:36:07Z</time>
      </trkpt>
      <trkpt lat="43.9659" lon="3.37575">
        <ele>844</ele>
        <time>2021-05-13T10:36:23Z</time>
      </trkpt>
      <trkpt lat="43.96606" lon="3.37556">
        <ele>845</ele>
        <time>2021-05-13T10:36:32Z</time>
      </trkpt>
      <trkpt lat="43.96625" lon="3.37545">
        <ele>844</ele>
        <time>2021-05-13T10:36:46Z</time>
      </trkpt>
      <trkpt lat="43.96636" lon="3.3754">
        <ele>843</ele>
        <time>2021-05-13T10:37:11Z</time>
      </trkpt>
      <trkpt lat="43.96656" lon="3.37523">
        <ele>841</ele>
        <time>2021-05-13T10:37:19Z</time>
      </trkpt>
      <trkpt lat="43.96667" lon="3.37511">
        <ele>840</ele>
        <time>2021-05-13T10:38:09Z</time>
      </trkpt>
      <trkpt lat="43.96682" lon="3.37501">
        <ele>836</ele>
        <time>2021-05-13T10:38:17Z</time>
      </trkpt>
      <trkpt lat="43.96698" lon="3.37493">
        <ele>835</ele>
        <time>2021-05-13T10:38:23Z</time>
      </trkpt>
      <trkpt lat="43.96728" lon="3.37476">
        <ele>833</ele>
        <time>2021-05-13T10:38:33Z</time>
      </trkpt>
      <trkpt lat="43.96765" lon="3.3745">
        <ele>831</ele>
        <time>2021-05-13T10:38:42Z</time>
      </trkpt>
      <trkpt lat="43.96802" lon="3.37422">
        <ele>829</ele>
        <time>2021-05-13T10:38:55Z</time>
      </trkpt>
      <trkpt lat="43.96833" lon="3.37389">
        <ele>824</ele>
        <time>2021-05-13T10:39:03Z</time>
      </trkpt>
      <trkpt lat="43.96851" lon="3.37362">
        <ele>819</ele>
        <time>2021-05-13T10:39:10Z</time>
      </trkpt>
      <trkpt lat="43.96869" lon="3.37336">
        <ele>818</ele>
        <time>2021-05-13T10:39:17Z</time>
      </trkpt>
      <trkpt lat="43.96871" lon="3.37319">
        <ele>817</ele>
        <time>2021-05-13T10:39:23Z</time>
      </trkpt>
      <trkpt lat="43.96886" lon="3.37283">
        <ele>816</ele>
        <time>2021-05-13T10:39:35Z</time>
      </trkpt>
      <trkpt lat="43.96896" lon="3.37262">
        <ele>816</ele>
        <time>2021-05-13T10:39:45Z</time>
      </trkpt>
      <trkpt lat="43.96904" lon="3.37243">
        <ele>817</ele>
        <time>2021-05-13T10:39:53Z</time>
      </trkpt>
      <trkpt lat="43.96916" lon="3.37222">
        <ele>818</ele>
        <time>2021-05-13T10:40:03Z</time>
      </trkpt>
      <trkpt lat="43.96926" lon="3.372">
        <ele>818</ele>
        <time>2021-05-13T10:40:12Z</time>
      </trkpt>
      <trkpt lat="43.96943" lon="3.37182">
        <ele>819</ele>
        <time>2021-05-13T10:40:22Z</time>
      </trkpt>
      <trkpt lat="43.96969" lon="3.37157">
        <ele>818</ele>
        <time>2021-05-13T10:40:32Z</time>
      </trkpt>
      <trkpt lat="43.96981" lon="3.37137">
        <ele>813</ele>
        <time>2021-05-13T10:40:38Z</time>
      </trkpt>
      <trkpt lat="43.97001" lon="3.37121">
        <ele>809</ele>
        <time>2021-05-13T10:40:43Z</time>
      </trkpt>
      <trkpt lat="43.97008" lon="3.37113">
        <ele>803</ele>
        <time>2021-05-13T10:40:49Z</time>
      </trkpt>
      <trkpt lat="43.9701" lon="3.37112">
        <ele>796</ele>
        <time>2021-05-13T10:41:38Z</time>
      </trkpt>
      <trkpt lat="43.97028" lon="3.37093">
        <ele>793</ele>
        <time>2021-05-13T10:41:45Z</time>
      </trkpt>
      <trkpt lat="43.97032" lon="3.37081">
        <ele>788</ele>
        <time>2021-05-13T10:41:49Z</time>
      </trkpt>
      <trkpt lat="43.97037" lon="3.37057">
        <ele>786</ele>
        <time>2021-05-13T10:42:00Z</time>
      </trkpt>
      <trkpt lat="43.97042" lon="3.37037">
        <ele>787</ele>
        <time>2021-05-13T10:42:06Z</time>
      </trkpt>
      <trkpt lat="43.97054" lon="3.36966">
        <ele>784</ele>
        <time>2021-05-13T10:42:16Z</time>
      </trkpt>
      <trkpt lat="43.97044" lon="3.36954">
        <ele>780</ele>
        <time>2021-05-13T10:42:22Z</time>
      </trkpt>
      <trkpt lat="43.97035" lon="3.36943">
        <ele>781</ele>
        <time>2021-05-13T10:42:46Z</time>
      </trkpt>
      <trkpt lat="43.97029" lon="3.36934">
        <ele>783</ele>
        <time>2021-05-13T10:43:01Z</time>
      </trkpt>
      <trkpt lat="43.97023" lon="3.36926">
        <ele>786</ele>
        <time>2021-05-13T10:43:19Z</time>
      </trkpt>
      <trkpt lat="43.97001" lon="3.36904">
        <ele>787</ele>
        <time>2021-05-13T10:43:30Z</time>
      </trkpt>
      <trkpt lat="43.9699" lon="3.36871">
        <ele>788</ele>
        <time>2021-05-13T10:43:44Z</time>
      </trkpt>
      <trkpt lat="43.96975" lon="3.3685">
        <ele>789</ele>
        <time>2021-05-13T10:43:56Z</time>
      </trkpt>
      <trkpt lat="43.96977" lon="3.36836">
        <ele>789</ele>
        <time>2021-05-13T10:44:14Z</time>
      </trkpt>
      <trkpt lat="43.96971" lon="3.36828">
        <ele>791</ele>
        <time>2021-05-13T10:45:33Z</time>
      </trkpt>
      <trkpt lat="43.96957" lon="3.36802">
        <ele>793</ele>
        <time>2021-05-13T10:45:45Z</time>
      </trkpt>
      <trkpt lat="43.96938" lon="3.36785">
        <ele>795</ele>
        <time>2021-05-13T10:45:54Z</time>
      </trkpt>
      <trkpt lat="43.96907" lon="3.3674">
        <ele>797</ele>
        <time>2021-05-13T10:46:12Z</time>
      </trkpt>
      <trkpt lat="43.96868" lon="3.36734">
        <ele>797</ele>
        <time>2021-05-13T10:46:29Z</time>
      </trkpt>
      <trkpt lat="43.96844" lon="3.36741">
        <ele>798</ele>
        <time>2021-05-13T10:46:40Z</time>
      </trkpt>
      <trkpt lat="43.96827" lon="3.36752">
        <ele>800</ele>
        <time>2021-05-13T10:46:49Z</time>
      </trkpt>
      <trkpt lat="43.96801" lon="3.36785">
        <ele>800</ele>
        <time>2021-05-13T10:47:00Z</time>
      </trkpt>
      <trkpt lat="43.96764" lon="3.36814">
        <ele>799</ele>
        <time>2021-05-13T10:47:16Z</time>
      </trkpt>
      <trkpt lat="43.9675" lon="3.36826">
        <ele>799</ele>
        <time>2021-05-13T10:47:29Z</time>
      </trkpt>
      <trkpt lat="43.96737" lon="3.3686">
        <ele>800</ele>
        <time>2021-05-13T10:47:37Z</time>
      </trkpt>
      <trkpt lat="43.96706" lon="3.36897">
        <ele>800</ele>
        <time>2021-05-13T10:47:52Z</time>
      </trkpt>
      <trkpt lat="43.967" lon="3.369">
        <ele>801</ele>
        <time>2021-05-13T10:48:08Z</time>
      </trkpt>
      <trkpt lat="43.96681" lon="3.36913">
        <ele>801</ele>
        <time>2021-05-13T10:48:23Z</time>
      </trkpt>
      <trkpt lat="43.9665" lon="3.36941">
        <ele>802</ele>
        <time>2021-05-13T10:48:35Z</time>
      </trkpt>
      <trkpt lat="43.96622" lon="3.36993">
        <ele>800</ele>
        <time>2021-05-13T10:48:45Z</time>
      </trkpt>
      <trkpt lat="43.96599" lon="3.36998">
        <ele>801</ele>
        <time>2021-05-13T10:48:58Z</time>
      </trkpt>
      <trkpt lat="43.96586" lon="3.37008">
        <ele>801</ele>
        <time>2021-05-13T10:49:07Z</time>
      </trkpt>
      <trkpt lat="43.96571" lon="3.37023">
        <ele>801</ele>
        <time>2021-05-13T10:49:17Z</time>
      </trkpt>
      <trkpt lat="43.96549" lon="3.37034">
        <ele>802</ele>
        <time>2021-05-13T10:49:27Z</time>
      </trkpt>
      <trkpt lat="43.96527" lon="3.37055">
        <ele>803</ele>
        <time>2021-05-13T10:49:37Z</time>
      </trkpt>
      <trkpt lat="43.96484" lon="3.37104">
        <ele>801</ele>
        <time>2021-05-13T10:49:49Z</time>
      </trkpt>
      <trkpt lat="43.9648" lon="3.37117">
        <ele>799</ele>
        <time>2021-05-13T10:49:53Z</time>
      </trkpt>
      <trkpt lat="43.96447" lon="3.37152">
        <ele>800</ele>
        <time>2021-05-13T10:50:08Z</time>
      </trkpt>
      <trkpt lat="43.96422" lon="3.37189">
        <ele>796</ele>
        <time>2021-05-13T10:50:16Z</time>
      </trkpt>
      <trkpt lat="43.9639" lon="3.3722">
        <ele>795</ele>
        <time>2021-05-13T10:50:28Z</time>
      </trkpt>
      <trkpt lat="43.96361" lon="3.37237">
        <ele>795</ele>
        <time>2021-05-13T10:50:38Z</time>
      </trkpt>
      <trkpt lat="43.96341" lon="3.37236">
        <ele>794</ele>
        <time>2021-05-13T10:50:46Z</time>
      </trkpt>
      <trkpt lat="43.9633" lon="3.37237">
        <ele>792</ele>
        <time>2021-05-13T10:50:52Z</time>
      </trkpt>
      <trkpt lat="43.96307" lon="3.37234">
        <ele>791</ele>
        <time>2021-05-13T10:51:15Z</time>
      </trkpt>
      <trkpt lat="43.96296" lon="3.37238">
        <ele>792</ele>
        <time>2021-05-13T10:51:24Z</time>
      </trkpt>
      <trkpt lat="43.96285" lon="3.37236">
        <ele>792</ele>
        <time>2021-05-13T10:51:40Z</time>
      </trkpt>
      <trkpt lat="43.96281" lon="3.37237">
        <ele>793</ele>
        <time>2021-05-13T10:51:47Z</time>
      </trkpt>
      <trkpt lat="43.96268" lon="3.37235">
        <ele>795</ele>
        <time>2021-05-13T10:51:59Z</time>
      </trkpt>
      <trkpt lat="43.96256" lon="3.37232">
        <ele>796</ele>
        <time>2021-05-13T10:52:19Z</time>
      </trkpt>
      <trkpt lat="43.96243" lon="3.37227">
        <ele>798</ele>
        <time>2021-05-13T10:52:35Z</time>
      </trkpt>
      <trkpt lat="43.96227" lon="3.37226">
        <ele>801</ele>
        <time>2021-05-13T10:52:55Z</time>
      </trkpt>
      <trkpt lat="43.96206" lon="3.37224">
        <ele>804</ele>
        <time>2021-05-13T10:53:12Z</time>
      </trkpt>
      <trkpt lat="43.96193" lon="3.37226">
        <ele>806</ele>
        <time>2021-05-13T10:53:24Z</time>
      </trkpt>
      <trkpt lat="43.96181" lon="3.37227">
        <ele>807</ele>
        <time>2021-05-13T10:53:32Z</time>
      </trkpt>
      <trkpt lat="43.96176" lon="3.37231">
        <ele>809</ele>
        <time>2021-05-13T10:53:46Z</time>
      </trkpt>
      <trkpt lat="43.96156" lon="3.37244">
        <ele>811</ele>
        <time>2021-05-13T10:54:03Z</time>
      </trkpt>
      <trkpt lat="43.96144" lon="3.37252">
        <ele>811</ele>
        <time>2021-05-13T10:54:11Z</time>
      </trkpt>
      <trkpt lat="43.96136" lon="3.37261">
        <ele>813</ele>
        <time>2021-05-13T10:54:21Z</time>
      </trkpt>
      <trkpt lat="43.9613" lon="3.37264">
        <ele>815</ele>
        <time>2021-05-13T10:54:33Z</time>
      </trkpt>
      <trkpt lat="43.96119" lon="3.37266">
        <ele>818</ele>
        <time>2021-05-13T10:54:50Z</time>
      </trkpt>
      <trkpt lat="43.96105" lon="3.37275">
        <ele>818</ele>
        <time>2021-05-13T10:54:59Z</time>
      </trkpt>
      <trkpt lat="43.96093" lon="3.37287">
        <ele>820</ele>
        <time>2021-05-13T10:55:10Z</time>
      </trkpt>
      <trkpt lat="43.96093" lon="3.3729">
        <ele>822</ele>
        <time>2021-05-13T10:55:16Z</time>
      </trkpt>
      <trkpt lat="43.96083" lon="3.37303">
        <ele>825</ele>
        <time>2021-05-13T10:55:31Z</time>
      </trkpt>
      <trkpt lat="43.96073" lon="3.37312">
        <ele>827</ele>
        <time>2021-05-13T10:55:50Z</time>
      </trkpt>
      <trkpt lat="43.96063" lon="3.37326">
        <ele>830</ele>
        <time>2021-05-13T10:55:59Z</time>
      </trkpt>
      <trkpt lat="43.96046" lon="3.37333">
        <ele>830</ele>
        <time>2021-05-13T10:57:36Z</time>
      </trkpt>
      <trkpt lat="43.96036" lon="3.37334">
        <ele>825</ele>
        <time>2021-05-13T10:57:52Z</time>
      </trkpt>
      <trkpt lat="43.96027" lon="3.37338">
        <ele>822</ele>
        <time>2021-05-13T10:58:07Z</time>
      </trkpt>
      <trkpt lat="43.96009" lon="3.37336">
        <ele>821</ele>
        <time>2021-05-13T10:58:14Z</time>
      </trkpt>
      <trkpt lat="43.95997" lon="3.37332">
        <ele>817</ele>
        <time>2021-05-13T10:58:21Z</time>
      </trkpt>
      <trkpt lat="43.95974" lon="3.37333">
        <ele>815</ele>
        <time>2021-05-13T10:59:13Z</time>
      </trkpt>
      <trkpt lat="43.95946" lon="3.37347">
        <ele>809</ele>
        <time>2021-05-13T10:59:20Z</time>
      </trkpt>
      <trkpt lat="43.95894" lon="3.37353">
        <ele>807</ele>
        <time>2021-05-13T10:59:31Z</time>
      </trkpt>
      <trkpt lat="43.95848" lon="3.3736">
        <ele>802</ele>
        <time>2021-05-13T10:59:38Z</time>
      </trkpt>
      <trkpt lat="43.95825" lon="3.37374">
        <ele>797</ele>
        <time>2021-05-13T10:59:42Z</time>
      </trkpt>
      <trkpt lat="43.95786" lon="3.37398">
        <ele>795</ele>
        <time>2021-05-13T10:59:50Z</time>
      </trkpt>
      <trkpt lat="43.95751" lon="3.3742">
        <ele>796</ele>
        <time>2021-05-13T11:00:03Z</time>
      </trkpt>
      <trkpt lat="43.95687" lon="3.37447">
        <ele>796</ele>
        <time>2021-05-13T11:00:22Z</time>
      </trkpt>
      <trkpt lat="43.95651" lon="3.37471">
        <ele>794</ele>
        <time>2021-05-13T11:00:29Z</time>
      </trkpt>
      <trkpt lat="43.95625" lon="3.37479">
        <ele>792</ele>
        <time>2021-05-13T11:00:34Z</time>
      </trkpt>
      <trkpt lat="43.95588" lon="3.3748">
        <ele>789</ele>
        <time>2021-05-13T11:00:40Z</time>
      </trkpt>
      <trkpt lat="43.95562" lon="3.37484">
        <ele>786</ele>
        <time>2021-05-13T11:00:46Z</time>
      </trkpt>
      <trkpt lat="43.9556" lon="3.37486">
        <ele>786</ele>
        <time>2021-05-13T11:00:55Z</time>
      </trkpt>
      <trkpt lat="43.95552" lon="3.37488">
        <ele>789</ele>
        <time>2021-05-13T11:01:10Z</time>
      </trkpt>
      <trkpt lat="43.95542" lon="3.37489">
        <ele>789</ele>
        <time>2021-05-13T11:01:22Z</time>
      </trkpt>
      <trkpt lat="43.95533" lon="3.37499">
        <ele>790</ele>
        <time>2021-05-13T11:01:35Z</time>
      </trkpt>
      <trkpt lat="43.95529" lon="3.37516">
        <ele>790</ele>
        <time>2021-05-13T11:01:43Z</time>
      </trkpt>
      <trkpt lat="43.95504" lon="3.37552">
        <ele>791</ele>
        <time>2021-05-13T11:02:02Z</time>
      </trkpt>
      <trkpt lat="43.95475" lon="3.3755">
        <ele>792</ele>
        <time>2021-05-13T11:02:10Z</time>
      </trkpt>
      <trkpt lat="43.95427" lon="3.37561">
        <ele>788</ele>
        <time>2021-05-13T11:02:19Z</time>
      </trkpt>
      <trkpt lat="43.95362" lon="3.37579">
        <ele>783</ele>
        <time>2021-05-13T11:02:29Z</time>
      </trkpt>
      <trkpt lat="43.9534" lon="3.37592">
        <ele>778</ele>
        <time>2021-05-13T11:02:35Z</time>
      </trkpt>
      <trkpt lat="43.95302" lon="3.37618">
        <ele>774</ele>
        <time>2021-05-13T11:02:43Z</time>
      </trkpt>
      <trkpt lat="43.95264" lon="3.37629">
        <ele>771</ele>
        <time>2021-05-13T11:02:49Z</time>
      </trkpt>
      <trkpt lat="43.95238" lon="3.3764">
        <ele>767</ele>
        <time>2021-05-13T11:02:54Z</time>
      </trkpt>
      <trkpt lat="43.95231" lon="3.37641">
        <ele>765</ele>
        <time>2021-05-13T11:03:05Z</time>
      </trkpt>
      <trkpt lat="43.95219" lon="3.3764">
        <ele>764</ele>
        <time>2021-05-13T11:03:53Z</time>
      </trkpt>
      <trkpt lat="43.95132" lon="3.37687">
        <ele>763</ele>
        <time>2021-05-13T11:04:18Z</time>
      </trkpt>
      <trkpt lat="43.95056" lon="3.37721">
        <ele>762</ele>
        <time>2021-05-13T11:04:37Z</time>
      </trkpt>
      <trkpt lat="43.95024" lon="3.37743">
        <ele>759</ele>
        <time>2021-05-13T11:04:43Z</time>
      </trkpt>
      <trkpt lat="43.94979" lon="3.37783">
        <ele>758</ele>
        <time>2021-05-13T11:04:54Z</time>
      </trkpt>
      <trkpt lat="43.94955" lon="3.37821">
        <ele>756</ele>
        <time>2021-05-13T11:05:01Z</time>
      </trkpt>
      <trkpt lat="43.94913" lon="3.37866">
        <ele>754</ele>
        <time>2021-05-13T11:05:12Z</time>
      </trkpt>
      <trkpt lat="43.94885" lon="3.37863">
        <ele>752</ele>
        <time>2021-05-13T11:05:19Z</time>
      </trkpt>
      <trkpt lat="43.94845" lon="3.37864">
        <ele>750</ele>
        <time>2021-05-13T11:05:27Z</time>
      </trkpt>
      <trkpt lat="43.94814" lon="3.3788">
        <ele>747</ele>
        <time>2021-05-13T11:05:34Z</time>
      </trkpt>
      <trkpt lat="43.94794" lon="3.37899">
        <ele>747</ele>
        <time>2021-05-13T11:05:40Z</time>
      </trkpt>
      <trkpt lat="43.94764" lon="3.37915">
        <ele>747</ele>
        <time>2021-05-13T11:05:48Z</time>
      </trkpt>
      <trkpt lat="43.94715" lon="3.3792">
        <ele>746</ele>
        <time>2021-05-13T11:06:03Z</time>
      </trkpt>
      <trkpt lat="43.94647" lon="3.37938">
        <ele>746</ele>
        <time>2021-05-13T11:06:23Z</time>
      </trkpt>
      <trkpt lat="43.9459" lon="3.37968">
        <ele>745</ele>
        <time>2021-05-13T11:06:40Z</time>
      </trkpt>
      <trkpt lat="43.94548" lon="3.37988">
        <ele>745</ele>
        <time>2021-05-13T11:06:55Z</time>
      </trkpt>
      <trkpt lat="43.94491" lon="3.3801">
        <ele>745</ele>
        <time>2021-05-13T11:07:15Z</time>
      </trkpt>
      <trkpt lat="43.94446" lon="3.38002">
        <ele>746</ele>
        <time>2021-05-13T11:07:32Z</time>
      </trkpt>
      <trkpt lat="43.94413" lon="3.38013">
        <ele>746</ele>
        <time>2021-05-13T11:07:45Z</time>
      </trkpt>
      <trkpt lat="43.94381" lon="3.38036">
        <ele>747</ele>
        <time>2021-05-13T11:07:59Z</time>
      </trkpt>
      <trkpt lat="43.94344" lon="3.3804">
        <ele>750</ele>
        <time>2021-05-13T11:08:14Z</time>
      </trkpt>
      <trkpt lat="43.9429" lon="3.38038">
        <ele>753</ele>
        <time>2021-05-13T11:08:37Z</time>
      </trkpt>
      <trkpt lat="43.94226" lon="3.38038">
        <ele>753</ele>
        <time>2021-05-13T11:09:01Z</time>
      </trkpt>
      <trkpt lat="43.94125" lon="3.3801">
        <ele>751</ele>
        <time>2021-05-13T11:09:21Z</time>
      </trkpt>
      <trkpt lat="43.94065" lon="3.38034">
        <ele>748</ele>
        <time>2021-05-13T11:09:29Z</time>
      </trkpt>
      <trkpt lat="43.9401" lon="3.3805">
        <ele>745</ele>
        <time>2021-05-13T11:09:37Z</time>
      </trkpt>
      <trkpt lat="43.93941" lon="3.38069">
        <ele>745</ele>
        <time>2021-05-13T11:09:50Z</time>
      </trkpt>
      <trkpt lat="43.93866" lon="3.38093">
        <ele>743</ele>
        <time>2021-05-13T11:10:02Z</time>
      </trkpt>
      <trkpt lat="43.93855" lon="3.38089">
        <ele>741</ele>
        <time>2021-05-13T11:10:09Z</time>
      </trkpt>
      <trkpt lat="43.93857" lon="3.3802">
        <ele>741</ele>
        <time>2021-05-13T11:10:23Z</time>
      </trkpt>
      <trkpt lat="43.93845" lon="3.37955">
        <ele>742</ele>
        <time>2021-05-13T11:10:35Z</time>
      </trkpt>
      <trkpt lat="43.93794" lon="3.37833">
        <ele>743</ele>
        <time>2021-05-13T11:10:59Z</time>
      </trkpt>
      <trkpt lat="43.93781" lon="3.37779">
        <ele>743</ele>
        <time>2021-05-13T11:11:13Z</time>
      </trkpt>
      <trkpt lat="43.93779" lon="3.377">
        <ele>744</ele>
        <time>2021-05-13T11:11:32Z</time>
      </trkpt>
      <trkpt lat="43.93784" lon="3.37634">
        <ele>746</ele>
        <time>2021-05-13T11:11:47Z</time>
      </trkpt>
      <trkpt lat="43.93789" lon="3.37605">
        <ele>747</ele>
        <time>2021-05-13T11:11:54Z</time>
      </trkpt>
      <trkpt lat="43.93795" lon="3.3754">
        <ele>748</ele>
        <time>2021-05-13T11:12:09Z</time>
      </trkpt>
      <trkpt lat="43.93793" lon="3.37493">
        <ele>748</ele>
        <time>2021-05-13T11:12:22Z</time>
      </trkpt>
      <trkpt lat="43.9376" lon="3.37429">
        <ele>746</ele>
        <time>2021-05-13T11:12:39Z</time>
      </trkpt>
      <trkpt lat="43.93754" lon="3.37367">
        <ele>745</ele>
        <time>2021-05-13T11:12:49Z</time>
      </trkpt>
      <trkpt lat="43.93757" lon="3.3731">
        <ele>744</ele>
        <time>2021-05-13T11:12:58Z</time>
      </trkpt>
      <trkpt lat="43.93764" lon="3.37258">
        <ele>742</ele>
        <time>2021-05-13T11:13:07Z</time>
      </trkpt>
      <trkpt lat="43.9377" lon="3.37205">
        <ele>740</ele>
        <time>2021-05-13T11:13:15Z</time>
      </trkpt>
      <trkpt lat="43.93774" lon="3.37154">
        <ele>737</ele>
        <time>2021-05-13T11:13:24Z</time>
      </trkpt>
      <trkpt lat="43.93782" lon="3.37072">
        <ele>736</ele>
        <time>2021-05-13T11:13:36Z</time>
      </trkpt>
      <trkpt lat="43.93787" lon="3.3704">
        <ele>735</ele>
        <time>2021-05-13T11:13:50Z</time>
      </trkpt>
      <trkpt lat="43.93786" lon="3.37032">
        <ele>734</ele>
        <time>2021-05-13T11:14:22Z</time>
      </trkpt>
      <trkpt lat="43.93781" lon="3.36953">
        <ele>734</ele>
        <time>2021-05-13T11:16:21Z</time>
      </trkpt>
      <trkpt lat="43.9376" lon="3.36911">
        <ele>733</ele>
        <time>2021-05-13T11:16:29Z</time>
      </trkpt>
      <trkpt lat="43.93736" lon="3.36871">
        <ele>732</ele>
        <time>2021-05-13T11:16:37Z</time>
      </trkpt>
      <trkpt lat="43.93713" lon="3.36826">
        <ele>732</ele>
        <time>2021-05-13T11:16:53Z</time>
      </trkpt>
      <trkpt lat="43.93701" lon="3.36761">
        <ele>731</ele>
        <time>2021-05-13T11:17:15Z</time>
      </trkpt>
      <trkpt lat="43.93695" lon="3.36718">
        <ele>730</ele>
        <time>2021-05-13T11:17:24Z</time>
      </trkpt>
      <trkpt lat="43.93686" lon="3.36652">
        <ele>729</ele>
        <time>2021-05-13T11:17:33Z</time>
      </trkpt>
      <trkpt lat="43.93692" lon="3.36602">
        <ele>727</ele>
        <time>2021-05-13T11:17:42Z</time>
      </trkpt>
      <trkpt lat="43.93701" lon="3.36521">
        <ele>729</ele>
        <time>2021-05-13T11:18:03Z</time>
      </trkpt>
      <trkpt lat="43.93687" lon="3.36434">
        <ele>728</ele>
        <time>2021-05-13T11:18:20Z</time>
      </trkpt>
      <trkpt lat="43.93691" lon="3.36413">
        <ele>727</ele>
        <time>2021-05-13T11:18:24Z</time>
      </trkpt>
      <trkpt lat="43.93695" lon="3.3636">
        <ele>726</ele>
        <time>2021-05-13T11:18:36Z</time>
      </trkpt>
      <trkpt lat="43.93678" lon="3.36301">
        <ele>722</ele>
        <time>2021-05-13T11:18:43Z</time>
      </trkpt>
      <trkpt lat="43.93675" lon="3.36245">
        <ele>717</ele>
        <time>2021-05-13T11:18:50Z</time>
      </trkpt>
      <trkpt lat="43.93673" lon="3.36204">
        <ele>714</ele>
        <time>2021-05-13T11:18:57Z</time>
      </trkpt>
      <trkpt lat="43.93691" lon="3.36099">
        <ele>712</ele>
        <time>2021-05-13T11:19:13Z</time>
      </trkpt>
      <trkpt lat="43.937" lon="3.36011">
        <ele>710</ele>
        <time>2021-05-13T11:19:27Z</time>
      </trkpt>
      <trkpt lat="43.93702" lon="3.35955">
        <ele>708</ele>
        <time>2021-05-13T11:19:35Z</time>
      </trkpt>
      <trkpt lat="43.93719" lon="3.35902">
        <ele>704</ele>
        <time>2021-05-13T11:19:42Z</time>
      </trkpt>
      <trkpt lat="43.93722" lon="3.35868">
        <ele>702</ele>
        <time>2021-05-13T11:19:47Z</time>
      </trkpt>
      <trkpt lat="43.93718" lon="3.35807">
        <ele>700</ele>
        <time>2021-05-13T11:19:56Z</time>
      </trkpt>
      <trkpt lat="43.93712" lon="3.35745">
        <ele>698</ele>
        <time>2021-05-13T11:20:05Z</time>
      </trkpt>
      <trkpt lat="43.93691" lon="3.35721">
        <ele>694</ele>
        <time>2021-05-13T11:20:10Z</time>
      </trkpt>
      <trkpt lat="43.9365" lon="3.35687">
        <ele>691</ele>
        <time>2021-05-13T11:20:19Z</time>
      </trkpt>
      <trkpt lat="43.93629" lon="3.3564">
        <ele>689</ele>
        <time>2021-05-13T11:20:27Z</time>
      </trkpt>
      <trkpt lat="43.93619" lon="3.35593">
        <ele>687</ele>
        <time>2021-05-13T11:20:35Z</time>
      </trkpt>
      <trkpt lat="43.93618" lon="3.35548">
        <ele>686</ele>
        <time>2021-05-13T11:20:42Z</time>
      </trkpt>
      <trkpt lat="43.93605" lon="3.35512">
        <ele>686</ele>
        <time>2021-05-13T11:20:49Z</time>
      </trkpt>
      <trkpt lat="43.93591" lon="3.35462">
        <ele>682</ele>
        <time>2021-05-13T11:20:59Z</time>
      </trkpt>
      <trkpt lat="43.93584" lon="3.35426">
        <ele>679</ele>
        <time>2021-05-13T11:21:06Z</time>
      </trkpt>
      <trkpt lat="43.93587" lon="3.35407">
        <ele>677</ele>
        <time>2021-05-13T11:21:11Z</time>
      </trkpt>
      <trkpt lat="43.93596" lon="3.35376">
        <ele>673</ele>
        <time>2021-05-13T11:21:17Z</time>
      </trkpt>
      <trkpt lat="43.93602" lon="3.35343">
        <ele>671</ele>
        <time>2021-05-13T11:21:24Z</time>
      </trkpt>
      <trkpt lat="43.93598" lon="3.35328">
        <ele>668</ele>
        <time>2021-05-13T11:21:28Z</time>
      </trkpt>
      <trkpt lat="43.93595" lon="3.35308">
        <ele>666</ele>
        <time>2021-05-13T11:21:34Z</time>
      </trkpt>
      <trkpt lat="43.93584" lon="3.35288">
        <ele>662</ele>
        <time>2021-05-13T11:22:44Z</time>
      </trkpt>
      <trkpt lat="43.93558" lon="3.35263">
        <ele>661</ele>
        <time>2021-05-13T11:22:51Z</time>
      </trkpt>
      <trkpt lat="43.93537" lon="3.35251">
        <ele>661</ele>
        <time>2021-05-13T11:22:59Z</time>
      </trkpt>
      <trkpt lat="43.93507" lon="3.35236">
        <ele>661</ele>
        <time>2021-05-13T11:23:18Z</time>
      </trkpt>
      <trkpt lat="43.93478" lon="3.35221">
        <ele>661</ele>
        <time>2021-05-13T11:23:44Z</time>
      </trkpt>
      <trkpt lat="43.93457" lon="3.35216">
        <ele>661</ele>
        <time>2021-05-13T11:24:07Z</time>
      </trkpt>
      <trkpt lat="43.93446" lon="3.35205">
        <ele>661</ele>
        <time>2021-05-13T11:24:26Z</time>
      </trkpt>
      <trkpt lat="43.93444" lon="3.352">
        <ele>665</ele>
        <time>2021-05-13T11:24:48Z</time>
      </trkpt>
      <trkpt lat="43.93444" lon="3.35184">
        <ele>670</ele>
        <time>2021-05-13T11:25:23Z</time>
      </trkpt>
      <trkpt lat="43.93448" lon="3.35147">
        <ele>670</ele>
        <time>2021-05-13T11:25:34Z</time>
      </trkpt>
      <trkpt lat="43.93448" lon="3.35121">
        <ele>671</ele>
        <time>2021-05-13T11:28:45Z</time>
      </trkpt>
      <trkpt lat="43.93456" lon="3.35099">
        <ele>672</ele>
        <time>2021-05-13T11:28:53Z</time>
      </trkpt>
      <trkpt lat="43.93457" lon="3.35083">
        <ele>673</ele>
        <time>2021-05-13T11:29:00Z</time>
      </trkpt>
      <trkpt lat="43.93452" lon="3.35065">
        <ele>674</ele>
        <time>2021-05-13T11:29:08Z</time>
      </trkpt>
      <trkpt lat="43.9343" lon="3.3505">
        <ele>671</ele>
        <time>2021-05-13T11:29:18Z</time>
      </trkpt>
      <trkpt lat="43.93416" lon="3.35046">
        <ele>669</ele>
        <time>2021-05-13T11:29:24Z</time>
      </trkpt>
      <trkpt lat="43.93404" lon="3.35044">
        <ele>666</ele>
        <time>2021-05-13T11:29:30Z</time>
      </trkpt>
      <trkpt lat="43.93364" lon="3.35055">
        <ele>663</ele>
        <time>2021-05-13T11:29:44Z</time>
      </trkpt>
      <trkpt lat="43.93309" lon="3.35057">
        <ele>663</ele>
        <time>2021-05-13T11:30:01Z</time>
      </trkpt>
      <trkpt lat="43.93276" lon="3.35048">
        <ele>659</ele>
        <time>2021-05-13T11:30:12Z</time>
      </trkpt>
      <trkpt lat="43.93252" lon="3.35054">
        <ele>658</ele>
        <time>2021-05-13T11:30:28Z</time>
      </trkpt>
      <trkpt lat="43.93241" lon="3.35058">
        <ele>657</ele>
        <time>2021-05-13T11:30:58Z</time>
      </trkpt>
      <trkpt lat="43.93223" lon="3.35065">
        <ele>657</ele>
        <time>2021-05-13T11:31:10Z</time>
      </trkpt>
      <trkpt lat="43.93206" lon="3.35071">
        <ele>657</ele>
        <time>2021-05-13T11:31:24Z</time>
      </trkpt>
      <trkpt lat="43.93198" lon="3.35077">
        <ele>657</ele>
        <time>2021-05-13T11:31:33Z</time>
      </trkpt>
      <trkpt lat="43.93171" lon="3.351">
        <ele>657</ele>
        <time>2021-05-13T11:31:45Z</time>
      </trkpt>
      <trkpt lat="43.93167" lon="3.35103">
        <ele>656</ele>
        <time>2021-05-13T11:31:54Z</time>
      </trkpt>
      <trkpt lat="43.93147" lon="3.35125">
        <ele>656</ele>
        <time>2021-05-13T11:32:16Z</time>
      </trkpt>
      <trkpt lat="43.93143" lon="3.3513">
        <ele>656</ele>
        <time>2021-05-13T11:32:22Z</time>
      </trkpt>
      <trkpt lat="43.93131" lon="3.35146">
        <ele>656</ele>
        <time>2021-05-13T11:32:30Z</time>
      </trkpt>
      <trkpt lat="43.93124" lon="3.35166">
        <ele>656</ele>
        <time>2021-05-13T11:32:38Z</time>
      </trkpt>
      <trkpt lat="43.93123" lon="3.35197">
        <ele>657</ele>
        <time>2021-05-13T11:33:21Z</time>
      </trkpt>
      <trkpt lat="43.93127" lon="3.35229">
        <ele>657</ele>
        <time>2021-05-13T11:33:31Z</time>
      </trkpt>
      <trkpt lat="43.93128" lon="3.35246">
        <ele>656</ele>
        <time>2021-05-13T11:33:38Z</time>
      </trkpt>
      <trkpt lat="43.93123" lon="3.35281">
        <ele>658</ele>
        <time>2021-05-13T11:33:56Z</time>
      </trkpt>
      <trkpt lat="43.93093" lon="3.35341">
        <ele>658</ele>
        <time>2021-05-13T11:34:17Z</time>
      </trkpt>
      <trkpt lat="43.93071" lon="3.35367">
        <ele>657</ele>
        <time>2021-05-13T11:34:27Z</time>
      </trkpt>
      <trkpt lat="43.93039" lon="3.3539">
        <ele>657</ele>
        <time>2021-05-13T11:34:37Z</time>
      </trkpt>
      <trkpt lat="43.9302" lon="3.35373">
        <ele>657</ele>
        <time>2021-05-13T11:34:45Z</time>
      </trkpt>
      <trkpt lat="43.92996" lon="3.35303">
        <ele>656</ele>
        <time>2021-05-13T11:35:06Z</time>
      </trkpt>
      <trkpt lat="43.92977" lon="3.35249">
        <ele>656</ele>
        <time>2021-05-13T11:35:18Z</time>
      </trkpt>
      <trkpt lat="43.92955" lon="3.35191">
        <ele>654</ele>
        <time>2021-05-13T11:35:26Z</time>
      </trkpt>
      <trkpt lat="43.92941" lon="3.35185">
        <ele>653</ele>
        <time>2021-05-13T11:35:36Z</time>
      </trkpt>
      <trkpt lat="43.92914" lon="3.35179">
        <ele>651</ele>
        <time>2021-05-13T11:35:53Z</time>
      </trkpt>
      <trkpt lat="43.92902" lon="3.35182">
        <ele>651</ele>
        <time>2021-05-13T11:35:59Z</time>
      </trkpt>
      <trkpt lat="43.92871" lon="3.35184">
        <ele>651</ele>
        <time>2021-05-13T11:36:12Z</time>
      </trkpt>
      <trkpt lat="43.92858" lon="3.35186">
        <ele>651</ele>
        <time>2021-05-13T11:36:19Z</time>
      </trkpt>
      <trkpt lat="43.92806" lon="3.35202">
        <ele>649</ele>
        <time>2021-05-13T11:36:39Z</time>
      </trkpt>
      <trkpt lat="43.92792" lon="3.35203">
        <ele>649</ele>
        <time>2021-05-13T11:36:48Z</time>
      </trkpt>
      <trkpt lat="43.92776" lon="3.35219">
        <ele>650</ele>
        <time>2021-05-13T11:37:00Z</time>
      </trkpt>
      <trkpt lat="43.92773" lon="3.35223">
        <ele>650</ele>
        <time>2021-05-13T11:37:17Z</time>
      </trkpt>
      <trkpt lat="43.92766" lon="3.35239">
        <ele>650</ele>
        <time>2021-05-13T11:37:24Z</time>
      </trkpt>
      <trkpt lat="43.9276" lon="3.35252">
        <ele>650</ele>
        <time>2021-05-13T11:37:34Z</time>
      </trkpt>
      <trkpt lat="43.92755" lon="3.35256">
        <ele>651</ele>
        <time>2021-05-13T11:37:45Z</time>
      </trkpt>
      <trkpt lat="43.92741" lon="3.35281">
        <ele>653</ele>
        <time>2021-05-13T11:37:56Z</time>
      </trkpt>
      <trkpt lat="43.92684" lon="3.35302">
        <ele>652</ele>
        <time>2021-05-13T11:38:18Z</time>
      </trkpt>
      <trkpt lat="43.92613" lon="3.3532">
        <ele>651</ele>
        <time>2021-05-13T11:38:37Z</time>
      </trkpt>
      <trkpt lat="43.92585" lon="3.35335">
        <ele>650</ele>
        <time>2021-05-13T11:38:45Z</time>
      </trkpt>
      <trkpt lat="43.92547" lon="3.35377">
        <ele>648</ele>
        <time>2021-05-13T11:38:59Z</time>
      </trkpt>
      <trkpt lat="43.92527" lon="3.35404">
        <ele>648</ele>
        <time>2021-05-13T11:39:12Z</time>
      </trkpt>
      <trkpt lat="43.92501" lon="3.35418">
        <ele>648</ele>
        <time>2021-05-13T11:39:25Z</time>
      </trkpt>
      <trkpt lat="43.9248" lon="3.35421">
        <ele>649</ele>
        <time>2021-05-13T11:39:40Z</time>
      </trkpt>
      <trkpt lat="43.92464" lon="3.35419">
        <ele>651</ele>
        <time>2021-05-13T11:39:51Z</time>
      </trkpt>
      <trkpt lat="43.92435" lon="3.35407">
        <ele>652</ele>
        <time>2021-05-13T11:40:06Z</time>
      </trkpt>
      <trkpt lat="43.92401" lon="3.3539">
        <ele>653</ele>
        <time>2021-05-13T11:40:20Z</time>
      </trkpt>
      <trkpt lat="43.92385" lon="3.35391">
        <ele>653</ele>
        <time>2021-05-13T11:40:27Z</time>
      </trkpt>
      <trkpt lat="43.92365" lon="3.35399">
        <ele>655</ele>
        <time>2021-05-13T11:40:39Z</time>
      </trkpt>
      <trkpt lat="43.92349" lon="3.35399">
        <ele>657</ele>
        <time>2021-05-13T11:40:48Z</time>
      </trkpt>
      <trkpt lat="43.92346" lon="3.35392">
        <ele>658</ele>
        <time>2021-05-13T11:40:53Z</time>
      </trkpt>
      <trkpt lat="43.92344" lon="3.35363">
        <ele>660</ele>
        <time>2021-05-13T11:41:04Z</time>
      </trkpt>
      <trkpt lat="43.92341" lon="3.35341">
        <ele>661</ele>
        <time>2021-05-13T11:41:13Z</time>
      </trkpt>
      <trkpt lat="43.92337" lon="3.35308">
        <ele>662</ele>
        <time>2021-05-13T11:41:28Z</time>
      </trkpt>
      <trkpt lat="43.92318" lon="3.35259">
        <ele>665</ele>
        <time>2021-05-13T11:41:48Z</time>
      </trkpt>
      <trkpt lat="43.92307" lon="3.35244">
        <ele>667</ele>
        <time>2021-05-13T11:41:56Z</time>
      </trkpt>
      <trkpt lat="43.92286" lon="3.35231">
        <ele>669</ele>
        <time>2021-05-13T11:42:08Z</time>
      </trkpt>
      <trkpt lat="43.92262" lon="3.35222">
        <ele>671</ele>
        <time>2021-05-13T11:42:22Z</time>
      </trkpt>
      <trkpt lat="43.9224" lon="3.3523">
        <ele>673</ele>
        <time>2021-05-13T11:42:35Z</time>
      </trkpt>
      <trkpt lat="43.92215" lon="3.3524">
        <ele>675</ele>
        <time>2021-05-13T11:42:49Z</time>
      </trkpt>
      <trkpt lat="43.92199" lon="3.3525">
        <ele>677</ele>
        <time>2021-05-13T11:42:58Z</time>
      </trkpt>
      <trkpt lat="43.92187" lon="3.35259">
        <ele>678</ele>
        <time>2021-05-13T11:43:05Z</time>
      </trkpt>
      <trkpt lat="43.92178" lon="3.35272">
        <ele>679</ele>
        <time>2021-05-13T11:43:12Z</time>
      </trkpt>
      <trkpt lat="43.92167" lon="3.3529">
        <ele>680</ele>
        <time>2021-05-13T11:43:21Z</time>
      </trkpt>
      <trkpt lat="43.92149" lon="3.35318">
        <ele>682</ele>
        <time>2021-05-13T11:43:37Z</time>
      </trkpt>
      <trkpt lat="43.92136" lon="3.35342">
        <ele>683</ele>
        <time>2021-05-13T11:43:46Z</time>
      </trkpt>
      <trkpt lat="43.92131" lon="3.3535">
        <ele>685</ele>
        <time>2021-05-13T11:43:53Z</time>
      </trkpt>
      <trkpt lat="43.92119" lon="3.35378">
        <ele>686</ele>
        <time>2021-05-13T11:44:06Z</time>
      </trkpt>
      <trkpt lat="43.92099" lon="3.35413">
        <ele>689</ele>
        <time>2021-05-13T11:44:24Z</time>
      </trkpt>
      <trkpt lat="43.92077" lon="3.35442">
        <ele>691</ele>
        <time>2021-05-13T11:44:38Z</time>
      </trkpt>
      <trkpt lat="43.9206" lon="3.35483">
        <ele>693</ele>
        <time>2021-05-13T11:44:55Z</time>
      </trkpt>
      <trkpt lat="43.92047" lon="3.35503">
        <ele>695</ele>
        <time>2021-05-13T11:45:07Z</time>
      </trkpt>
      <trkpt lat="43.92025" lon="3.3549">
        <ele>697</ele>
        <time>2021-05-13T11:45:20Z</time>
      </trkpt>
      <trkpt lat="43.91996" lon="3.35465">
        <ele>699</ele>
        <time>2021-05-13T11:45:36Z</time>
      </trkpt>
      <trkpt lat="43.91961" lon="3.35447">
        <ele>701</ele>
        <time>2021-05-13T11:45:52Z</time>
      </trkpt>
      <trkpt lat="43.91922" lon="3.35426">
        <ele>703</ele>
        <time>2021-05-13T11:46:10Z</time>
      </trkpt>
      <trkpt lat="43.91912" lon="3.35383">
        <ele>705</ele>
        <time>2021-05-13T11:46:25Z</time>
      </trkpt>
      <trkpt lat="43.91928" lon="3.35336">
        <ele>706</ele>
        <time>2021-05-13T11:46:40Z</time>
      </trkpt>
      <trkpt lat="43.91958" lon="3.35251">
        <ele>708</ele>
        <time>2021-05-13T11:47:03Z</time>
      </trkpt>
      <trkpt lat="43.91958" lon="3.3517">
        <ele>709</ele>
        <time>2021-05-13T11:47:23Z</time>
      </trkpt>
      <trkpt lat="43.91941" lon="3.35112">
        <ele>710</ele>
        <time>2021-05-13T11:47:35Z</time>
      </trkpt>
      <trkpt lat="43.91929" lon="3.35051">
        <ele>712</ele>
        <time>2021-05-13T11:47:48Z</time>
      </trkpt>
      <trkpt lat="43.91923" lon="3.34979">
        <ele>713</ele>
        <time>2021-05-13T11:48:05Z</time>
      </trkpt>
      <trkpt lat="43.91934" lon="3.34885">
        <ele>715</ele>
        <time>2021-05-13T11:48:30Z</time>
      </trkpt>
      <trkpt lat="43.91932" lon="3.34839">
        <ele>718</ele>
        <time>2021-05-13T11:48:47Z</time>
      </trkpt>
      <trkpt lat="43.9193" lon="3.34828">
        <ele>722</ele>
        <time>2021-05-13T12:10:09Z</time>
      </trkpt>
      <trkpt lat="43.91939" lon="3.34799">
        <ele>724</ele>
        <time>2021-05-13T12:11:09Z</time>
      </trkpt>
      <trkpt lat="43.91945" lon="3.34779">
        <ele>725</ele>
        <time>2021-05-13T12:11:19Z</time>
      </trkpt>
      <trkpt lat="43.91951" lon="3.34746">
        <ele>726</ele>
        <time>2021-05-13T12:11:31Z</time>
      </trkpt>
      <trkpt lat="43.91943" lon="3.34692">
        <ele>727</ele>
        <time>2021-05-13T12:11:47Z</time>
      </trkpt>
      <trkpt lat="43.91913" lon="3.34596">
        <ele>728</ele>
        <time>2021-05-13T12:12:16Z</time>
      </trkpt>
      <trkpt lat="43.91859" lon="3.34514">
        <ele>728</ele>
        <time>2021-05-13T12:12:42Z</time>
      </trkpt>
      <trkpt lat="43.91829" lon="3.3447">
        <ele>729</ele>
        <time>2021-05-13T12:12:59Z</time>
      </trkpt>
      <trkpt lat="43.91773" lon="3.34414">
        <ele>730</ele>
        <time>2021-05-13T12:13:22Z</time>
      </trkpt>
      <trkpt lat="43.9173" lon="3.3438">
        <ele>731</ele>
        <time>2021-05-13T12:13:38Z</time>
      </trkpt>
      <trkpt lat="43.91672" lon="3.3433">
        <ele>732</ele>
        <time>2021-05-13T12:14:01Z</time>
      </trkpt>
      <trkpt lat="43.91642" lon="3.34252">
        <ele>733</ele>
        <time>2021-05-13T12:14:21Z</time>
      </trkpt>
      <trkpt lat="43.9163" lon="3.34195">
        <ele>735</ele>
        <time>2021-05-13T12:14:34Z</time>
      </trkpt>
      <trkpt lat="43.91601" lon="3.34141">
        <ele>736</ele>
        <time>2021-05-13T12:14:49Z</time>
      </trkpt>
      <trkpt lat="43.91573" lon="3.34074">
        <ele>738</ele>
        <time>2021-05-13T12:15:07Z</time>
      </trkpt>
      <trkpt lat="43.91525" lon="3.34021">
        <ele>739</ele>
        <time>2021-05-13T12:15:25Z</time>
      </trkpt>
      <trkpt lat="43.91479" lon="3.33928">
        <ele>740</ele>
        <time>2021-05-13T12:15:49Z</time>
      </trkpt>
      <trkpt lat="43.91433" lon="3.33843">
        <ele>741</ele>
        <time>2021-05-13T12:16:11Z</time>
      </trkpt>
      <trkpt lat="43.91373" lon="3.33773">
        <ele>741</ele>
        <time>2021-05-13T12:16:33Z</time>
      </trkpt>
      <trkpt lat="43.91357" lon="3.33689">
        <ele>743</ele>
        <time>2021-05-13T12:16:51Z</time>
      </trkpt>
      <trkpt lat="43.91345" lon="3.33626">
        <ele>744</ele>
        <time>2021-05-13T12:17:07Z</time>
      </trkpt>
      <trkpt lat="43.91326" lon="3.33538">
        <ele>746</ele>
        <time>2021-05-13T12:17:26Z</time>
      </trkpt>
      <trkpt lat="43.9132" lon="3.33452">
        <ele>747</ele>
        <time>2021-05-13T12:17:45Z</time>
      </trkpt>
      <trkpt lat="43.91331" lon="3.33386">
        <ele>750</ele>
        <time>2021-05-13T12:18:03Z</time>
      </trkpt>
      <trkpt lat="43.91339" lon="3.33316">
        <ele>752</ele>
        <time>2021-05-13T12:18:22Z</time>
      </trkpt>
      <trkpt lat="43.91333" lon="3.3324">
        <ele>754</ele>
        <time>2021-05-13T12:18:41Z</time>
      </trkpt>
      <trkpt lat="43.91318" lon="3.33177">
        <ele>755</ele>
        <time>2021-05-13T12:18:57Z</time>
      </trkpt>
      <trkpt lat="43.9127" lon="3.33047">
        <ele>756</ele>
        <time>2021-05-13T12:19:30Z</time>
      </trkpt>
      <trkpt lat="43.91279" lon="3.32934">
        <ele>756</ele>
        <time>2021-05-13T12:19:52Z</time>
      </trkpt>
      <trkpt lat="43.91267" lon="3.32861">
        <ele>757</ele>
        <time>2021-05-13T12:20:07Z</time>
      </trkpt>
      <trkpt lat="43.9125" lon="3.3274">
        <ele>759</ele>
        <time>2021-05-13T12:20:33Z</time>
      </trkpt>
      <trkpt lat="43.91255" lon="3.32627">
        <ele>763</ele>
        <time>2021-05-13T12:21:02Z</time>
      </trkpt>
      <trkpt lat="43.91249" lon="3.32585">
        <ele>762</ele>
        <time>2021-05-13T12:23:49Z</time>
      </trkpt>
      <trkpt lat="43.91218" lon="3.32538">
        <ele>763</ele>
        <time>2021-05-13T12:24:05Z</time>
      </trkpt>
      <trkpt lat="43.9119" lon="3.32469">
        <ele>764</ele>
        <time>2021-05-13T12:24:20Z</time>
      </trkpt>
      <trkpt lat="43.91175" lon="3.32397">
        <ele>762</ele>
        <time>2021-05-13T12:24:33Z</time>
      </trkpt>
      <trkpt lat="43.91128" lon="3.32274">
        <ele>763</ele>
        <time>2021-05-13T12:24:59Z</time>
      </trkpt>
      <trkpt lat="43.91058" lon="3.32182">
        <ele>764</ele>
        <time>2021-05-13T12:25:25Z</time>
      </trkpt>
      <trkpt lat="43.91011" lon="3.32122">
        <ele>766</ele>
        <time>2021-05-13T12:25:43Z</time>
      </trkpt>
      <trkpt lat="43.91004" lon="3.32059">
        <ele>768</ele>
        <time>2021-05-13T12:25:59Z</time>
      </trkpt>
      <trkpt lat="43.91062" lon="3.31941">
        <ele>769</ele>
        <time>2021-05-13T12:26:28Z</time>
      </trkpt>
      <trkpt lat="43.91095" lon="3.31877">
        <ele>770</ele>
        <time>2021-05-13T12:26:44Z</time>
      </trkpt>
      <trkpt lat="43.91111" lon="3.31837">
        <ele>768</ele>
        <time>2021-05-13T12:26:57Z</time>
      </trkpt>
      <trkpt lat="43.91133" lon="3.31785">
        <ele>769</ele>
        <time>2021-05-13T12:27:17Z</time>
      </trkpt>
      <trkpt lat="43.91138" lon="3.3177">
        <ele>768</ele>
        <time>2021-05-13T12:28:37Z</time>
      </trkpt>
      <trkpt lat="43.91151" lon="3.31744">
        <ele>768</ele>
        <time>2021-05-13T12:28:50Z</time>
      </trkpt>
      <trkpt lat="43.91174" lon="3.3171">
        <ele>770</ele>
        <time>2021-05-13T12:29:10Z</time>
      </trkpt>
      <trkpt lat="43.91184" lon="3.3171">
        <ele>771</ele>
        <time>2021-05-13T12:29:24Z</time>
      </trkpt>
      <trkpt lat="43.91197" lon="3.31725">
        <ele>772</ele>
        <time>2021-05-13T12:29:36Z</time>
      </trkpt>
      <trkpt lat="43.912" lon="3.31738">
        <ele>773</ele>
        <time>2021-05-13T12:29:45Z</time>
      </trkpt>
      <trkpt lat="43.91216" lon="3.31737">
        <ele>774</ele>
        <time>2021-05-13T12:29:55Z</time>
      </trkpt>
      <trkpt lat="43.91225" lon="3.31737">
        <ele>774</ele>
        <time>2021-05-13T12:29:59Z</time>
      </trkpt>
      <trkpt lat="43.91233" lon="3.31755">
        <ele>776</ele>
        <time>2021-05-13T12:30:26Z</time>
      </trkpt>
      <trkpt lat="43.91263" lon="3.31747">
        <ele>776</ele>
        <time>2021-05-13T12:30:34Z</time>
      </trkpt>
      <trkpt lat="43.91273" lon="3.31727">
        <ele>775</ele>
        <time>2021-05-13T12:30:43Z</time>
      </trkpt>
      <trkpt lat="43.91278" lon="3.31699">
        <ele>775</ele>
        <time>2021-05-13T12:30:55Z</time>
      </trkpt>
      <trkpt lat="43.91291" lon="3.31684">
        <ele>776</ele>
        <time>2021-05-13T12:31:08Z</time>
      </trkpt>
      <trkpt lat="43.91296" lon="3.31679">
        <ele>777</ele>
        <time>2021-05-13T12:31:17Z</time>
      </trkpt>
      <trkpt lat="43.91303" lon="3.31674">
        <ele>777</ele>
        <time>2021-05-13T12:31:24Z</time>
      </trkpt>
      <trkpt lat="43.913" lon="3.3165">
        <ele>778</ele>
        <time>2021-05-13T12:31:36Z</time>
      </trkpt>
      <trkpt lat="43.91287" lon="3.31621">
        <ele>778</ele>
        <time>2021-05-13T12:31:51Z</time>
      </trkpt>
      <trkpt lat="43.91272" lon="3.31601">
        <ele>778</ele>
        <time>2021-05-13T12:43:39Z</time>
      </trkpt>
      <trkpt lat="43.9125" lon="3.31618">
        <ele>777</ele>
        <time>2021-05-13T12:43:48Z</time>
      </trkpt>
      <trkpt lat="43.91233" lon="3.31615">
        <ele>776</ele>
        <time>2021-05-13T12:43:56Z</time>
      </trkpt>
      <trkpt lat="43.91217" lon="3.31619">
        <ele>775</ele>
        <time>2021-05-13T12:44:02Z</time>
      </trkpt>
      <trkpt lat="43.91194" lon="3.31669">
        <ele>773</ele>
        <time>2021-05-13T12:44:13Z</time>
      </trkpt>
      <trkpt lat="43.91172" lon="3.31702">
        <ele>772</ele>
        <time>2021-05-13T12:44:21Z</time>
      </trkpt>
      <trkpt lat="43.91158" lon="3.31704">
        <ele>771</ele>
        <time>2021-05-13T12:44:32Z</time>
      </trkpt>
      <trkpt lat="43.91136" lon="3.31703">
        <ele>769</ele>
        <time>2021-05-13T12:44:48Z</time>
      </trkpt>
      <trkpt lat="43.91113" lon="3.31727">
        <ele>766</ele>
        <time>2021-05-13T12:44:57Z</time>
      </trkpt>
      <trkpt lat="43.91058" lon="3.31685">
        <ele>767</ele>
        <time>2021-05-13T12:45:17Z</time>
      </trkpt>
      <trkpt lat="43.91041" lon="3.31679">
        <ele>768</ele>
        <time>2021-05-13T12:45:28Z</time>
      </trkpt>
      <trkpt lat="43.91023" lon="3.31676">
        <ele>770</ele>
        <time>2021-05-13T12:45:42Z</time>
      </trkpt>
      <trkpt lat="43.91018" lon="3.31671">
        <ele>771</ele>
        <time>2021-05-13T12:45:54Z</time>
      </trkpt>
      <trkpt lat="43.9101" lon="3.3166">
        <ele>772</ele>
        <time>2021-05-13T12:46:07Z</time>
      </trkpt>
      <trkpt lat="43.91003" lon="3.31655">
        <ele>773</ele>
        <time>2021-05-13T12:46:18Z</time>
      </trkpt>
      <trkpt lat="43.90995" lon="3.31645">
        <ele>774</ele>
        <time>2021-05-13T12:46:28Z</time>
      </trkpt>
      <trkpt lat="43.90967" lon="3.31611">
        <ele>776</ele>
        <time>2021-05-13T12:46:46Z</time>
      </trkpt>
      <trkpt lat="43.90933" lon="3.31599">
        <ele>778</ele>
        <time>2021-05-13T12:47:03Z</time>
      </trkpt>
      <trkpt lat="43.9091" lon="3.31603">
        <ele>780</ele>
        <time>2021-05-13T12:47:15Z</time>
      </trkpt>
      <trkpt lat="43.90884" lon="3.3161">
        <ele>782</ele>
        <time>2021-05-13T12:47:30Z</time>
      </trkpt>
      <trkpt lat="43.90863" lon="3.31617">
        <ele>784</ele>
        <time>2021-05-13T12:47:45Z</time>
      </trkpt>
      <trkpt lat="43.90839" lon="3.31631">
        <ele>787</ele>
        <time>2021-05-13T12:48:03Z</time>
      </trkpt>
      <trkpt lat="43.90833" lon="3.31642">
        <ele>788</ele>
        <time>2021-05-13T12:48:10Z</time>
      </trkpt>
      <trkpt lat="43.90816" lon="3.31665">
        <ele>789</ele>
        <time>2021-05-13T12:48:24Z</time>
      </trkpt>
      <trkpt lat="43.9078" lon="3.31709">
        <ele>793</ele>
        <time>2021-05-13T12:48:51Z</time>
      </trkpt>
      <trkpt lat="43.90759" lon="3.31726">
        <ele>795</ele>
        <time>2021-05-13T12:49:05Z</time>
      </trkpt>
      <trkpt lat="43.90736" lon="3.31753">
        <ele>796</ele>
        <time>2021-05-13T12:49:19Z</time>
      </trkpt>
      <trkpt lat="43.90716" lon="3.31786">
        <ele>797</ele>
        <time>2021-05-13T12:49:30Z</time>
      </trkpt>
      <trkpt lat="43.90673" lon="3.31795">
        <ele>799</ele>
        <time>2021-05-13T12:49:49Z</time>
      </trkpt>
      <trkpt lat="43.90649" lon="3.31801">
        <ele>799</ele>
        <time>2021-05-13T12:50:03Z</time>
      </trkpt>
      <trkpt lat="43.9062" lon="3.31828">
        <ele>802</ele>
        <time>2021-05-13T12:50:22Z</time>
      </trkpt>
      <trkpt lat="43.90591" lon="3.31827">
        <ele>804</ele>
        <time>2021-05-13T12:50:38Z</time>
      </trkpt>
      <trkpt lat="43.90566" lon="3.31827">
        <ele>807</ele>
        <time>2021-05-13T12:50:52Z</time>
      </trkpt>
      <trkpt lat="43.90533" lon="3.31822">
        <ele>810</ele>
        <time>2021-05-13T12:51:10Z</time>
      </trkpt>
      <trkpt lat="43.90513" lon="3.31821">
        <ele>812</ele>
        <time>2021-05-13T12:51:23Z</time>
      </trkpt>
      <trkpt lat="43.90488" lon="3.31817">
        <ele>815</ele>
        <time>2021-05-13T12:51:41Z</time>
      </trkpt>
      <trkpt lat="43.90467" lon="3.31809">
        <ele>817</ele>
        <time>2021-05-13T12:51:56Z</time>
      </trkpt>
      <trkpt lat="43.90461" lon="3.31806">
        <ele>818</ele>
        <time>2021-05-13T12:52:01Z</time>
      </trkpt>
      <trkpt lat="43.90443" lon="3.31801">
        <ele>821</ele>
        <time>2021-05-13T12:52:11Z</time>
      </trkpt>
      <trkpt lat="43.90415" lon="3.31802">
        <ele>823</ele>
        <time>2021-05-13T12:52:26Z</time>
      </trkpt>
      <trkpt lat="43.90386" lon="3.31805">
        <ele>825</ele>
        <time>2021-05-13T12:52:40Z</time>
      </trkpt>
      <trkpt lat="43.90336" lon="3.31815">
        <ele>827</ele>
        <time>2021-05-13T12:53:02Z</time>
      </trkpt>
      <trkpt lat="43.90316" lon="3.3181">
        <ele>828</ele>
        <time>2021-05-13T12:53:18Z</time>
      </trkpt>
      <trkpt lat="43.90276" lon="3.31808">
        <ele>827</ele>
        <time>2021-05-13T12:59:47Z</time>
      </trkpt>
      <trkpt lat="43.90233" lon="3.31795">
        <ele>826</ele>
        <time>2021-05-13T12:59:55Z</time>
      </trkpt>
      <trkpt lat="43.90204" lon="3.31784">
        <ele>824</ele>
        <time>2021-05-13T13:00:01Z</time>
      </trkpt>
      <trkpt lat="43.90174" lon="3.31766">
        <ele>820</ele>
        <time>2021-05-13T13:00:08Z</time>
      </trkpt>
      <trkpt lat="43.90152" lon="3.3176">
        <ele>816</ele>
        <time>2021-05-13T13:00:14Z</time>
      </trkpt>
      <trkpt lat="43.9013" lon="3.31746">
        <ele>814</ele>
        <time>2021-05-13T13:00:25Z</time>
      </trkpt>
      <trkpt lat="43.90103" lon="3.31729">
        <ele>813</ele>
        <time>2021-05-13T13:00:35Z</time>
      </trkpt>
      <trkpt lat="43.90082" lon="3.31722">
        <ele>810</ele>
        <time>2021-05-13T13:00:43Z</time>
      </trkpt>
      <trkpt lat="43.90038" lon="3.31712">
        <ele>809</ele>
        <time>2021-05-13T13:00:58Z</time>
      </trkpt>
      <trkpt lat="43.9" lon="3.31719">
        <ele>808</ele>
        <time>2021-05-13T13:01:09Z</time>
      </trkpt>
      <trkpt lat="43.89937" lon="3.31726">
        <ele>806</ele>
        <time>2021-05-13T13:01:27Z</time>
      </trkpt>
      <trkpt lat="43.89906" lon="3.31699">
        <ele>803</ele>
        <time>2021-05-13T13:01:38Z</time>
      </trkpt>
      <trkpt lat="43.89891" lon="3.31684">
        <ele>802</ele>
        <time>2021-05-13T13:01:47Z</time>
      </trkpt>
      <trkpt lat="43.89866" lon="3.31664">
        <ele>799</ele>
        <time>2021-05-13T13:01:59Z</time>
      </trkpt>
      <trkpt lat="43.89843" lon="3.31639">
        <ele>797</ele>
        <time>2021-05-13T13:02:12Z</time>
      </trkpt>
      <trkpt lat="43.89805" lon="3.3162">
        <ele>797</ele>
        <time>2021-05-13T13:02:33Z</time>
      </trkpt>
      <trkpt lat="43.89762" lon="3.31602">
        <ele>796</ele>
        <time>2021-05-13T13:02:52Z</time>
      </trkpt>
      <trkpt lat="43.8974" lon="3.31594">
        <ele>795</ele>
        <time>2021-05-13T13:04:35Z</time>
      </trkpt>
      <trkpt lat="43.8968" lon="3.31587">
        <ele>794</ele>
        <time>2021-05-13T13:04:59Z</time>
      </trkpt>
      <trkpt lat="43.89647" lon="3.31592">
        <ele>793</ele>
        <time>2021-05-13T13:05:10Z</time>
      </trkpt>
      <trkpt lat="43.89621" lon="3.31587">
        <ele>791</ele>
        <time>2021-05-13T13:05:19Z</time>
      </trkpt>
      <trkpt lat="43.89562" lon="3.31565">
        <ele>792</ele>
        <time>2021-05-13T13:05:40Z</time>
      </trkpt>
      <trkpt lat="43.8954" lon="3.31554">
        <ele>793</ele>
        <time>2021-05-13T13:05:51Z</time>
      </trkpt>
      <trkpt lat="43.89515" lon="3.3154">
        <ele>795</ele>
        <time>2021-05-13T13:06:04Z</time>
      </trkpt>
      <trkpt lat="43.89494" lon="3.31541">
        <ele>796</ele>
        <time>2021-05-13T13:06:15Z</time>
      </trkpt>
      <trkpt lat="43.89465" lon="3.31537">
        <ele>798</ele>
        <time>2021-05-13T13:06:31Z</time>
      </trkpt>
      <trkpt lat="43.8943" lon="3.31546">
        <ele>800</ele>
        <time>2021-05-13T13:06:51Z</time>
      </trkpt>
      <trkpt lat="43.89402" lon="3.31563">
        <ele>801</ele>
        <time>2021-05-13T13:07:09Z</time>
      </trkpt>
      <trkpt lat="43.89386" lon="3.31561">
        <ele>802</ele>
        <time>2021-05-13T13:07:18Z</time>
      </trkpt>
      <trkpt lat="43.89365" lon="3.31565">
        <ele>803</ele>
        <time>2021-05-13T13:07:30Z</time>
      </trkpt>
      <trkpt lat="43.89327" lon="3.31582">
        <ele>806</ele>
        <time>2021-05-13T13:07:52Z</time>
      </trkpt>
      <trkpt lat="43.89313" lon="3.31585">
        <ele>807</ele>
        <time>2021-05-13T13:08:01Z</time>
      </trkpt>
      <trkpt lat="43.89282" lon="3.3159">
        <ele>809</ele>
        <time>2021-05-13T13:08:15Z</time>
      </trkpt>
      <trkpt lat="43.89249" lon="3.316">
        <ele>811</ele>
        <time>2021-05-13T13:08:31Z</time>
      </trkpt>
      <trkpt lat="43.89231" lon="3.31603">
        <ele>812</ele>
        <time>2021-05-13T13:08:45Z</time>
      </trkpt>
      <trkpt lat="43.89211" lon="3.31617">
        <ele>815</ele>
        <time>2021-05-13T13:08:58Z</time>
      </trkpt>
      <trkpt lat="43.89194" lon="3.31622">
        <ele>816</ele>
        <time>2021-05-13T13:09:09Z</time>
      </trkpt>
      <trkpt lat="43.89192" lon="3.3162">
        <ele>816</ele>
        <time>2021-05-13T13:09:34Z</time>
      </trkpt>
      <trkpt lat="43.89181" lon="3.31614">
        <ele>816</ele>
        <time>2021-05-13T13:13:51Z</time>
      </trkpt>
      <trkpt lat="43.89147" lon="3.31604">
        <ele>814</ele>
        <time>2021-05-13T13:14:04Z</time>
      </trkpt>
      <trkpt lat="43.8913" lon="3.31604">
        <ele>813</ele>
        <time>2021-05-13T13:14:10Z</time>
      </trkpt>
      <trkpt lat="43.89119" lon="3.31605">
        <ele>811</ele>
        <time>2021-05-13T13:14:15Z</time>
      </trkpt>
      <trkpt lat="43.89099" lon="3.31607">
        <ele>808</ele>
        <time>2021-05-13T13:15:53Z</time>
      </trkpt>
      <trkpt lat="43.89078" lon="3.31601">
        <ele>807</ele>
        <time>2021-05-13T13:16:00Z</time>
      </trkpt>
      <trkpt lat="43.89051" lon="3.31597">
        <ele>804</ele>
        <time>2021-05-13T13:16:06Z</time>
      </trkpt>
      <trkpt lat="43.89025" lon="3.31606">
        <ele>801</ele>
        <time>2021-05-13T13:16:11Z</time>
      </trkpt>
      <trkpt lat="43.89003" lon="3.31611">
        <ele>797</ele>
        <time>2021-05-13T13:16:15Z</time>
      </trkpt>
      <trkpt lat="43.88959" lon="3.31617">
        <ele>793</ele>
        <time>2021-05-13T13:16:21Z</time>
      </trkpt>
      <trkpt lat="43.88909" lon="3.31619">
        <ele>786</ele>
        <time>2021-05-13T13:16:27Z</time>
      </trkpt>
      <trkpt lat="43.88875" lon="3.31626">
        <ele>782</ele>
        <time>2021-05-13T13:16:33Z</time>
      </trkpt>
      <trkpt lat="43.8884" lon="3.31636">
        <ele>779</ele>
        <time>2021-05-13T13:16:38Z</time>
      </trkpt>
      <trkpt lat="43.88821" lon="3.31639">
        <ele>777</ele>
        <time>2021-05-13T13:16:42Z</time>
      </trkpt>
      <trkpt lat="43.88802" lon="3.31641">
        <ele>774</ele>
        <time>2021-05-13T13:16:48Z</time>
      </trkpt>
      <trkpt lat="43.88769" lon="3.31658">
        <ele>772</ele>
        <time>2021-05-13T13:16:56Z</time>
      </trkpt>
      <trkpt lat="43.8871" lon="3.31664">
        <ele>770</ele>
        <time>2021-05-13T13:17:08Z</time>
      </trkpt>
      <trkpt lat="43.88673" lon="3.31678">
        <ele>769</ele>
        <time>2021-05-13T13:17:18Z</time>
      </trkpt>
      <trkpt lat="43.88614" lon="3.31689">
        <ele>767</ele>
        <time>2021-05-13T13:17:34Z</time>
      </trkpt>
      <trkpt lat="43.88589" lon="3.31695">
        <ele>766</ele>
        <time>2021-05-13T13:17:42Z</time>
      </trkpt>
      <trkpt lat="43.88585" lon="3.31698">
        <ele>765</ele>
        <time>2021-05-13T13:17:51Z</time>
      </trkpt>
      <trkpt lat="43.88574" lon="3.31701">
        <ele>764</ele>
        <time>2021-05-13T13:19:42Z</time>
      </trkpt>
      <trkpt lat="43.88507" lon="3.3171">
        <ele>762</ele>
        <time>2021-05-13T13:20:00Z</time>
      </trkpt>
      <trkpt lat="43.88414" lon="3.31705">
        <ele>762</ele>
        <time>2021-05-13T13:20:23Z</time>
      </trkpt>
      <trkpt lat="43.88323" lon="3.31742">
        <ele>760</ele>
        <time>2021-05-13T13:20:47Z</time>
      </trkpt>
      <trkpt lat="43.88293" lon="3.31765">
        <ele>758</ele>
        <time>2021-05-13T13:21:11Z</time>
      </trkpt>
      <trkpt lat="43.88202" lon="3.31804">
        <ele>758</ele>
        <time>2021-05-13T13:21:37Z</time>
      </trkpt>
      <trkpt lat="43.88137" lon="3.31787">
        <ele>758</ele>
        <time>2021-05-13T13:22:00Z</time>
      </trkpt>
      <trkpt lat="43.88055" lon="3.31774">
        <ele>758</ele>
        <time>2021-05-13T13:22:30Z</time>
      </trkpt>
      <trkpt lat="43.88017" lon="3.31768">
        <ele>756</ele>
        <time>2021-05-13T13:22:39Z</time>
      </trkpt>
      <trkpt lat="43.87977" lon="3.31755">
        <ele>754</ele>
        <time>2021-05-13T13:22:53Z</time>
      </trkpt>
      <trkpt lat="43.87928" lon="3.31756">
        <ele>753</ele>
        <time>2021-05-13T13:23:07Z</time>
      </trkpt>
      <trkpt lat="43.87876" lon="3.31746">
        <ele>752</ele>
        <time>2021-05-13T13:23:21Z</time>
      </trkpt>
      <trkpt lat="43.87796" lon="3.31746">
        <ele>752</ele>
        <time>2021-05-13T13:23:49Z</time>
      </trkpt>
      <trkpt lat="43.87782" lon="3.31746">
        <ele>750</ele>
        <time>2021-05-13T13:26:26Z</time>
      </trkpt>
      <trkpt lat="43.87734" lon="3.31727">
        <ele>749</ele>
        <time>2021-05-13T13:26:43Z</time>
      </trkpt>
      <trkpt lat="43.87668" lon="3.31708">
        <ele>747</ele>
        <time>2021-05-13T13:27:06Z</time>
      </trkpt>
      <trkpt lat="43.87637" lon="3.31698">
        <ele>744</ele>
        <time>2021-05-13T13:27:17Z</time>
      </trkpt>
      <trkpt lat="43.87616" lon="3.31681">
        <ele>743</ele>
        <time>2021-05-13T13:27:25Z</time>
      </trkpt>
      <trkpt lat="43.87582" lon="3.3164">
        <ele>743</ele>
        <time>2021-05-13T13:27:41Z</time>
      </trkpt>
      <trkpt lat="43.87535" lon="3.31631">
        <ele>743</ele>
        <time>2021-05-13T13:27:56Z</time>
      </trkpt>
      <trkpt lat="43.87471" lon="3.31644">
        <ele>742</ele>
        <time>2021-05-13T13:28:19Z</time>
      </trkpt>
      <trkpt lat="43.87449" lon="3.31645">
        <ele>742</ele>
        <time>2021-05-13T13:28:37Z</time>
      </trkpt>
      <trkpt lat="43.87441" lon="3.3164">
        <ele>741</ele>
        <time>2021-05-13T13:28:48Z</time>
      </trkpt>
      <trkpt lat="43.87399" lon="3.31642">
        <ele>740</ele>
        <time>2021-05-13T13:29:01Z</time>
      </trkpt>
      <trkpt lat="43.87347" lon="3.31632">
        <ele>738</ele>
        <time>2021-05-13T13:29:16Z</time>
      </trkpt>
      <trkpt lat="43.87325" lon="3.31636">
        <ele>737</ele>
        <time>2021-05-13T13:29:21Z</time>
      </trkpt>
      <trkpt lat="43.87274" lon="3.31636">
        <ele>735</ele>
        <time>2021-05-13T13:29:32Z</time>
      </trkpt>
      <trkpt lat="43.87215" lon="3.31653">
        <ele>734</ele>
        <time>2021-05-13T13:29:46Z</time>
      </trkpt>
      <trkpt lat="43.8716" lon="3.3165">
        <ele>733</ele>
        <time>2021-05-13T13:30:02Z</time>
      </trkpt>
      <trkpt lat="43.87128" lon="3.31655">
        <ele>732</ele>
        <time>2021-05-13T13:30:13Z</time>
      </trkpt>
      <trkpt lat="43.87114" lon="3.31628">
        <ele>732</ele>
        <time>2021-05-13T13:30:25Z</time>
      </trkpt>
      <trkpt lat="43.87094" lon="3.31626">
        <ele>734</ele>
        <time>2021-05-13T13:30:36Z</time>
      </trkpt>
      <trkpt lat="43.87058" lon="3.31645">
        <ele>734</ele>
        <time>2021-05-13T13:30:45Z</time>
      </trkpt>
      <trkpt lat="43.87018" lon="3.31669">
        <ele>733</ele>
        <time>2021-05-13T13:31:00Z</time>
      </trkpt>
      <trkpt lat="43.86996" lon="3.31666">
        <ele>734</ele>
        <time>2021-05-13T13:31:13Z</time>
      </trkpt>
      <trkpt lat="43.86988" lon="3.3166">
        <ele>734</ele>
        <time>2021-05-13T13:31:29Z</time>
      </trkpt>
      <trkpt lat="43.86973" lon="3.31652">
        <ele>732</ele>
        <time>2021-05-13T13:31:38Z</time>
      </trkpt>
      <trkpt lat="43.8694" lon="3.31629">
        <ele>734</ele>
        <time>2021-05-13T13:35:53Z</time>
      </trkpt>
      <trkpt lat="43.86923" lon="3.3163">
        <ele>733</ele>
        <time>2021-05-13T13:36:04Z</time>
      </trkpt>
      <trkpt lat="43.86922" lon="3.31632">
        <ele>732</ele>
        <time>2021-05-13T13:36:16Z</time>
      </trkpt>
      <trkpt lat="43.86921" lon="3.31643">
        <ele>732</ele>
        <time>2021-05-13T13:36:37Z</time>
      </trkpt>
      <trkpt lat="43.86934" lon="3.31691">
        <ele>734</ele>
        <time>2021-05-13T13:36:56Z</time>
      </trkpt>
      <trkpt lat="43.86962" lon="3.31724">
        <ele>734</ele>
        <time>2021-05-13T13:37:11Z</time>
      </trkpt>
      <trkpt lat="43.86973" lon="3.31789">
        <ele>733</ele>
        <time>2021-05-13T13:37:27Z</time>
      </trkpt>
      <trkpt lat="43.86947" lon="3.31812">
        <ele>731</ele>
        <time>2021-05-13T13:37:36Z</time>
      </trkpt>
      <trkpt lat="43.86916" lon="3.31832">
        <ele>730</ele>
        <time>2021-05-13T13:37:43Z</time>
      </trkpt>
      <trkpt lat="43.86838" lon="3.31851">
        <ele>729</ele>
        <time>2021-05-13T13:38:04Z</time>
      </trkpt>
      <trkpt lat="43.8679" lon="3.31872">
        <ele>731</ele>
        <time>2021-05-13T13:38:24Z</time>
      </trkpt>
      <trkpt lat="43.86755" lon="3.31898">
        <ele>733</ele>
        <time>2021-05-13T13:38:43Z</time>
      </trkpt>
      <trkpt lat="43.86726" lon="3.31915">
        <ele>736</ele>
        <time>2021-05-13T13:38:59Z</time>
      </trkpt>
      <trkpt lat="43.86682" lon="3.31939">
        <ele>737</ele>
        <time>2021-05-13T13:39:21Z</time>
      </trkpt>
      <trkpt lat="43.86664" lon="3.31933">
        <ele>740</ele>
        <time>2021-05-13T13:39:34Z</time>
      </trkpt>
      <trkpt lat="43.86641" lon="3.31938">
        <ele>742</ele>
        <time>2021-05-13T13:39:49Z</time>
      </trkpt>
      <trkpt lat="43.86641" lon="3.31934">
        <ele>743</ele>
        <time>2021-05-13T13:39:58Z</time>
      </trkpt>
      <trkpt lat="43.8664" lon="3.31926">
        <ele>744</ele>
        <time>2021-05-13T13:40:09Z</time>
      </trkpt>
      <trkpt lat="43.86634" lon="3.31926">
        <ele>746</ele>
        <time>2021-05-13T13:40:39Z</time>
      </trkpt>
      <trkpt lat="43.8663" lon="3.31927">
        <ele>747</ele>
        <time>2021-05-13T13:40:49Z</time>
      </trkpt>
      <trkpt lat="43.86618" lon="3.31934">
        <ele>749</ele>
        <time>2021-05-13T13:41:42Z</time>
      </trkpt>
      <trkpt lat="43.8661" lon="3.31951">
        <ele>750</ele>
        <time>2021-05-13T13:41:52Z</time>
      </trkpt>
      <trkpt lat="43.86605" lon="3.31966">
        <ele>751</ele>
        <time>2021-05-13T13:42:01Z</time>
      </trkpt>
      <trkpt lat="43.86601" lon="3.31968">
        <ele>751</ele>
        <time>2021-05-13T13:42:09Z</time>
      </trkpt>
      <trkpt lat="43.86594" lon="3.31972">
        <ele>752</ele>
        <time>2021-05-13T13:42:19Z</time>
      </trkpt>
      <trkpt lat="43.86588" lon="3.31986">
        <ele>753</ele>
        <time>2021-05-13T13:42:27Z</time>
      </trkpt>
      <trkpt lat="43.86582" lon="3.31999">
        <ele>753</ele>
        <time>2021-05-13T13:42:36Z</time>
      </trkpt>
      <trkpt lat="43.86554" lon="3.32031">
        <ele>763</ele>
        <time>2021-05-13T13:44:09Z</time>
      </trkpt>
      <trkpt lat="43.86531" lon="3.32053">
        <ele>766</ele>
        <time>2021-05-13T13:44:33Z</time>
      </trkpt>
      <trkpt lat="43.86519" lon="3.32058">
        <ele>767</ele>
        <time>2021-05-13T13:44:55Z</time>
      </trkpt>
      <trkpt lat="43.86529" lon="3.32076">
        <ele>766</ele>
        <time>2021-05-13T13:46:29Z</time>
      </trkpt>
      <trkpt lat="43.8652" lon="3.32092">
        <ele>760</ele>
        <time>2021-05-13T13:46:36Z</time>
      </trkpt>
      <trkpt lat="43.86523" lon="3.32112">
        <ele>755</ele>
        <time>2021-05-13T13:47:01Z</time>
      </trkpt>
      <trkpt lat="43.86531" lon="3.32154">
        <ele>752</ele>
        <time>2021-05-13T13:47:07Z</time>
      </trkpt>
      <trkpt lat="43.86534" lon="3.32183">
        <ele>747</ele>
        <time>2021-05-13T13:47:12Z</time>
      </trkpt>
      <trkpt lat="43.86547" lon="3.32223">
        <ele>743</ele>
        <time>2021-05-13T13:47:18Z</time>
      </trkpt>
      <trkpt lat="43.86562" lon="3.32243">
        <ele>741</ele>
        <time>2021-05-13T13:47:22Z</time>
      </trkpt>
      <trkpt lat="43.86567" lon="3.32251">
        <ele>737</ele>
        <time>2021-05-13T13:47:35Z</time>
      </trkpt>
      <trkpt lat="43.86579" lon="3.32269">
        <ele>736</ele>
        <time>2021-05-13T13:49:14Z</time>
      </trkpt>
      <trkpt lat="43.86586" lon="3.32301">
        <ele>735</ele>
        <time>2021-05-13T13:49:26Z</time>
      </trkpt>
      <trkpt lat="43.86585" lon="3.32316">
        <ele>734</ele>
        <time>2021-05-13T13:49:33Z</time>
      </trkpt>
      <trkpt lat="43.86576" lon="3.32338">
        <ele>733</ele>
        <time>2021-05-13T13:49:44Z</time>
      </trkpt>
      <trkpt lat="43.86566" lon="3.32369">
        <ele>733</ele>
        <time>2021-05-13T13:49:53Z</time>
      </trkpt>
    </trkseg>
  </trk>
</gpx>